<?xml version="1.0" encoding="UTF-8" standalone="no" ?><gpx xmlns="http://www.topografix.com/GPX/1/1" xmlns:gpxx="http://www.garmin.com/xmlschemas/GpxExtensions/v3" xmlns:wptx1="http://www.garmin.com/xmlschemas/WaypointExtension/v1" xmlns:gpxtpx="http://www.garmin.com/xmlschemas/TrackPointExtension/v1" creator="GuideVTT.com" version="1.1" xmlns:xsi="http://www.w3.org/2001/XMLSchema-instance" xsi:schemaLocation="http://www.topografix.com/GPX/1/1 http://www.topografix.com/GPX/1/1/gpx.xsd http://www.garmin.com/xmlschemas/GpxExtensions/v3 http://www8.garmin.com/xmlschemas/GpxExtensionsv3.xsd http://www.garmin.com/xmlschemas/WaypointExtension/v1 http://www8.garmin.com/xmlschemas/WaypointExtensionv1.xsd http://www.garmin.com/xmlschemas/TrackPointExtension/v1 http://www.garmin.com/xmlschemas/TrackPointExtensionv1.xsd">
<metadata><link href="http://www.garmin.com"><text>Garmin International</text></link><time>2013-06-22T15:13:50Z</time></metadata>
<trk><name>2021-09-07_1430__20210907_1430.gpx</name><extensions><gpxx:TrackExtension><gpxx:DisplayColor>Cyan</gpxx:DisplayColor></gpxx:TrackExtension></extensions><trkseg>
<trkpt lat="42.4940699" lon="2.7033738"><ele></ele><time>2022-6-1T21:24:5Z</time></trkpt>
<trkpt lat="42.4939504" lon="2.7031900"><ele></ele><time>2022-6-1T21:24:8Z</time></trkpt>
<trkpt lat="42.4939808" lon="2.7029415"><ele></ele><time>2022-6-1T21:24:11Z</time></trkpt>
<trkpt lat="42.4937755" lon="2.7029074"><ele></ele><time>2022-6-1T21:24:14Z</time></trkpt>
<trkpt lat="42.4935938" lon="2.7028253"><ele></ele><time>2022-6-1T21:24:17Z</time></trkpt>
<trkpt lat="42.4933975" lon="2.7027442"><ele></ele><time>2022-6-1T21:24:20Z</time></trkpt>
<trkpt lat="42.4931865" lon="2.7026724"><ele></ele><time>2022-6-1T21:24:23Z</time></trkpt>
<trkpt lat="42.4930130" lon="2.7025775"><ele></ele><time>2022-6-1T21:24:26Z</time></trkpt>
<trkpt lat="42.4928433" lon="2.7024828"><ele></ele><time>2022-6-1T21:24:29Z</time></trkpt>
<trkpt lat="42.4926481" lon="2.7023942"><ele></ele><time>2022-6-1T21:24:32Z</time></trkpt>
<trkpt lat="42.4924533" lon="2.7023075"><ele></ele><time>2022-6-1T21:24:35Z</time></trkpt>
<trkpt lat="42.4922813" lon="2.7021909"><ele></ele><time>2022-6-1T21:24:38Z</time></trkpt>
<trkpt lat="42.4920826" lon="2.7021122"><ele></ele><time>2022-6-1T21:24:41Z</time></trkpt>
<trkpt lat="42.4919141" lon="2.7020018"><ele></ele><time>2022-6-1T21:24:44Z</time></trkpt>
<trkpt lat="42.4917198" lon="2.7018578"><ele></ele><time>2022-6-1T21:24:47Z</time></trkpt>
<trkpt lat="42.4915126" lon="2.7017168"><ele></ele><time>2022-6-1T21:24:50Z</time></trkpt>
<trkpt lat="42.4913274" lon="2.7016417"><ele></ele><time>2022-6-1T21:24:53Z</time></trkpt>
<trkpt lat="42.4911381" lon="2.7015429"><ele></ele><time>2022-6-1T21:24:56Z</time></trkpt>
<trkpt lat="42.4909321" lon="2.7014518"><ele></ele><time>2022-6-1T21:24:59Z</time></trkpt>
<trkpt lat="42.4907610" lon="2.7013444"><ele></ele><time>2022-6-1T21:25:2Z</time></trkpt>
<trkpt lat="42.4905841" lon="2.7012510"><ele></ele><time>2022-6-1T21:25:5Z</time></trkpt>
<trkpt lat="42.4904133" lon="2.7011423"><ele></ele><time>2022-6-1T21:25:8Z</time></trkpt>
<trkpt lat="42.4902380" lon="2.7010387"><ele></ele><time>2022-6-1T21:25:11Z</time></trkpt>
<trkpt lat="42.4900483" lon="2.7009049"><ele></ele><time>2022-6-1T21:25:14Z</time></trkpt>
<trkpt lat="42.4898672" lon="2.7007486"><ele></ele><time>2022-6-1T21:25:17Z</time></trkpt>
<trkpt lat="42.4896795" lon="2.7005833"><ele></ele><time>2022-6-1T21:25:20Z</time></trkpt>
<trkpt lat="42.4894895" lon="2.7004208"><ele></ele><time>2022-6-1T21:25:23Z</time></trkpt>
<trkpt lat="42.4892949" lon="2.7002697"><ele></ele><time>2022-6-1T21:25:26Z</time></trkpt>
<trkpt lat="42.4890997" lon="2.7001015"><ele></ele><time>2022-6-1T21:25:29Z</time></trkpt>
<trkpt lat="42.4889125" lon="2.6999398"><ele></ele><time>2022-6-1T21:25:32Z</time></trkpt>
<trkpt lat="42.4887161" lon="2.6997889"><ele></ele><time>2022-6-1T21:25:35Z</time></trkpt>
<trkpt lat="42.4885203" lon="2.6996257"><ele></ele><time>2022-6-1T21:25:38Z</time></trkpt>
<trkpt lat="42.4883375" lon="2.6994714"><ele></ele><time>2022-6-1T21:25:41Z</time></trkpt>
<trkpt lat="42.4881482" lon="2.6993374"><ele></ele><time>2022-6-1T21:25:44Z</time></trkpt>
<trkpt lat="42.4879512" lon="2.6991800"><ele></ele><time>2022-6-1T21:25:47Z</time></trkpt>
<trkpt lat="42.4877673" lon="2.6990397"><ele></ele><time>2022-6-1T21:25:50Z</time></trkpt>
<trkpt lat="42.4875858" lon="2.6988958"><ele></ele><time>2022-6-1T21:25:53Z</time></trkpt>
<trkpt lat="42.4873925" lon="2.6987641"><ele></ele><time>2022-6-1T21:25:56Z</time></trkpt>
<trkpt lat="42.4872041" lon="2.6986321"><ele></ele><time>2022-6-1T21:25:59Z</time></trkpt>
<trkpt lat="42.4870102" lon="2.6984946"><ele></ele><time>2022-6-1T21:26:2Z</time></trkpt>
<trkpt lat="42.4868412" lon="2.6983523"><ele></ele><time>2022-6-1T21:26:5Z</time></trkpt>
<trkpt lat="42.4866536" lon="2.6982111"><ele></ele><time>2022-6-1T21:26:8Z</time></trkpt>
<trkpt lat="42.4864538" lon="2.6980764"><ele></ele><time>2022-6-1T21:26:11Z</time></trkpt>
<trkpt lat="42.4862768" lon="2.6979503"><ele></ele><time>2022-6-1T21:26:14Z</time></trkpt>
<trkpt lat="42.4860957" lon="2.6978497"><ele></ele><time>2022-6-1T21:26:17Z</time></trkpt>
<trkpt lat="42.4859183" lon="2.6977096"><ele></ele><time>2022-6-1T21:26:20Z</time></trkpt>
<trkpt lat="42.4857487" lon="2.6975706"><ele></ele><time>2022-6-1T21:26:23Z</time></trkpt>
<trkpt lat="42.4855861" lon="2.6974136"><ele></ele><time>2022-6-1T21:26:26Z</time></trkpt>
<trkpt lat="42.4854471" lon="2.6972511"><ele></ele><time>2022-6-1T21:26:29Z</time></trkpt>
<trkpt lat="42.4853001" lon="2.6970947"><ele></ele><time>2022-6-1T21:26:32Z</time></trkpt>
<trkpt lat="42.4851374" lon="2.6969011"><ele></ele><time>2022-6-1T21:26:35Z</time></trkpt>
<trkpt lat="42.4849850" lon="2.6966885"><ele></ele><time>2022-6-1T21:26:38Z</time></trkpt>
<trkpt lat="42.4848022" lon="2.6965161"><ele></ele><time>2022-6-1T21:26:41Z</time></trkpt>
<trkpt lat="42.4846295" lon="2.6963543"><ele></ele><time>2022-6-1T21:26:44Z</time></trkpt>
<trkpt lat="42.4844681" lon="2.6961887"><ele></ele><time>2022-6-1T21:26:47Z</time></trkpt>
<trkpt lat="42.4843122" lon="2.6960160"><ele></ele><time>2022-6-1T21:26:50Z</time></trkpt>
<trkpt lat="42.4841446" lon="2.6958208"><ele></ele><time>2022-6-1T21:26:53Z</time></trkpt>
<trkpt lat="42.4839833" lon="2.6956356"><ele></ele><time>2022-6-1T21:26:56Z</time></trkpt>
<trkpt lat="42.4838355" lon="2.6954387"><ele></ele><time>2022-6-1T21:26:59Z</time></trkpt>
<trkpt lat="42.4837070" lon="2.6952425"><ele></ele><time>2022-6-1T21:27:2Z</time></trkpt>
<trkpt lat="42.4835974" lon="2.6950330"><ele></ele><time>2022-6-1T21:27:5Z</time></trkpt>
<trkpt lat="42.4834984" lon="2.6947979"><ele></ele><time>2022-6-1T21:27:8Z</time></trkpt>
<trkpt lat="42.4833777" lon="2.6945263"><ele></ele><time>2022-6-1T21:27:11Z</time></trkpt>
<trkpt lat="42.4832782" lon="2.6942445"><ele></ele><time>2022-6-1T21:27:14Z</time></trkpt>
<trkpt lat="42.4832174" lon="2.6939599"><ele></ele><time>2022-6-1T21:27:17Z</time></trkpt>
<trkpt lat="42.4831504" lon="2.6937074"><ele></ele><time>2022-6-1T21:27:20Z</time></trkpt>
<trkpt lat="42.4831073" lon="2.6934299"><ele></ele><time>2022-6-1T21:27:23Z</time></trkpt>
<trkpt lat="42.4830766" lon="2.6931710"><ele></ele><time>2022-6-1T21:27:26Z</time></trkpt>
<trkpt lat="42.4830872" lon="2.6929254"><ele></ele><time>2022-6-1T21:27:29Z</time></trkpt>
<trkpt lat="42.4831056" lon="2.6926269"><ele></ele><time>2022-6-1T21:27:32Z</time></trkpt>
<trkpt lat="42.4831121" lon="2.6923513"><ele></ele><time>2022-6-1T21:27:35Z</time></trkpt>
<trkpt lat="42.4831283" lon="2.6920992"><ele></ele><time>2022-6-1T21:27:38Z</time></trkpt>
<trkpt lat="42.4831305" lon="2.6918072"><ele></ele><time>2022-6-1T21:27:41Z</time></trkpt>
<trkpt lat="42.4831958" lon="2.6915431"><ele></ele><time>2022-6-1T21:27:44Z</time></trkpt>
<trkpt lat="42.4833410" lon="2.6913487"><ele></ele><time>2022-6-1T21:27:47Z</time></trkpt>
<trkpt lat="42.4833765" lon="2.6911004"><ele></ele><time>2022-6-1T21:27:50Z</time></trkpt>
<trkpt lat="42.4834254" lon="2.6908429"><ele></ele><time>2022-6-1T21:27:53Z</time></trkpt>
<trkpt lat="42.4835300" lon="2.6906209"><ele></ele><time>2022-6-1T21:27:56Z</time></trkpt>
<trkpt lat="42.4836681" lon="2.6904102"><ele></ele><time>2022-6-1T21:27:59Z</time></trkpt>
<trkpt lat="42.4837631" lon="2.6901625"><ele></ele><time>2022-6-1T21:28:2Z</time></trkpt>
<trkpt lat="42.4837098" lon="2.6899239"><ele></ele><time>2022-6-1T21:28:5Z</time></trkpt>
<trkpt lat="42.4836445" lon="2.6896828"><ele></ele><time>2022-6-1T21:28:8Z</time></trkpt>
<trkpt lat="42.4836005" lon="2.6894184"><ele></ele><time>2022-6-1T21:28:11Z</time></trkpt>
<trkpt lat="42.4835672" lon="2.6891612"><ele></ele><time>2022-6-1T21:28:14Z</time></trkpt>
<trkpt lat="42.4835066" lon="2.6889287"><ele></ele><time>2022-6-1T21:28:17Z</time></trkpt>
<trkpt lat="42.4834455" lon="2.6886600"><ele></ele><time>2022-6-1T21:28:20Z</time></trkpt>
<trkpt lat="42.4833539" lon="2.6884191"><ele></ele><time>2022-6-1T21:28:23Z</time></trkpt>
<trkpt lat="42.4832435" lon="2.6881984"><ele></ele><time>2022-6-1T21:28:26Z</time></trkpt>
<trkpt lat="42.4831215" lon="2.6880040"><ele></ele><time>2022-6-1T21:28:29Z</time></trkpt>
<trkpt lat="42.4829803" lon="2.6877754"><ele></ele><time>2022-6-1T21:28:32Z</time></trkpt>
<trkpt lat="42.4828374" lon="2.6875650"><ele></ele><time>2022-6-1T21:28:35Z</time></trkpt>
<trkpt lat="42.4827156" lon="2.6873447"><ele></ele><time>2022-6-1T21:28:38Z</time></trkpt>
<trkpt lat="42.4826211" lon="2.6870942"><ele></ele><time>2022-6-1T21:28:41Z</time></trkpt>
<trkpt lat="42.4825632" lon="2.6868023"><ele></ele><time>2022-6-1T21:28:44Z</time></trkpt>
<trkpt lat="42.4824869" lon="2.6865591"><ele></ele><time>2022-6-1T21:28:47Z</time></trkpt>
<trkpt lat="42.4824224" lon="2.6863112"><ele></ele><time>2022-6-1T21:28:50Z</time></trkpt>
<trkpt lat="42.4823613" lon="2.6860809"><ele></ele><time>2022-6-1T21:28:53Z</time></trkpt>
<trkpt lat="42.4822908" lon="2.6858203"><ele></ele><time>2022-6-1T21:28:56Z</time></trkpt>
<trkpt lat="42.4822271" lon="2.6855641"><ele></ele><time>2022-6-1T21:28:59Z</time></trkpt>
<trkpt lat="42.4821555" lon="2.6853083"><ele></ele><time>2022-6-1T21:29:2Z</time></trkpt>
<trkpt lat="42.4820919" lon="2.6850587"><ele></ele><time>2022-6-1T21:29:5Z</time></trkpt>
<trkpt lat="42.4820255" lon="2.6848261"><ele></ele><time>2022-6-1T21:29:8Z</time></trkpt>
<trkpt lat="42.4819582" lon="2.6845936"><ele></ele><time>2022-6-1T21:29:11Z</time></trkpt>
<trkpt lat="42.4819500" lon="2.6843284"><ele></ele><time>2022-6-1T21:29:14Z</time></trkpt>
<trkpt lat="42.4819802" lon="2.6840848"><ele></ele><time>2022-6-1T21:29:17Z</time></trkpt>
<trkpt lat="42.4820147" lon="2.6838443"><ele></ele><time>2022-6-1T21:29:20Z</time></trkpt>
<trkpt lat="42.4820384" lon="2.6836020"><ele></ele><time>2022-6-1T21:29:23Z</time></trkpt>
<trkpt lat="42.4820717" lon="2.6833501"><ele></ele><time>2022-6-1T21:29:26Z</time></trkpt>
<trkpt lat="42.4820980" lon="2.6830901"><ele></ele><time>2022-6-1T21:29:29Z</time></trkpt>
<trkpt lat="42.4821276" lon="2.6828141"><ele></ele><time>2022-6-1T21:29:32Z</time></trkpt>
<trkpt lat="42.4821597" lon="2.6825628"><ele></ele><time>2022-6-1T21:29:35Z</time></trkpt>
<trkpt lat="42.4821775" lon="2.6822972"><ele></ele><time>2022-6-1T21:29:38Z</time></trkpt>
<trkpt lat="42.4822047" lon="2.6820298"><ele></ele><time>2022-6-1T21:29:41Z</time></trkpt>
<trkpt lat="42.4822290" lon="2.6817753"><ele></ele><time>2022-6-1T21:29:44Z</time></trkpt>
<trkpt lat="42.4822236" lon="2.6814888"><ele></ele><time>2022-6-1T21:29:47Z</time></trkpt>
<trkpt lat="42.4821745" lon="2.6812144"><ele></ele><time>2022-6-1T21:29:50Z</time></trkpt>
<trkpt lat="42.4820991" lon="2.6809448"><ele></ele><time>2022-6-1T21:29:53Z</time></trkpt>
<trkpt lat="42.4820191" lon="2.6806848"><ele></ele><time>2022-6-1T21:29:56Z</time></trkpt>
<trkpt lat="42.4819343" lon="2.6804290"><ele></ele><time>2022-6-1T21:29:59Z</time></trkpt>
<trkpt lat="42.4818625" lon="2.6801625"><ele></ele><time>2022-6-1T21:30:2Z</time></trkpt>
<trkpt lat="42.4817944" lon="2.6799089"><ele></ele><time>2022-6-1T21:30:5Z</time></trkpt>
<trkpt lat="42.4817463" lon="2.6796659"><ele></ele><time>2022-6-1T21:30:8Z</time></trkpt>
<trkpt lat="42.4816494" lon="2.6793911"><ele></ele><time>2022-6-1T21:30:11Z</time></trkpt>
<trkpt lat="42.4815805" lon="2.6791578"><ele></ele><time>2022-6-1T21:30:14Z</time></trkpt>
<trkpt lat="42.4815170" lon="2.6788898"><ele></ele><time>2022-6-1T21:30:17Z</time></trkpt>
<trkpt lat="42.4814492" lon="2.6786527"><ele></ele><time>2022-6-1T21:30:20Z</time></trkpt>
<trkpt lat="42.4813495" lon="2.6783959"><ele></ele><time>2022-6-1T21:30:23Z</time></trkpt>
<trkpt lat="42.4812928" lon="2.6781264"><ele></ele><time>2022-6-1T21:30:26Z</time></trkpt>
<trkpt lat="42.4810810" lon="2.6782048"><ele></ele><time>2022-6-1T21:30:29Z</time></trkpt>
<trkpt lat="42.4808991" lon="2.6781156"><ele></ele><time>2022-6-1T21:30:32Z</time></trkpt>
<trkpt lat="42.4808701" lon="2.6778374"><ele></ele><time>2022-6-1T21:30:35Z</time></trkpt>
<trkpt lat="42.4808280" lon="2.6775669"><ele></ele><time>2022-6-1T21:30:38Z</time></trkpt>
<trkpt lat="42.4807433" lon="2.6773514"><ele></ele><time>2022-6-1T21:30:41Z</time></trkpt>
<trkpt lat="42.4806547" lon="2.6771244"><ele></ele><time>2022-6-1T21:30:44Z</time></trkpt>
<trkpt lat="42.4805406" lon="2.6768849"><ele></ele><time>2022-6-1T21:30:47Z</time></trkpt>
<trkpt lat="42.4804216" lon="2.6766940"><ele></ele><time>2022-6-1T21:30:50Z</time></trkpt>
<trkpt lat="42.4802729" lon="2.6764893"><ele></ele><time>2022-6-1T21:30:53Z</time></trkpt>
<trkpt lat="42.4801189" lon="2.6762994"><ele></ele><time>2022-6-1T21:30:56Z</time></trkpt>
<trkpt lat="42.4799544" lon="2.6761589"><ele></ele><time>2022-6-1T21:30:59Z</time></trkpt>
<trkpt lat="42.4797576" lon="2.6760098"><ele></ele><time>2022-6-1T21:31:2Z</time></trkpt>
<trkpt lat="42.4795525" lon="2.6758805"><ele></ele><time>2022-6-1T21:31:5Z</time></trkpt>
<trkpt lat="42.4793894" lon="2.6757664"><ele></ele><time>2022-6-1T21:31:8Z</time></trkpt>
<trkpt lat="42.4792169" lon="2.6756885"><ele></ele><time>2022-6-1T21:31:11Z</time></trkpt>
<trkpt lat="42.4790038" lon="2.6755908"><ele></ele><time>2022-6-1T21:31:14Z</time></trkpt>
<trkpt lat="42.4787985" lon="2.6755209"><ele></ele><time>2022-6-1T21:31:17Z</time></trkpt>
<trkpt lat="42.4786024" lon="2.6754610"><ele></ele><time>2022-6-1T21:31:20Z</time></trkpt>
<trkpt lat="42.4783980" lon="2.6753779"><ele></ele><time>2022-6-1T21:31:23Z</time></trkpt>
<trkpt lat="42.4781985" lon="2.6753176"><ele></ele><time>2022-6-1T21:31:26Z</time></trkpt>
<trkpt lat="42.4780197" lon="2.6752473"><ele></ele><time>2022-6-1T21:31:29Z</time></trkpt>
<trkpt lat="42.4778413" lon="2.6751461"><ele></ele><time>2022-6-1T21:31:32Z</time></trkpt>
<trkpt lat="42.4776663" lon="2.6750398"><ele></ele><time>2022-6-1T21:31:35Z</time></trkpt>
<trkpt lat="42.4774814" lon="2.6749102"><ele></ele><time>2022-6-1T21:31:38Z</time></trkpt>
<trkpt lat="42.4773340" lon="2.6747452"><ele></ele><time>2022-6-1T21:31:41Z</time></trkpt>
<trkpt lat="42.4771867" lon="2.6745817"><ele></ele><time>2022-6-1T21:31:44Z</time></trkpt>
<trkpt lat="42.4770387" lon="2.6744362"><ele></ele><time>2022-6-1T21:31:47Z</time></trkpt>
<trkpt lat="42.4768898" lon="2.6742657"><ele></ele><time>2022-6-1T21:31:50Z</time></trkpt>
<trkpt lat="42.4767399" lon="2.6740674"><ele></ele><time>2022-6-1T21:31:53Z</time></trkpt>
<trkpt lat="42.4765957" lon="2.6738664"><ele></ele><time>2022-6-1T21:31:56Z</time></trkpt>
<trkpt lat="42.4764684" lon="2.6736907"><ele></ele><time>2022-6-1T21:31:59Z</time></trkpt>
<trkpt lat="42.4763329" lon="2.6734707"><ele></ele><time>2022-6-1T21:32:2Z</time></trkpt>
<trkpt lat="42.4762221" lon="2.6732298"><ele></ele><time>2022-6-1T21:32:5Z</time></trkpt>
<trkpt lat="42.4761027" lon="2.6729887"><ele></ele><time>2022-6-1T21:32:8Z</time></trkpt>
<trkpt lat="42.4760037" lon="2.6727466"><ele></ele><time>2022-6-1T21:32:11Z</time></trkpt>
<trkpt lat="42.4759277" lon="2.6725205"><ele></ele><time>2022-6-1T21:32:14Z</time></trkpt>
<trkpt lat="42.4757400" lon="2.6725158"><ele></ele><time>2022-6-1T21:32:17Z</time></trkpt>
<trkpt lat="42.4755734" lon="2.6726205"><ele></ele><time>2022-6-1T21:32:20Z</time></trkpt>
<trkpt lat="42.4754045" lon="2.6727286"><ele></ele><time>2022-6-1T21:32:23Z</time></trkpt>
<trkpt lat="42.4752148" lon="2.6728267"><ele></ele><time>2022-6-1T21:32:26Z</time></trkpt>
<trkpt lat="42.4750130" lon="2.6727841"><ele></ele><time>2022-6-1T21:32:29Z</time></trkpt>
<trkpt lat="42.4749019" lon="2.6725661"><ele></ele><time>2022-6-1T21:32:32Z</time></trkpt>
<trkpt lat="42.4748406" lon="2.6723319"><ele></ele><time>2022-6-1T21:32:35Z</time></trkpt>
<trkpt lat="42.4747796" lon="2.6720802"><ele></ele><time>2022-6-1T21:32:38Z</time></trkpt>
<trkpt lat="42.4747215" lon="2.6718251"><ele></ele><time>2022-6-1T21:32:41Z</time></trkpt>
<trkpt lat="42.4746473" lon="2.6715591"><ele></ele><time>2022-6-1T21:32:44Z</time></trkpt>
<trkpt lat="42.4746480" lon="2.6712790"><ele></ele><time>2022-6-1T21:32:47Z</time></trkpt>
<trkpt lat="42.4745905" lon="2.6710478"><ele></ele><time>2022-6-1T21:32:50Z</time></trkpt>
<trkpt lat="42.4745378" lon="2.6707734"><ele></ele><time>2022-6-1T21:32:53Z</time></trkpt>
<trkpt lat="42.4745227" lon="2.6704770"><ele></ele><time>2022-6-1T21:32:56Z</time></trkpt>
<trkpt lat="42.4745361" lon="2.6702119"><ele></ele><time>2022-6-1T21:32:59Z</time></trkpt>
<trkpt lat="42.4746315" lon="2.6699608"><ele></ele><time>2022-6-1T21:33:2Z</time></trkpt>
<trkpt lat="42.4747329" lon="2.6697445"><ele></ele><time>2022-6-1T21:33:5Z</time></trkpt>
<trkpt lat="42.4748524" lon="2.6695394"><ele></ele><time>2022-6-1T21:33:8Z</time></trkpt>
<trkpt lat="42.4749653" lon="2.6693259"><ele></ele><time>2022-6-1T21:33:11Z</time></trkpt>
<trkpt lat="42.4751182" lon="2.6690797"><ele></ele><time>2022-6-1T21:33:14Z</time></trkpt>
<trkpt lat="42.4752185" lon="2.6688756"><ele></ele><time>2022-6-1T21:33:17Z</time></trkpt>
<trkpt lat="42.4753363" lon="2.6686723"><ele></ele><time>2022-6-1T21:33:20Z</time></trkpt>
<trkpt lat="42.4754523" lon="2.6684700"><ele></ele><time>2022-6-1T21:33:23Z</time></trkpt>
<trkpt lat="42.4756059" lon="2.6683181"><ele></ele><time>2022-6-1T21:33:26Z</time></trkpt>
<trkpt lat="42.4756584" lon="2.6680760"><ele></ele><time>2022-6-1T21:33:29Z</time></trkpt>
<trkpt lat="42.4757482" lon="2.6678528"><ele></ele><time>2022-6-1T21:33:32Z</time></trkpt>
<trkpt lat="42.4758423" lon="2.6676246"><ele></ele><time>2022-6-1T21:33:35Z</time></trkpt>
<trkpt lat="42.4759149" lon="2.6673814"><ele></ele><time>2022-6-1T21:33:38Z</time></trkpt>
<trkpt lat="42.4759692" lon="2.6671392"><ele></ele><time>2022-6-1T21:33:41Z</time></trkpt>
<trkpt lat="42.4760215" lon="2.6668908"><ele></ele><time>2022-6-1T21:33:44Z</time></trkpt>
<trkpt lat="42.4760501" lon="2.6666370"><ele></ele><time>2022-6-1T21:33:47Z</time></trkpt>
<trkpt lat="42.4760633" lon="2.6663708"><ele></ele><time>2022-6-1T21:33:50Z</time></trkpt>
<trkpt lat="42.4760699" lon="2.6661107"><ele></ele><time>2022-6-1T21:33:53Z</time></trkpt>
<trkpt lat="42.4760477" lon="2.6658623"><ele></ele><time>2022-6-1T21:33:56Z</time></trkpt>
<trkpt lat="42.4760269" lon="2.6656112"><ele></ele><time>2022-6-1T21:33:59Z</time></trkpt>
<trkpt lat="42.4759943" lon="2.6653605"><ele></ele><time>2022-6-1T21:34:2Z</time></trkpt>
<trkpt lat="42.4759481" lon="2.6651216"><ele></ele><time>2022-6-1T21:34:5Z</time></trkpt>
<trkpt lat="42.4758831" lon="2.6648847"><ele></ele><time>2022-6-1T21:34:8Z</time></trkpt>
<trkpt lat="42.4758156" lon="2.6646522"><ele></ele><time>2022-6-1T21:34:11Z</time></trkpt>
<trkpt lat="42.4757260" lon="2.6644338"><ele></ele><time>2022-6-1T21:34:14Z</time></trkpt>
<trkpt lat="42.4756127" lon="2.6641570"><ele></ele><time>2022-6-1T21:34:17Z</time></trkpt>
<trkpt lat="42.4755178" lon="2.6639486"><ele></ele><time>2022-6-1T21:34:20Z</time></trkpt>
<trkpt lat="42.4754011" lon="2.6637567"><ele></ele><time>2022-6-1T21:34:23Z</time></trkpt>
<trkpt lat="42.4752915" lon="2.6635522"><ele></ele><time>2022-6-1T21:34:26Z</time></trkpt>
<trkpt lat="42.4752094" lon="2.6633232"><ele></ele><time>2022-6-1T21:34:29Z</time></trkpt>
<trkpt lat="42.4751088" lon="2.6630505"><ele></ele><time>2022-6-1T21:34:32Z</time></trkpt>
<trkpt lat="42.4750233" lon="2.6628248"><ele></ele><time>2022-6-1T21:34:35Z</time></trkpt>
<trkpt lat="42.4748760" lon="2.6626225"><ele></ele><time>2022-6-1T21:34:38Z</time></trkpt>
<trkpt lat="42.4747166" lon="2.6624366"><ele></ele><time>2022-6-1T21:34:41Z</time></trkpt>
<trkpt lat="42.4745497" lon="2.6622446"><ele></ele><time>2022-6-1T21:34:44Z</time></trkpt>
<trkpt lat="42.4743747" lon="2.6620589"><ele></ele><time>2022-6-1T21:34:47Z</time></trkpt>
<trkpt lat="42.4742057" lon="2.6618803"><ele></ele><time>2022-6-1T21:34:50Z</time></trkpt>
<trkpt lat="42.4740634" lon="2.6616882"><ele></ele><time>2022-6-1T21:34:53Z</time></trkpt>
<trkpt lat="42.4738908" lon="2.6614978"><ele></ele><time>2022-6-1T21:34:56Z</time></trkpt>
<trkpt lat="42.4737164" lon="2.6613044"><ele></ele><time>2022-6-1T21:34:59Z</time></trkpt>
<trkpt lat="42.4735508" lon="2.6611456"><ele></ele><time>2022-6-1T21:35:2Z</time></trkpt>
<trkpt lat="42.4733805" lon="2.6609910"><ele></ele><time>2022-6-1T21:35:5Z</time></trkpt>
<trkpt lat="42.4732125" lon="2.6608340"><ele></ele><time>2022-6-1T21:35:8Z</time></trkpt>
<trkpt lat="42.4730703" lon="2.6606223"><ele></ele><time>2022-6-1T21:35:11Z</time></trkpt>
<trkpt lat="42.4729221" lon="2.6604503"><ele></ele><time>2022-6-1T21:35:14Z</time></trkpt>
<trkpt lat="42.4727650" lon="2.6603297"><ele></ele><time>2022-6-1T21:35:17Z</time></trkpt>
<trkpt lat="42.4726239" lon="2.6601664"><ele></ele><time>2022-6-1T21:35:20Z</time></trkpt>
<trkpt lat="42.4724466" lon="2.6600365"><ele></ele><time>2022-6-1T21:35:23Z</time></trkpt>
<trkpt lat="42.4723064" lon="2.6598796"><ele></ele><time>2022-6-1T21:35:26Z</time></trkpt>
<trkpt lat="42.4721969" lon="2.6596715"><ele></ele><time>2022-6-1T21:35:29Z</time></trkpt>
<trkpt lat="42.4721184" lon="2.6594099"><ele></ele><time>2022-6-1T21:35:32Z</time></trkpt>
<trkpt lat="42.4720168" lon="2.6591817"><ele></ele><time>2022-6-1T21:35:35Z</time></trkpt>
<trkpt lat="42.4718889" lon="2.6589664"><ele></ele><time>2022-6-1T21:35:38Z</time></trkpt>
<trkpt lat="42.4717432" lon="2.6588033"><ele></ele><time>2022-6-1T21:35:41Z</time></trkpt>
<trkpt lat="42.4715867" lon="2.6586177"><ele></ele><time>2022-6-1T21:35:44Z</time></trkpt>
<trkpt lat="42.4714516" lon="2.6584250"><ele></ele><time>2022-6-1T21:35:47Z</time></trkpt>
<trkpt lat="42.4713150" lon="2.6582436"><ele></ele><time>2022-6-1T21:35:50Z</time></trkpt>
<trkpt lat="42.4711768" lon="2.6580670"><ele></ele><time>2022-6-1T21:35:53Z</time></trkpt>
<trkpt lat="42.4710360" lon="2.6578674"><ele></ele><time>2022-6-1T21:35:56Z</time></trkpt>
<trkpt lat="42.4708908" lon="2.6576490"><ele></ele><time>2022-6-1T21:35:59Z</time></trkpt>
<trkpt lat="42.4707999" lon="2.6574130"><ele></ele><time>2022-6-1T21:36:2Z</time></trkpt>
<trkpt lat="42.4706827" lon="2.6571640"><ele></ele><time>2022-6-1T21:36:5Z</time></trkpt>
<trkpt lat="42.4705753" lon="2.6569089"><ele></ele><time>2022-6-1T21:36:8Z</time></trkpt>
<trkpt lat="42.4704619" lon="2.6566647"><ele></ele><time>2022-6-1T21:36:11Z</time></trkpt>
<trkpt lat="42.4703706" lon="2.6564110"><ele></ele><time>2022-6-1T21:36:14Z</time></trkpt>
<trkpt lat="42.4702917" lon="2.6561309"><ele></ele><time>2022-6-1T21:36:17Z</time></trkpt>
<trkpt lat="42.4703097" lon="2.6558351"><ele></ele><time>2022-6-1T21:36:20Z</time></trkpt>
<trkpt lat="42.4703557" lon="2.6555760"><ele></ele><time>2022-6-1T21:36:23Z</time></trkpt>
<trkpt lat="42.4703386" lon="2.6553122"><ele></ele><time>2022-6-1T21:36:26Z</time></trkpt>
<trkpt lat="42.4702889" lon="2.6550399"><ele></ele><time>2022-6-1T21:36:29Z</time></trkpt>
<trkpt lat="42.4702615" lon="2.6547632"><ele></ele><time>2022-6-1T21:36:32Z</time></trkpt>
<trkpt lat="42.4702250" lon="2.6545009"><ele></ele><time>2022-6-1T21:36:35Z</time></trkpt>
<trkpt lat="42.4701908" lon="2.6542140"><ele></ele><time>2022-6-1T21:36:38Z</time></trkpt>
<trkpt lat="42.4701298" lon="2.6539800"><ele></ele><time>2022-6-1T21:36:41Z</time></trkpt>
<trkpt lat="42.4700887" lon="2.6537376"><ele></ele><time>2022-6-1T21:36:44Z</time></trkpt>
<trkpt lat="42.4699992" lon="2.6534673"><ele></ele><time>2022-6-1T21:36:47Z</time></trkpt>
<trkpt lat="42.4699475" lon="2.6531941"><ele></ele><time>2022-6-1T21:36:50Z</time></trkpt>
<trkpt lat="42.4699312" lon="2.6529071"><ele></ele><time>2022-6-1T21:36:53Z</time></trkpt>
<trkpt lat="42.4699906" lon="2.6526491"><ele></ele><time>2022-6-1T21:36:56Z</time></trkpt>
<trkpt lat="42.4700449" lon="2.6523580"><ele></ele><time>2022-6-1T21:36:59Z</time></trkpt>
<trkpt lat="42.4700524" lon="2.6521125"><ele></ele><time>2022-6-1T21:37:2Z</time></trkpt>
<trkpt lat="42.4700078" lon="2.6518567"><ele></ele><time>2022-6-1T21:37:5Z</time></trkpt>
<trkpt lat="42.4699615" lon="2.6515885"><ele></ele><time>2022-6-1T21:37:8Z</time></trkpt>
<trkpt lat="42.4699083" lon="2.6513271"><ele></ele><time>2022-6-1T21:37:11Z</time></trkpt>
<trkpt lat="42.4698444" lon="2.6510515"><ele></ele><time>2022-6-1T21:37:14Z</time></trkpt>
<trkpt lat="42.4698246" lon="2.6507790"><ele></ele><time>2022-6-1T21:37:17Z</time></trkpt>
<trkpt lat="42.4698341" lon="2.6505265"><ele></ele><time>2022-6-1T21:37:20Z</time></trkpt>
<trkpt lat="42.4698268" lon="2.6502489"><ele></ele><time>2022-6-1T21:37:23Z</time></trkpt>
<trkpt lat="42.4698390" lon="2.6499992"><ele></ele><time>2022-6-1T21:37:26Z</time></trkpt>
<trkpt lat="42.4697975" lon="2.6497178"><ele></ele><time>2022-6-1T21:37:29Z</time></trkpt>
<trkpt lat="42.4697170" lon="2.6494666"><ele></ele><time>2022-6-1T21:37:32Z</time></trkpt>
<trkpt lat="42.4696271" lon="2.6492473"><ele></ele><time>2022-6-1T21:37:35Z</time></trkpt>
<trkpt lat="42.4695418" lon="2.6490082"><ele></ele><time>2022-6-1T21:37:38Z</time></trkpt>
<trkpt lat="42.4694848" lon="2.6487682"><ele></ele><time>2022-6-1T21:37:41Z</time></trkpt>
<trkpt lat="42.4694422" lon="2.6485183"><ele></ele><time>2022-6-1T21:37:44Z</time></trkpt>
<trkpt lat="42.4693622" lon="2.6482758"><ele></ele><time>2022-6-1T21:37:47Z</time></trkpt>
<trkpt lat="42.4692631" lon="2.6480108"><ele></ele><time>2022-6-1T21:37:50Z</time></trkpt>
<trkpt lat="42.4691920" lon="2.6477805"><ele></ele><time>2022-6-1T21:37:53Z</time></trkpt>
<trkpt lat="42.4690807" lon="2.6475477"><ele></ele><time>2022-6-1T21:37:56Z</time></trkpt>
<trkpt lat="42.4689462" lon="2.6473137"><ele></ele><time>2022-6-1T21:37:59Z</time></trkpt>
<trkpt lat="42.4688173" lon="2.6471281"><ele></ele><time>2022-6-1T21:38:2Z</time></trkpt>
<trkpt lat="42.4687180" lon="2.6469197"><ele></ele><time>2022-6-1T21:38:5Z</time></trkpt>
<trkpt lat="42.4685772" lon="2.6467255"><ele></ele><time>2022-6-1T21:38:8Z</time></trkpt>
<trkpt lat="42.4684174" lon="2.6465616"><ele></ele><time>2022-6-1T21:38:11Z</time></trkpt>
<trkpt lat="42.4682457" lon="2.6463883"><ele></ele><time>2022-6-1T21:38:14Z</time></trkpt>
<trkpt lat="42.4680648" lon="2.6462370"><ele></ele><time>2022-6-1T21:38:17Z</time></trkpt>
<trkpt lat="42.4678922" lon="2.6461076"><ele></ele><time>2022-6-1T21:38:20Z</time></trkpt>
<trkpt lat="42.4677436" lon="2.6459139"><ele></ele><time>2022-6-1T21:38:23Z</time></trkpt>
<trkpt lat="42.4677416" lon="2.6456246"><ele></ele><time>2022-6-1T21:38:26Z</time></trkpt>
<trkpt lat="42.4676521" lon="2.6453861"><ele></ele><time>2022-6-1T21:38:29Z</time></trkpt>
<trkpt lat="42.4675382" lon="2.6451633"><ele></ele><time>2022-6-1T21:38:32Z</time></trkpt>
<trkpt lat="42.4674633" lon="2.6449207"><ele></ele><time>2022-6-1T21:38:35Z</time></trkpt>
<trkpt lat="42.4675500" lon="2.6446872"><ele></ele><time>2022-6-1T21:38:38Z</time></trkpt>
<trkpt lat="42.4676340" lon="2.6444678"><ele></ele><time>2022-6-1T21:38:41Z</time></trkpt>
<trkpt lat="42.4677381" lon="2.6442609"><ele></ele><time>2022-6-1T21:38:44Z</time></trkpt>
<trkpt lat="42.4678301" lon="2.6440392"><ele></ele><time>2022-6-1T21:38:47Z</time></trkpt>
<trkpt lat="42.4679333" lon="2.6438262"><ele></ele><time>2022-6-1T21:38:50Z</time></trkpt>
<trkpt lat="42.4680240" lon="2.6435999"><ele></ele><time>2022-6-1T21:38:53Z</time></trkpt>
<trkpt lat="42.4680831" lon="2.6433494"><ele></ele><time>2022-6-1T21:38:56Z</time></trkpt>
<trkpt lat="42.4682652" lon="2.6433006"><ele></ele><time>2022-6-1T21:38:59Z</time></trkpt>
<trkpt lat="42.4684145" lon="2.6431550"><ele></ele><time>2022-6-1T21:39:2Z</time></trkpt>
<trkpt lat="42.4683881" lon="2.6429094"><ele></ele><time>2022-6-1T21:39:5Z</time></trkpt>
<trkpt lat="42.4683909" lon="2.6426597"><ele></ele><time>2022-6-1T21:39:8Z</time></trkpt>
<trkpt lat="42.4683927" lon="2.6423928"><ele></ele><time>2022-6-1T21:39:11Z</time></trkpt>
<trkpt lat="42.4682904" lon="2.6421647"><ele></ele><time>2022-6-1T21:39:14Z</time></trkpt>
<trkpt lat="42.4682311" lon="2.6419246"><ele></ele><time>2022-6-1T21:39:17Z</time></trkpt>
<trkpt lat="42.4682530" lon="2.6416796"><ele></ele><time>2022-6-1T21:39:20Z</time></trkpt>
<trkpt lat="42.4683033" lon="2.6414310"><ele></ele><time>2022-6-1T21:39:23Z</time></trkpt>
<trkpt lat="42.4683323" lon="2.6416930"><ele></ele><time>2022-6-1T21:39:26Z</time></trkpt>
<trkpt lat="42.4684237" lon="2.6419134"><ele></ele><time>2022-6-1T21:39:29Z</time></trkpt>
<trkpt lat="42.4685774" lon="2.6420799"><ele></ele><time>2022-6-1T21:39:32Z</time></trkpt>
<trkpt lat="42.4685113" lon="2.6418336"><ele></ele><time>2022-6-1T21:39:35Z</time></trkpt>
<trkpt lat="42.4685160" lon="2.6415760"><ele></ele><time>2022-6-1T21:39:38Z</time></trkpt>
<trkpt lat="42.4686461" lon="2.6414006"><ele></ele><time>2022-6-1T21:39:41Z</time></trkpt>
<trkpt lat="42.4686968" lon="2.6411656"><ele></ele><time>2022-6-1T21:39:44Z</time></trkpt>
<trkpt lat="42.4685369" lon="2.6410087"><ele></ele><time>2022-6-1T21:39:47Z</time></trkpt>
<trkpt lat="42.4684012" lon="2.6408356"><ele></ele><time>2022-6-1T21:39:50Z</time></trkpt>
<trkpt lat="42.4683069" lon="2.6406023"><ele></ele><time>2022-6-1T21:39:53Z</time></trkpt>
<trkpt lat="42.4682657" lon="2.6403612"><ele></ele><time>2022-6-1T21:39:56Z</time></trkpt>
<trkpt lat="42.4683033" lon="2.6401116"><ele></ele><time>2022-6-1T21:39:59Z</time></trkpt>
<trkpt lat="42.4683753" lon="2.6398857"><ele></ele><time>2022-6-1T21:40:2Z</time></trkpt>
<trkpt lat="42.4684235" lon="2.6396334"><ele></ele><time>2022-6-1T21:40:5Z</time></trkpt>
<trkpt lat="42.4684767" lon="2.6393838"><ele></ele><time>2022-6-1T21:40:8Z</time></trkpt>
<trkpt lat="42.4684876" lon="2.6391358"><ele></ele><time>2022-6-1T21:40:11Z</time></trkpt>
<trkpt lat="42.4684975" lon="2.6388784"><ele></ele><time>2022-6-1T21:40:14Z</time></trkpt>
<trkpt lat="42.4685744" lon="2.6391325"><ele></ele><time>2022-6-1T21:40:17Z</time></trkpt>
<trkpt lat="42.4686159" lon="2.6393930"><ele></ele><time>2022-6-1T21:40:20Z</time></trkpt>
<trkpt lat="42.4686398" lon="2.6396358"><ele></ele><time>2022-6-1T21:40:23Z</time></trkpt>
<trkpt lat="42.4686143" lon="2.6399039"><ele></ele><time>2022-6-1T21:40:26Z</time></trkpt>
<trkpt lat="42.4686152" lon="2.6401800"><ele></ele><time>2022-6-1T21:40:29Z</time></trkpt>
<trkpt lat="42.4686989" lon="2.6404187"><ele></ele><time>2022-6-1T21:40:32Z</time></trkpt>
<trkpt lat="42.4688753" lon="2.6405222"><ele></ele><time>2022-6-1T21:40:35Z</time></trkpt>
<trkpt lat="42.4690603" lon="2.6404748"><ele></ele><time>2022-6-1T21:40:38Z</time></trkpt>
<trkpt lat="42.4692599" lon="2.6405439"><ele></ele><time>2022-6-1T21:40:41Z</time></trkpt>
<trkpt lat="42.4693508" lon="2.6407783"><ele></ele><time>2022-6-1T21:40:44Z</time></trkpt>
<trkpt lat="42.4693801" lon="2.6410213"><ele></ele><time>2022-6-1T21:40:47Z</time></trkpt>
<trkpt lat="42.4694368" lon="2.6412769"><ele></ele><time>2022-6-1T21:40:50Z</time></trkpt>
<trkpt lat="42.4695588" lon="2.6414932"><ele></ele><time>2022-6-1T21:40:53Z</time></trkpt>
<trkpt lat="42.4697014" lon="2.6416764"><ele></ele><time>2022-6-1T21:40:56Z</time></trkpt>
<trkpt lat="42.4697660" lon="2.6420335"><ele></ele><time>2022-6-1T21:40:59Z</time></trkpt>
<trkpt lat="42.4698509" lon="2.6422758"><ele></ele><time>2022-6-1T21:41:2Z</time></trkpt>
<trkpt lat="42.4700076" lon="2.6424184"><ele></ele><time>2022-6-1T21:41:5Z</time></trkpt>
<trkpt lat="42.4701631" lon="2.6425558"><ele></ele><time>2022-6-1T21:41:8Z</time></trkpt>
<trkpt lat="42.4702319" lon="2.6427926"><ele></ele><time>2022-6-1T21:41:11Z</time></trkpt>
<trkpt lat="42.4702133" lon="2.6430546"><ele></ele><time>2022-6-1T21:41:14Z</time></trkpt>
<trkpt lat="42.4701946" lon="2.6433276"><ele></ele><time>2022-6-1T21:41:17Z</time></trkpt>
<trkpt lat="42.4703117" lon="2.6431334"><ele></ele><time>2022-6-1T21:41:20Z</time></trkpt>
<trkpt lat="42.4703828" lon="2.6428825"><ele></ele><time>2022-6-1T21:41:23Z</time></trkpt>
<trkpt lat="42.4703867" lon="2.6426211"><ele></ele><time>2022-6-1T21:41:26Z</time></trkpt>
<trkpt lat="42.4703247" lon="2.6423700"><ele></ele><time>2022-6-1T21:41:29Z</time></trkpt>
<trkpt lat="42.4702606" lon="2.6421149"><ele></ele><time>2022-6-1T21:41:32Z</time></trkpt>
<trkpt lat="42.4702067" lon="2.6418597"><ele></ele><time>2022-6-1T21:41:35Z</time></trkpt>
<trkpt lat="42.4701690" lon="2.6416017"><ele></ele><time>2022-6-1T21:41:38Z</time></trkpt>
<trkpt lat="42.4701509" lon="2.6413514"><ele></ele><time>2022-6-1T21:41:41Z</time></trkpt>
<trkpt lat="42.4700876" lon="2.6411217"><ele></ele><time>2022-6-1T21:41:44Z</time></trkpt>
<trkpt lat="42.4700365" lon="2.6408869"><ele></ele><time>2022-6-1T21:41:47Z</time></trkpt>
<trkpt lat="42.4700127" lon="2.6406415"><ele></ele><time>2022-6-1T21:41:50Z</time></trkpt>
<trkpt lat="42.4700527" lon="2.6403856"><ele></ele><time>2022-6-1T21:41:53Z</time></trkpt>
<trkpt lat="42.4701283" lon="2.6401572"><ele></ele><time>2022-6-1T21:41:56Z</time></trkpt>
<trkpt lat="42.4702994" lon="2.6400340"><ele></ele><time>2022-6-1T21:41:59Z</time></trkpt>
<trkpt lat="42.4704847" lon="2.6400312"><ele></ele><time>2022-6-1T21:42:2Z</time></trkpt>
<trkpt lat="42.4706606" lon="2.6401102"><ele></ele><time>2022-6-1T21:42:5Z</time></trkpt>
<trkpt lat="42.4708301" lon="2.6402100"><ele></ele><time>2022-6-1T21:42:8Z</time></trkpt>
<trkpt lat="42.4710092" lon="2.6402833"><ele></ele><time>2022-6-1T21:42:11Z</time></trkpt>
<trkpt lat="42.4711962" lon="2.6403344"><ele></ele><time>2022-6-1T21:42:14Z</time></trkpt>
<trkpt lat="42.4713733" lon="2.6403976"><ele></ele><time>2022-6-1T21:42:17Z</time></trkpt>
<trkpt lat="42.4715396" lon="2.6405207"><ele></ele><time>2022-6-1T21:42:20Z</time></trkpt>
<trkpt lat="42.4716684" lon="2.6407080"><ele></ele><time>2022-6-1T21:42:23Z</time></trkpt>
<trkpt lat="42.4718444" lon="2.6407848"><ele></ele><time>2022-6-1T21:42:26Z</time></trkpt>
<trkpt lat="42.4720391" lon="2.6408385"><ele></ele><time>2022-6-1T21:42:29Z</time></trkpt>
<trkpt lat="42.4722320" lon="2.6409091"><ele></ele><time>2022-6-1T21:42:32Z</time></trkpt>
<trkpt lat="42.4724094" lon="2.6410200"><ele></ele><time>2022-6-1T21:42:35Z</time></trkpt>
<trkpt lat="42.4725928" lon="2.6411356"><ele></ele><time>2022-6-1T21:42:38Z</time></trkpt>
<trkpt lat="42.4727659" lon="2.6412334"><ele></ele><time>2022-6-1T21:42:41Z</time></trkpt>
<trkpt lat="42.4729434" lon="2.6413347"><ele></ele><time>2022-6-1T21:42:44Z</time></trkpt>
<trkpt lat="42.4730797" lon="2.6414944"><ele></ele><time>2022-6-1T21:42:47Z</time></trkpt>
<trkpt lat="42.4731970" lon="2.6416866"><ele></ele><time>2022-6-1T21:42:50Z</time></trkpt>
<trkpt lat="42.4733206" lon="2.6418989"><ele></ele><time>2022-6-1T21:42:53Z</time></trkpt>
<trkpt lat="42.4734579" lon="2.6420985"><ele></ele><time>2022-6-1T21:42:56Z</time></trkpt>
<trkpt lat="42.4735875" lon="2.6422791"><ele></ele><time>2022-6-1T21:42:59Z</time></trkpt>
<trkpt lat="42.4737635" lon="2.6423572"><ele></ele><time>2022-6-1T21:43:2Z</time></trkpt>
<trkpt lat="42.4738946" lon="2.6421797"><ele></ele><time>2022-6-1T21:43:5Z</time></trkpt>
<trkpt lat="42.4740175" lon="2.6419930"><ele></ele><time>2022-6-1T21:43:8Z</time></trkpt>
<trkpt lat="42.4741567" lon="2.6418241"><ele></ele><time>2022-6-1T21:43:11Z</time></trkpt>
<trkpt lat="42.4742884" lon="2.6416511"><ele></ele><time>2022-6-1T21:43:14Z</time></trkpt>
<trkpt lat="42.4742966" lon="2.6413961"><ele></ele><time>2022-6-1T21:43:17Z</time></trkpt>
<trkpt lat="42.4744309" lon="2.6412030"><ele></ele><time>2022-6-1T21:43:20Z</time></trkpt>
<trkpt lat="42.4745633" lon="2.6410337"><ele></ele><time>2022-6-1T21:43:23Z</time></trkpt>
<trkpt lat="42.4747038" lon="2.6408685"><ele></ele><time>2022-6-1T21:43:26Z</time></trkpt>
<trkpt lat="42.4748617" lon="2.6407477"><ele></ele><time>2022-6-1T21:43:29Z</time></trkpt>
<trkpt lat="42.4750287" lon="2.6405955"><ele></ele><time>2022-6-1T21:43:32Z</time></trkpt>
<trkpt lat="42.4751698" lon="2.6404234"><ele></ele><time>2022-6-1T21:43:35Z</time></trkpt>
<trkpt lat="42.4753316" lon="2.6402673"><ele></ele><time>2022-6-1T21:43:38Z</time></trkpt>
<trkpt lat="42.4754858" lon="2.6401310"><ele></ele><time>2022-6-1T21:43:41Z</time></trkpt>
<trkpt lat="42.4756382" lon="2.6399918"><ele></ele><time>2022-6-1T21:43:44Z</time></trkpt>
<trkpt lat="42.4758087" lon="2.6398622"><ele></ele><time>2022-6-1T21:43:47Z</time></trkpt>
<trkpt lat="42.4759854" lon="2.6397442"><ele></ele><time>2022-6-1T21:43:50Z</time></trkpt>
<trkpt lat="42.4761610" lon="2.6396472"><ele></ele><time>2022-6-1T21:43:53Z</time></trkpt>
<trkpt lat="42.4763329" lon="2.6395379"><ele></ele><time>2022-6-1T21:43:56Z</time></trkpt>
<trkpt lat="42.4764973" lon="2.6394089"><ele></ele><time>2022-6-1T21:43:59Z</time></trkpt>
<trkpt lat="42.4764872" lon="2.6391646"><ele></ele><time>2022-6-1T21:44:2Z</time></trkpt>
<trkpt lat="42.4764320" lon="2.6389097"><ele></ele><time>2022-6-1T21:44:5Z</time></trkpt>
<trkpt lat="42.4763552" lon="2.6386617"><ele></ele><time>2022-6-1T21:44:8Z</time></trkpt>
<trkpt lat="42.4762411" lon="2.6384522"><ele></ele><time>2022-6-1T21:44:11Z</time></trkpt>
<trkpt lat="42.4761025" lon="2.6382550"><ele></ele><time>2022-6-1T21:44:14Z</time></trkpt>
<trkpt lat="42.4761205" lon="2.6380089"><ele></ele><time>2022-6-1T21:44:17Z</time></trkpt>
<trkpt lat="42.4762573" lon="2.6378364"><ele></ele><time>2022-6-1T21:44:20Z</time></trkpt>
<trkpt lat="42.4763644" lon="2.6376292"><ele></ele><time>2022-6-1T21:44:23Z</time></trkpt>
<trkpt lat="42.4764299" lon="2.6373987"><ele></ele><time>2022-6-1T21:44:26Z</time></trkpt>
<trkpt lat="42.4765380" lon="2.6371730"><ele></ele><time>2022-6-1T21:44:29Z</time></trkpt>
<trkpt lat="42.4766147" lon="2.6369303"><ele></ele><time>2022-6-1T21:44:32Z</time></trkpt>
<trkpt lat="42.4767305" lon="2.6366849"><ele></ele><time>2022-6-1T21:44:35Z</time></trkpt>
<trkpt lat="42.4768769" lon="2.6365097"><ele></ele><time>2022-6-1T21:44:38Z</time></trkpt>
<trkpt lat="42.4770457" lon="2.6363534"><ele></ele><time>2022-6-1T21:44:41Z</time></trkpt>
<trkpt lat="42.4772320" lon="2.6363182"><ele></ele><time>2022-6-1T21:44:44Z</time></trkpt>
<trkpt lat="42.4774037" lon="2.6364052"><ele></ele><time>2022-6-1T21:44:47Z</time></trkpt>
<trkpt lat="42.4775163" lon="2.6366178"><ele></ele><time>2022-6-1T21:44:50Z</time></trkpt>
<trkpt lat="42.4775504" lon="2.6368744"><ele></ele><time>2022-6-1T21:44:53Z</time></trkpt>
<trkpt lat="42.4776616" lon="2.6370905"><ele></ele><time>2022-6-1T21:44:56Z</time></trkpt>
<trkpt lat="42.4777760" lon="2.6372860"><ele></ele><time>2022-6-1T21:44:59Z</time></trkpt>
<trkpt lat="42.4778933" lon="2.6374774"><ele></ele><time>2022-6-1T21:45:2Z</time></trkpt>
<trkpt lat="42.4780258" lon="2.6376560"><ele></ele><time>2022-6-1T21:45:5Z</time></trkpt>
<trkpt lat="42.4781118" lon="2.6374281"><ele></ele><time>2022-6-1T21:45:8Z</time></trkpt>
<trkpt lat="42.4780447" lon="2.6371610"><ele></ele><time>2022-6-1T21:45:11Z</time></trkpt>
<trkpt lat="42.4780201" lon="2.6369026"><ele></ele><time>2022-6-1T21:45:14Z</time></trkpt>
<trkpt lat="42.4780621" lon="2.6366446"><ele></ele><time>2022-6-1T21:45:17Z</time></trkpt>
<trkpt lat="42.4780993" lon="2.6363663"><ele></ele><time>2022-6-1T21:45:20Z</time></trkpt>
<trkpt lat="42.4781547" lon="2.6361184"><ele></ele><time>2022-6-1T21:45:23Z</time></trkpt>
<trkpt lat="42.4782901" lon="2.6359567"><ele></ele><time>2022-6-1T21:45:26Z</time></trkpt>
<trkpt lat="42.4784797" lon="2.6358364"><ele></ele><time>2022-6-1T21:45:29Z</time></trkpt>
<trkpt lat="42.4786175" lon="2.6356795"><ele></ele><time>2022-6-1T21:45:32Z</time></trkpt>
<trkpt lat="42.4785396" lon="2.6359239"><ele></ele><time>2022-6-1T21:45:35Z</time></trkpt>
<trkpt lat="42.4784471" lon="2.6361508"><ele></ele><time>2022-6-1T21:45:38Z</time></trkpt>
<trkpt lat="42.4785007" lon="2.6364097"><ele></ele><time>2022-6-1T21:45:41Z</time></trkpt>
<trkpt lat="42.4785709" lon="2.6366387"><ele></ele><time>2022-6-1T21:45:44Z</time></trkpt>
<trkpt lat="42.4785542" lon="2.6368910"><ele></ele><time>2022-6-1T21:45:47Z</time></trkpt>
<trkpt lat="42.4785363" lon="2.6371349"><ele></ele><time>2022-6-1T21:45:50Z</time></trkpt>
<trkpt lat="42.4785677" lon="2.6373924"><ele></ele><time>2022-6-1T21:45:53Z</time></trkpt>
<trkpt lat="42.4785884" lon="2.6376378"><ele></ele><time>2022-6-1T21:45:56Z</time></trkpt>
<trkpt lat="42.4785703" lon="2.6378971"><ele></ele><time>2022-6-1T21:45:59Z</time></trkpt>
<trkpt lat="42.4785981" lon="2.6381606"><ele></ele><time>2022-6-1T21:46:2Z</time></trkpt>
<trkpt lat="42.4786703" lon="2.6379359"><ele></ele><time>2022-6-1T21:46:5Z</time></trkpt>
<trkpt lat="42.4787293" lon="2.6376965"><ele></ele><time>2022-6-1T21:46:8Z</time></trkpt>
<trkpt lat="42.4788411" lon="2.6375025"><ele></ele><time>2022-6-1T21:46:11Z</time></trkpt>
<trkpt lat="42.4789453" lon="2.6372839"><ele></ele><time>2022-6-1T21:46:14Z</time></trkpt>
<trkpt lat="42.4789640" lon="2.6370366"><ele></ele><time>2022-6-1T21:46:17Z</time></trkpt>
<trkpt lat="42.4789796" lon="2.6367851"><ele></ele><time>2022-6-1T21:46:20Z</time></trkpt>
<trkpt lat="42.4790891" lon="2.6365596"><ele></ele><time>2022-6-1T21:46:23Z</time></trkpt>
<trkpt lat="42.4792275" lon="2.6364000"><ele></ele><time>2022-6-1T21:46:26Z</time></trkpt>
<trkpt lat="42.4793822" lon="2.6362551"><ele></ele><time>2022-6-1T21:46:29Z</time></trkpt>
<trkpt lat="42.4795523" lon="2.6361527"><ele></ele><time>2022-6-1T21:46:32Z</time></trkpt>
<trkpt lat="42.4797406" lon="2.6361683"><ele></ele><time>2022-6-1T21:46:35Z</time></trkpt>
<trkpt lat="42.4795794" lon="2.6362831"><ele></ele><time>2022-6-1T21:46:38Z</time></trkpt>
<trkpt lat="42.4794388" lon="2.6364531"><ele></ele><time>2022-6-1T21:46:41Z</time></trkpt>
<trkpt lat="42.4793433" lon="2.6366631"><ele></ele><time>2022-6-1T21:46:44Z</time></trkpt>
<trkpt lat="42.4792895" lon="2.6369174"><ele></ele><time>2022-6-1T21:46:47Z</time></trkpt>
<trkpt lat="42.4792438" lon="2.6371824"><ele></ele><time>2022-6-1T21:46:50Z</time></trkpt>
<trkpt lat="42.4792238" lon="2.6374277"><ele></ele><time>2022-6-1T21:46:53Z</time></trkpt>
<trkpt lat="42.4791769" lon="2.6376697"><ele></ele><time>2022-6-1T21:46:56Z</time></trkpt>
<trkpt lat="42.4791588" lon="2.6379192"><ele></ele><time>2022-6-1T21:46:59Z</time></trkpt>
<trkpt lat="42.4791401" lon="2.6381655"><ele></ele><time>2022-6-1T21:47:2Z</time></trkpt>
<trkpt lat="42.4791548" lon="2.6384155"><ele></ele><time>2022-6-1T21:47:5Z</time></trkpt>
<trkpt lat="42.4791862" lon="2.6386822"><ele></ele><time>2022-6-1T21:47:8Z</time></trkpt>
<trkpt lat="42.4792392" lon="2.6389189"><ele></ele><time>2022-6-1T21:47:11Z</time></trkpt>
<trkpt lat="42.4791965" lon="2.6391696"><ele></ele><time>2022-6-1T21:47:14Z</time></trkpt>
<trkpt lat="42.4789777" lon="2.6392167"><ele></ele><time>2022-6-1T21:47:17Z</time></trkpt>
<trkpt lat="42.4788078" lon="2.6393704"><ele></ele><time>2022-6-1T21:47:20Z</time></trkpt>
<trkpt lat="42.4787483" lon="2.6396202"><ele></ele><time>2022-6-1T21:47:23Z</time></trkpt>
<trkpt lat="42.4787819" lon="2.6398725"><ele></ele><time>2022-6-1T21:47:26Z</time></trkpt>
<trkpt lat="42.4788276" lon="2.6401165"><ele></ele><time>2022-6-1T21:47:29Z</time></trkpt>
<trkpt lat="42.4789226" lon="2.6403268"><ele></ele><time>2022-6-1T21:47:32Z</time></trkpt>
<trkpt lat="42.4790156" lon="2.6405386"><ele></ele><time>2022-6-1T21:47:35Z</time></trkpt>
<trkpt lat="42.4789859" lon="2.6407954"><ele></ele><time>2022-6-1T21:47:38Z</time></trkpt>
<trkpt lat="42.4787825" lon="2.6407464"><ele></ele><time>2022-6-1T21:47:41Z</time></trkpt>
<trkpt lat="42.4785752" lon="2.6406079"><ele></ele><time>2022-6-1T21:47:44Z</time></trkpt>
<trkpt lat="42.4783936" lon="2.6405412"><ele></ele><time>2022-6-1T21:47:47Z</time></trkpt>
<trkpt lat="42.4781782" lon="2.6405688"><ele></ele><time>2022-6-1T21:47:50Z</time></trkpt>
<trkpt lat="42.4779974" lon="2.6407657"><ele></ele><time>2022-6-1T21:47:53Z</time></trkpt>
<trkpt lat="42.4778658" lon="2.6409677"><ele></ele><time>2022-6-1T21:47:56Z</time></trkpt>
<trkpt lat="42.4777267" lon="2.6411621"><ele></ele><time>2022-6-1T21:47:59Z</time></trkpt>
<trkpt lat="42.4775836" lon="2.6413736"><ele></ele><time>2022-6-1T21:48:2Z</time></trkpt>
<trkpt lat="42.4774102" lon="2.6415424"><ele></ele><time>2022-6-1T21:48:5Z</time></trkpt>
<trkpt lat="42.4772191" lon="2.6416754"><ele></ele><time>2022-6-1T21:48:8Z</time></trkpt>
<trkpt lat="42.4770608" lon="2.6418921"><ele></ele><time>2022-6-1T21:48:11Z</time></trkpt>
<trkpt lat="42.4770016" lon="2.6421291"><ele></ele><time>2022-6-1T21:48:14Z</time></trkpt>
<trkpt lat="42.4770185" lon="2.6424231"><ele></ele><time>2022-6-1T21:48:17Z</time></trkpt>
<trkpt lat="42.4770645" lon="2.6426845"><ele></ele><time>2022-6-1T21:48:20Z</time></trkpt>
<trkpt lat="42.4771104" lon="2.6429425"><ele></ele><time>2022-6-1T21:48:23Z</time></trkpt>
<trkpt lat="42.4771707" lon="2.6431965"><ele></ele><time>2022-6-1T21:48:26Z</time></trkpt>
<trkpt lat="42.4772571" lon="2.6434442"><ele></ele><time>2022-6-1T21:48:29Z</time></trkpt>
<trkpt lat="42.4774140" lon="2.6436071"><ele></ele><time>2022-6-1T21:48:32Z</time></trkpt>
<trkpt lat="42.4775962" lon="2.6435711"><ele></ele><time>2022-6-1T21:48:35Z</time></trkpt>
<trkpt lat="42.4777610" lon="2.6434517"><ele></ele><time>2022-6-1T21:48:38Z</time></trkpt>
<trkpt lat="42.4779269" lon="2.6433115"><ele></ele><time>2022-6-1T21:48:41Z</time></trkpt>
<trkpt lat="42.4780917" lon="2.6431984"><ele></ele><time>2022-6-1T21:48:44Z</time></trkpt>
<trkpt lat="42.4782725" lon="2.6431128"><ele></ele><time>2022-6-1T21:48:47Z</time></trkpt>
<trkpt lat="42.4784442" lon="2.6430320"><ele></ele><time>2022-6-1T21:48:50Z</time></trkpt>
<trkpt lat="42.4785964" lon="2.6428979"><ele></ele><time>2022-6-1T21:48:53Z</time></trkpt>
<trkpt lat="42.4787734" lon="2.6427734"><ele></ele><time>2022-6-1T21:48:56Z</time></trkpt>
<trkpt lat="42.4789484" lon="2.6426853"><ele></ele><time>2022-6-1T21:48:59Z</time></trkpt>
<trkpt lat="42.4791305" lon="2.6426973"><ele></ele><time>2022-6-1T21:49:2Z</time></trkpt>
<trkpt lat="42.4789705" lon="2.6425438"><ele></ele><time>2022-6-1T21:49:5Z</time></trkpt>
<trkpt lat="42.4787930" lon="2.6424943"><ele></ele><time>2022-6-1T21:49:8Z</time></trkpt>
<trkpt lat="42.4786090" lon="2.6424271"><ele></ele><time>2022-6-1T21:49:11Z</time></trkpt>
<trkpt lat="42.4785393" lon="2.6421783"><ele></ele><time>2022-6-1T21:49:14Z</time></trkpt>
<trkpt lat="42.4786300" lon="2.6419657"><ele></ele><time>2022-6-1T21:49:17Z</time></trkpt>
<trkpt lat="42.4788021" lon="2.6418807"><ele></ele><time>2022-6-1T21:49:20Z</time></trkpt>
<trkpt lat="42.4789794" lon="2.6417993"><ele></ele><time>2022-6-1T21:49:23Z</time></trkpt>
<trkpt lat="42.4791357" lon="2.6416761"><ele></ele><time>2022-6-1T21:49:26Z</time></trkpt>
<trkpt lat="42.4793222" lon="2.6416254"><ele></ele><time>2022-6-1T21:49:29Z</time></trkpt>
<trkpt lat="42.4795183" lon="2.6416027"><ele></ele><time>2022-6-1T21:49:32Z</time></trkpt>
<trkpt lat="42.4796921" lon="2.6415369"><ele></ele><time>2022-6-1T21:49:35Z</time></trkpt>
<trkpt lat="42.4798691" lon="2.6414121"><ele></ele><time>2022-6-1T21:49:38Z</time></trkpt>
<trkpt lat="42.4800490" lon="2.6413270"><ele></ele><time>2022-6-1T21:49:41Z</time></trkpt>
<trkpt lat="42.4799847" lon="2.6410801"><ele></ele><time>2022-6-1T21:49:44Z</time></trkpt>
<trkpt lat="42.4799177" lon="2.6408346"><ele></ele><time>2022-6-1T21:49:47Z</time></trkpt>
<trkpt lat="42.4798958" lon="2.6405722"><ele></ele><time>2022-6-1T21:49:50Z</time></trkpt>
<trkpt lat="42.4799887" lon="2.6403422"><ele></ele><time>2022-6-1T21:49:53Z</time></trkpt>
<trkpt lat="42.4801155" lon="2.6401544"><ele></ele><time>2022-6-1T21:49:56Z</time></trkpt>
<trkpt lat="42.4802514" lon="2.6399851"><ele></ele><time>2022-6-1T21:49:59Z</time></trkpt>
<trkpt lat="42.4803312" lon="2.6397636"><ele></ele><time>2022-6-1T21:50:2Z</time></trkpt>
<trkpt lat="42.4804129" lon="2.6395063"><ele></ele><time>2022-6-1T21:50:5Z</time></trkpt>
<trkpt lat="42.4805387" lon="2.6393268"><ele></ele><time>2022-6-1T21:50:8Z</time></trkpt>
<trkpt lat="42.4807281" lon="2.6393708"><ele></ele><time>2022-6-1T21:50:11Z</time></trkpt>
<trkpt lat="42.4808947" lon="2.6395088"><ele></ele><time>2022-6-1T21:50:14Z</time></trkpt>
<trkpt lat="42.4807065" lon="2.6395368"><ele></ele><time>2022-6-1T21:50:17Z</time></trkpt>
<trkpt lat="42.4805449" lon="2.6396504"><ele></ele><time>2022-6-1T21:50:20Z</time></trkpt>
<trkpt lat="42.4805025" lon="2.6399123"><ele></ele><time>2022-6-1T21:50:23Z</time></trkpt>
<trkpt lat="42.4804594" lon="2.6401694"><ele></ele><time>2022-6-1T21:50:26Z</time></trkpt>
<trkpt lat="42.4804186" lon="2.6404081"><ele></ele><time>2022-6-1T21:50:29Z</time></trkpt>
<trkpt lat="42.4804224" lon="2.6406568"><ele></ele><time>2022-6-1T21:50:32Z</time></trkpt>
<trkpt lat="42.4804037" lon="2.6409309"><ele></ele><time>2022-6-1T21:50:35Z</time></trkpt>
<trkpt lat="42.4804218" lon="2.6411823"><ele></ele><time>2022-6-1T21:50:38Z</time></trkpt>
<trkpt lat="42.4804733" lon="2.6414385"><ele></ele><time>2022-6-1T21:50:41Z</time></trkpt>
<trkpt lat="42.4805273" lon="2.6416817"><ele></ele><time>2022-6-1T21:50:44Z</time></trkpt>
<trkpt lat="42.4805462" lon="2.6419397"><ele></ele><time>2022-6-1T21:50:47Z</time></trkpt>
<trkpt lat="42.4806604" lon="2.6417434"><ele></ele><time>2022-6-1T21:50:50Z</time></trkpt>
<trkpt lat="42.4807469" lon="2.6415273"><ele></ele><time>2022-6-1T21:50:53Z</time></trkpt>
<trkpt lat="42.4808494" lon="2.6413010"><ele></ele><time>2022-6-1T21:50:56Z</time></trkpt>
<trkpt lat="42.4809604" lon="2.6410999"><ele></ele><time>2022-6-1T21:50:59Z</time></trkpt>
<trkpt lat="42.4810661" lon="2.6408988"><ele></ele><time>2022-6-1T21:51:2Z</time></trkpt>
<trkpt lat="42.4810868" lon="2.6411537"><ele></ele><time>2022-6-1T21:51:5Z</time></trkpt>
<trkpt lat="42.4810300" lon="2.6414167"><ele></ele><time>2022-6-1T21:51:8Z</time></trkpt>
<trkpt lat="42.4809889" lon="2.6416827"><ele></ele><time>2022-6-1T21:51:11Z</time></trkpt>
<trkpt lat="42.4809861" lon="2.6419412"><ele></ele><time>2022-6-1T21:51:14Z</time></trkpt>
<trkpt lat="42.4810267" lon="2.6422057"><ele></ele><time>2022-6-1T21:51:17Z</time></trkpt>
<trkpt lat="42.4810988" lon="2.6424524"><ele></ele><time>2022-6-1T21:51:20Z</time></trkpt>
<trkpt lat="42.4811459" lon="2.6426999"><ele></ele><time>2022-6-1T21:51:23Z</time></trkpt>
<trkpt lat="42.4811074" lon="2.6429679"><ele></ele><time>2022-6-1T21:51:26Z</time></trkpt>
<trkpt lat="42.4810180" lon="2.6431912"><ele></ele><time>2022-6-1T21:51:29Z</time></trkpt>
<trkpt lat="42.4809180" lon="2.6434617"><ele></ele><time>2022-6-1T21:51:32Z</time></trkpt>
<trkpt lat="42.4808350" lon="2.6437046"><ele></ele><time>2022-6-1T21:51:35Z</time></trkpt>
<trkpt lat="42.4807963" lon="2.6439617"><ele></ele><time>2022-6-1T21:51:38Z</time></trkpt>
<trkpt lat="42.4807867" lon="2.6442134"><ele></ele><time>2022-6-1T21:51:41Z</time></trkpt>
<trkpt lat="42.4808935" lon="2.6444608"><ele></ele><time>2022-6-1T21:51:44Z</time></trkpt>
<trkpt lat="42.4810677" lon="2.6445649"><ele></ele><time>2022-6-1T21:51:47Z</time></trkpt>
<trkpt lat="42.4812719" lon="2.6445078"><ele></ele><time>2022-6-1T21:51:50Z</time></trkpt>
<trkpt lat="42.4814783" lon="2.6445480"><ele></ele><time>2022-6-1T21:51:53Z</time></trkpt>
<trkpt lat="42.4816746" lon="2.6445935"><ele></ele><time>2022-6-1T21:51:56Z</time></trkpt>
<trkpt lat="42.4818589" lon="2.6446357"><ele></ele><time>2022-6-1T21:51:59Z</time></trkpt>
<trkpt lat="42.4820463" lon="2.6446489"><ele></ele><time>2022-6-1T21:52:2Z</time></trkpt>
<trkpt lat="42.4822290" lon="2.6447256"><ele></ele><time>2022-6-1T21:52:5Z</time></trkpt>
<trkpt lat="42.4824362" lon="2.6447592"><ele></ele><time>2022-6-1T21:52:8Z</time></trkpt>
<trkpt lat="42.4826295" lon="2.6447215"><ele></ele><time>2022-6-1T21:52:11Z</time></trkpt>
<trkpt lat="42.4827890" lon="2.6445950"><ele></ele><time>2022-6-1T21:52:14Z</time></trkpt>
<trkpt lat="42.4829231" lon="2.6443632"><ele></ele><time>2022-6-1T21:52:17Z</time></trkpt>
<trkpt lat="42.4830999" lon="2.6441452"><ele></ele><time>2022-6-1T21:52:20Z</time></trkpt>
<trkpt lat="42.4833025" lon="2.6440397"><ele></ele><time>2022-6-1T21:52:23Z</time></trkpt>
<trkpt lat="42.4835120" lon="2.6440847"><ele></ele><time>2022-6-1T21:52:26Z</time></trkpt>
<trkpt lat="42.4836949" lon="2.6442527"><ele></ele><time>2022-6-1T21:52:29Z</time></trkpt>
<trkpt lat="42.4838724" lon="2.6443642"><ele></ele><time>2022-6-1T21:52:32Z</time></trkpt>
<trkpt lat="42.4840462" lon="2.6444704"><ele></ele><time>2022-6-1T21:52:35Z</time></trkpt>
<trkpt lat="42.4842199" lon="2.6445448"><ele></ele><time>2022-6-1T21:52:38Z</time></trkpt>
<trkpt lat="42.4844021" lon="2.6445581"><ele></ele><time>2022-6-1T21:52:41Z</time></trkpt>
<trkpt lat="42.4842860" lon="2.6443479"><ele></ele><time>2022-6-1T21:52:44Z</time></trkpt>
<trkpt lat="42.4841492" lon="2.6441769"><ele></ele><time>2022-6-1T21:52:47Z</time></trkpt>
<trkpt lat="42.4840110" lon="2.6440208"><ele></ele><time>2022-6-1T21:52:50Z</time></trkpt>
<trkpt lat="42.4838511" lon="2.6438745"><ele></ele><time>2022-6-1T21:52:53Z</time></trkpt>
<trkpt lat="42.4837093" lon="2.6437186"><ele></ele><time>2022-6-1T21:52:56Z</time></trkpt>
<trkpt lat="42.4835554" lon="2.6435758"><ele></ele><time>2022-6-1T21:52:59Z</time></trkpt>
<trkpt lat="42.4833822" lon="2.6434367"><ele></ele><time>2022-6-1T21:53:2Z</time></trkpt>
<trkpt lat="42.4831960" lon="2.6433568"><ele></ele><time>2022-6-1T21:53:5Z</time></trkpt>
<trkpt lat="42.4830021" lon="2.6433497"><ele></ele><time>2022-6-1T21:53:8Z</time></trkpt>
<trkpt lat="42.4828142" lon="2.6433786"><ele></ele><time>2022-6-1T21:53:11Z</time></trkpt>
<trkpt lat="42.4826370" lon="2.6434532"><ele></ele><time>2022-6-1T21:53:14Z</time></trkpt>
<trkpt lat="42.4824716" lon="2.6435814"><ele></ele><time>2022-6-1T21:53:17Z</time></trkpt>
<trkpt lat="42.4822921" lon="2.6436866"><ele></ele><time>2022-6-1T21:53:20Z</time></trkpt>
<trkpt lat="42.4821621" lon="2.6434903"><ele></ele><time>2022-6-1T21:53:23Z</time></trkpt>
<trkpt lat="42.4821168" lon="2.6432158"><ele></ele><time>2022-6-1T21:53:26Z</time></trkpt>
<trkpt lat="42.4820888" lon="2.6429494"><ele></ele><time>2022-6-1T21:53:29Z</time></trkpt>
<trkpt lat="42.4821535" lon="2.6427103"><ele></ele><time>2022-6-1T21:53:32Z</time></trkpt>
<trkpt lat="42.4821981" lon="2.6424486"><ele></ele><time>2022-6-1T21:53:35Z</time></trkpt>
<trkpt lat="42.4822942" lon="2.6422152"><ele></ele><time>2022-6-1T21:53:38Z</time></trkpt>
<trkpt lat="42.4824292" lon="2.6420364"><ele></ele><time>2022-6-1T21:53:41Z</time></trkpt>
<trkpt lat="42.4825798" lon="2.6418988"><ele></ele><time>2022-6-1T21:53:44Z</time></trkpt>
<trkpt lat="42.4827397" lon="2.6417814"><ele></ele><time>2022-6-1T21:53:47Z</time></trkpt>
<trkpt lat="42.4829045" lon="2.6416550"><ele></ele><time>2022-6-1T21:53:50Z</time></trkpt>
<trkpt lat="42.4830468" lon="2.6415037"><ele></ele><time>2022-6-1T21:53:53Z</time></trkpt>
<trkpt lat="42.4831949" lon="2.6413111"><ele></ele><time>2022-6-1T21:53:56Z</time></trkpt>
<trkpt lat="42.4833333" lon="2.6411022"><ele></ele><time>2022-6-1T21:53:59Z</time></trkpt>
<trkpt lat="42.4834823" lon="2.6409478"><ele></ele><time>2022-6-1T21:54:2Z</time></trkpt>
<trkpt lat="42.4836744" lon="2.6408998"><ele></ele><time>2022-6-1T21:54:5Z</time></trkpt>
<trkpt lat="42.4838392" lon="2.6410222"><ele></ele><time>2022-6-1T21:54:8Z</time></trkpt>
<trkpt lat="42.4840106" lon="2.6410978"><ele></ele><time>2022-6-1T21:54:11Z</time></trkpt>
<trkpt lat="42.4841985" lon="2.6410947"><ele></ele><time>2022-6-1T21:54:14Z</time></trkpt>
<trkpt lat="42.4843786" lon="2.6410560"><ele></ele><time>2022-6-1T21:54:17Z</time></trkpt>
<trkpt lat="42.4845606" lon="2.6409654"><ele></ele><time>2022-6-1T21:54:20Z</time></trkpt>
<trkpt lat="42.4847414" lon="2.6408557"><ele></ele><time>2022-6-1T21:54:23Z</time></trkpt>
<trkpt lat="42.4849290" lon="2.6407654"><ele></ele><time>2022-6-1T21:54:26Z</time></trkpt>
<trkpt lat="42.4851142" lon="2.6406813"><ele></ele><time>2022-6-1T21:54:29Z</time></trkpt>
<trkpt lat="42.4852989" lon="2.6406278"><ele></ele><time>2022-6-1T21:54:32Z</time></trkpt>
<trkpt lat="42.4854781" lon="2.6405560"><ele></ele><time>2022-6-1T21:54:35Z</time></trkpt>
<trkpt lat="42.4856532" lon="2.6404777"><ele></ele><time>2022-6-1T21:54:38Z</time></trkpt>
<trkpt lat="42.4858284" lon="2.6403949"><ele></ele><time>2022-6-1T21:54:41Z</time></trkpt>
<trkpt lat="42.4860174" lon="2.6402902"><ele></ele><time>2022-6-1T21:54:44Z</time></trkpt>
<trkpt lat="42.4861780" lon="2.6401580"><ele></ele><time>2022-6-1T21:54:47Z</time></trkpt>
<trkpt lat="42.4863309" lon="2.6400245"><ele></ele><time>2022-6-1T21:54:50Z</time></trkpt>
<trkpt lat="42.4864910" lon="2.6399107"><ele></ele><time>2022-6-1T21:54:53Z</time></trkpt>
<trkpt lat="42.4866471" lon="2.6397610"><ele></ele><time>2022-6-1T21:54:56Z</time></trkpt>
<trkpt lat="42.4867535" lon="2.6395565"><ele></ele><time>2022-6-1T21:54:59Z</time></trkpt>
<trkpt lat="42.4868681" lon="2.6393370"><ele></ele><time>2022-6-1T21:55:2Z</time></trkpt>
<trkpt lat="42.4869704" lon="2.6391222"><ele></ele><time>2022-6-1T21:55:5Z</time></trkpt>
<trkpt lat="42.4871225" lon="2.6389554"><ele></ele><time>2022-6-1T21:55:8Z</time></trkpt>
<trkpt lat="42.4872253" lon="2.6387322"><ele></ele><time>2022-6-1T21:55:11Z</time></trkpt>
<trkpt lat="42.4873033" lon="2.6384932"><ele></ele><time>2022-6-1T21:55:14Z</time></trkpt>
<trkpt lat="42.4873563" lon="2.6382462"><ele></ele><time>2022-6-1T21:55:17Z</time></trkpt>
<trkpt lat="42.4874426" lon="2.6380315"><ele></ele><time>2022-6-1T21:55:20Z</time></trkpt>
<trkpt lat="42.4874821" lon="2.6377641"><ele></ele><time>2022-6-1T21:55:23Z</time></trkpt>
<trkpt lat="42.4875282" lon="2.6375108"><ele></ele><time>2022-6-1T21:55:26Z</time></trkpt>
<trkpt lat="42.4876275" lon="2.6372873"><ele></ele><time>2022-6-1T21:55:29Z</time></trkpt>
<trkpt lat="42.4877398" lon="2.6370681"><ele></ele><time>2022-6-1T21:55:32Z</time></trkpt>
<trkpt lat="42.4878597" lon="2.6368851"><ele></ele><time>2022-6-1T21:55:35Z</time></trkpt>
<trkpt lat="42.4879809" lon="2.6367014"><ele></ele><time>2022-6-1T21:55:38Z</time></trkpt>
<trkpt lat="42.4881253" lon="2.6365080"><ele></ele><time>2022-6-1T21:55:41Z</time></trkpt>
<trkpt lat="42.4883023" lon="2.6364059"><ele></ele><time>2022-6-1T21:55:44Z</time></trkpt>
<trkpt lat="42.4884752" lon="2.6363132"><ele></ele><time>2022-6-1T21:55:47Z</time></trkpt>
<trkpt lat="42.4886551" lon="2.6362151"><ele></ele><time>2022-6-1T21:55:50Z</time></trkpt>
<trkpt lat="42.4888350" lon="2.6361887"><ele></ele><time>2022-6-1T21:55:53Z</time></trkpt>
<trkpt lat="42.4890163" lon="2.6362742"><ele></ele><time>2022-6-1T21:55:56Z</time></trkpt>
<trkpt lat="42.4892031" lon="2.6363263"><ele></ele><time>2022-6-1T21:55:59Z</time></trkpt>
<trkpt lat="42.4893976" lon="2.6363418"><ele></ele><time>2022-6-1T21:56:2Z</time></trkpt>
<trkpt lat="42.4895638" lon="2.6362449"><ele></ele><time>2022-6-1T21:56:5Z</time></trkpt>
<trkpt lat="42.4897255" lon="2.6360959"><ele></ele><time>2022-6-1T21:56:8Z</time></trkpt>
<trkpt lat="42.4899169" lon="2.6360619"><ele></ele><time>2022-6-1T21:56:11Z</time></trkpt>
<trkpt lat="42.4901031" lon="2.6360290"><ele></ele><time>2022-6-1T21:56:14Z</time></trkpt>
<trkpt lat="42.4902935" lon="2.6359751"><ele></ele><time>2022-6-1T21:56:17Z</time></trkpt>
<trkpt lat="42.4904687" lon="2.6358957"><ele></ele><time>2022-6-1T21:56:20Z</time></trkpt>
<trkpt lat="42.4906590" lon="2.6358221"><ele></ele><time>2022-6-1T21:56:23Z</time></trkpt>
<trkpt lat="42.4908431" lon="2.6357617"><ele></ele><time>2022-6-1T21:56:26Z</time></trkpt>
<trkpt lat="42.4910154" lon="2.6356662"><ele></ele><time>2022-6-1T21:56:29Z</time></trkpt>
<trkpt lat="42.4912061" lon="2.6356584"><ele></ele><time>2022-6-1T21:56:32Z</time></trkpt>
<trkpt lat="42.4913931" lon="2.6356211"><ele></ele><time>2022-6-1T21:56:35Z</time></trkpt>
<trkpt lat="42.4915847" lon="2.6356170"><ele></ele><time>2022-6-1T21:56:38Z</time></trkpt>
<trkpt lat="42.4917465" lon="2.6355056"><ele></ele><time>2022-6-1T21:56:41Z</time></trkpt>
<trkpt lat="42.4918943" lon="2.6353233"><ele></ele><time>2022-6-1T21:56:44Z</time></trkpt>
<trkpt lat="42.4920685" lon="2.6351871"><ele></ele><time>2022-6-1T21:56:47Z</time></trkpt>
<trkpt lat="42.4922309" lon="2.6350314"><ele></ele><time>2022-6-1T21:56:50Z</time></trkpt>
<trkpt lat="42.4924030" lon="2.6349210"><ele></ele><time>2022-6-1T21:56:53Z</time></trkpt>
<trkpt lat="42.4925653" lon="2.6348122"><ele></ele><time>2022-6-1T21:56:56Z</time></trkpt>
<trkpt lat="42.4927461" lon="2.6346813"><ele></ele><time>2022-6-1T21:56:59Z</time></trkpt>
<trkpt lat="42.4929097" lon="2.6345473"><ele></ele><time>2022-6-1T21:57:2Z</time></trkpt>
<trkpt lat="42.4930400" lon="2.6343559"><ele></ele><time>2022-6-1T21:57:5Z</time></trkpt>
<trkpt lat="42.4929747" lon="2.6346128"><ele></ele><time>2022-6-1T21:57:8Z</time></trkpt>
<trkpt lat="42.4928244" lon="2.6347945"><ele></ele><time>2022-6-1T21:57:11Z</time></trkpt>
<trkpt lat="42.4926945" lon="2.6349981"><ele></ele><time>2022-6-1T21:57:14Z</time></trkpt>
<trkpt lat="42.4925699" lon="2.6351752"><ele></ele><time>2022-6-1T21:57:17Z</time></trkpt>
<trkpt lat="42.4924393" lon="2.6353753"><ele></ele><time>2022-6-1T21:57:20Z</time></trkpt>
<trkpt lat="42.4923351" lon="2.6355978"><ele></ele><time>2022-6-1T21:57:23Z</time></trkpt>
<trkpt lat="42.4922783" lon="2.6358419"><ele></ele><time>2022-6-1T21:57:26Z</time></trkpt>
<trkpt lat="42.4921942" lon="2.6360804"><ele></ele><time>2022-6-1T21:57:29Z</time></trkpt>
<trkpt lat="42.4920763" lon="2.6362653"><ele></ele><time>2022-6-1T21:57:32Z</time></trkpt>
<trkpt lat="42.4918971" lon="2.6363772"><ele></ele><time>2022-6-1T21:57:35Z</time></trkpt>
<trkpt lat="42.4916979" lon="2.6364324"><ele></ele><time>2022-6-1T21:57:38Z</time></trkpt>
<trkpt lat="42.4915705" lon="2.6366140"><ele></ele><time>2022-6-1T21:57:41Z</time></trkpt>
<trkpt lat="42.4917425" lon="2.6367016"><ele></ele><time>2022-6-1T21:57:44Z</time></trkpt>
<trkpt lat="42.4919317" lon="2.6367067"><ele></ele><time>2022-6-1T21:57:47Z</time></trkpt>
<trkpt lat="42.4921071" lon="2.6368123"><ele></ele><time>2022-6-1T21:57:50Z</time></trkpt>
<trkpt lat="42.4922739" lon="2.6366887"><ele></ele><time>2022-6-1T21:57:53Z</time></trkpt>
<trkpt lat="42.4924051" lon="2.6364988"><ele></ele><time>2022-6-1T21:57:56Z</time></trkpt>
<trkpt lat="42.4925663" lon="2.6363612"><ele></ele><time>2022-6-1T21:57:59Z</time></trkpt>
<trkpt lat="42.4927479" lon="2.6362700"><ele></ele><time>2022-6-1T21:58:2Z</time></trkpt>
<trkpt lat="42.4928967" lon="2.6361225"><ele></ele><time>2022-6-1T21:58:5Z</time></trkpt>
<trkpt lat="42.4930591" lon="2.6359987"><ele></ele><time>2022-6-1T21:58:8Z</time></trkpt>
<trkpt lat="42.4932423" lon="2.6359306"><ele></ele><time>2022-6-1T21:58:11Z</time></trkpt>
<trkpt lat="42.4934211" lon="2.6359614"><ele></ele><time>2022-6-1T21:58:14Z</time></trkpt>
<trkpt lat="42.4936078" lon="2.6360202"><ele></ele><time>2022-6-1T21:58:17Z</time></trkpt>
<trkpt lat="42.4938002" lon="2.6360277"><ele></ele><time>2022-6-1T21:58:20Z</time></trkpt>
<trkpt lat="42.4938010" lon="2.6362935"><ele></ele><time>2022-6-1T21:58:23Z</time></trkpt>
<trkpt lat="42.4938938" lon="2.6365111"><ele></ele><time>2022-6-1T21:58:26Z</time></trkpt>
<trkpt lat="42.4939547" lon="2.6367709"><ele></ele><time>2022-6-1T21:58:29Z</time></trkpt>
<trkpt lat="42.4938432" lon="2.6370271"><ele></ele><time>2022-6-1T21:58:32Z</time></trkpt>
<trkpt lat="42.4937533" lon="2.6373852"><ele></ele><time>2022-6-1T21:58:35Z</time></trkpt>
<trkpt lat="42.4936785" lon="2.6377218"><ele></ele><time>2022-6-1T21:58:38Z</time></trkpt>
<trkpt lat="42.4935723" lon="2.6379832"><ele></ele><time>2022-6-1T21:58:41Z</time></trkpt>
<trkpt lat="42.4933625" lon="2.6382645"><ele></ele><time>2022-6-1T21:58:44Z</time></trkpt>
<trkpt lat="42.4933054" lon="2.6385414"><ele></ele><time>2022-6-1T21:58:47Z</time></trkpt>
<trkpt lat="42.4932112" lon="2.6387945"><ele></ele><time>2022-6-1T21:58:50Z</time></trkpt>
<trkpt lat="42.4931594" lon="2.6390685"><ele></ele><time>2022-6-1T21:58:53Z</time></trkpt>
<trkpt lat="42.4931957" lon="2.6393079"><ele></ele><time>2022-6-1T21:58:56Z</time></trkpt>
<trkpt lat="42.4931268" lon="2.6395703"><ele></ele><time>2022-6-1T21:58:59Z</time></trkpt>
<trkpt lat="42.4930137" lon="2.6398868"><ele></ele><time>2022-6-1T21:59:2Z</time></trkpt>
<trkpt lat="42.4929018" lon="2.6402071"><ele></ele><time>2022-6-1T21:59:5Z</time></trkpt>
<trkpt lat="42.4928336" lon="2.6405495"><ele></ele><time>2022-6-1T21:59:8Z</time></trkpt>
<trkpt lat="42.4927612" lon="2.6408509"><ele></ele><time>2022-6-1T21:59:11Z</time></trkpt>
<trkpt lat="42.4927099" lon="2.6412059"><ele></ele><time>2022-6-1T21:59:14Z</time></trkpt>
<trkpt lat="42.4926645" lon="2.6414551"><ele></ele><time>2022-6-1T21:59:17Z</time></trkpt>
<trkpt lat="42.4925815" lon="2.6417761"><ele></ele><time>2022-6-1T21:59:20Z</time></trkpt>
<trkpt lat="42.4925023" lon="2.6420147"><ele></ele><time>2022-6-1T21:59:23Z</time></trkpt>
<trkpt lat="42.4923884" lon="2.6422376"><ele></ele><time>2022-6-1T21:59:26Z</time></trkpt>
<trkpt lat="42.4923135" lon="2.6424885"><ele></ele><time>2022-6-1T21:59:29Z</time></trkpt>
<trkpt lat="42.4921961" lon="2.6427291"><ele></ele><time>2022-6-1T21:59:32Z</time></trkpt>
<trkpt lat="42.4920887" lon="2.6429634"><ele></ele><time>2022-6-1T21:59:35Z</time></trkpt>
<trkpt lat="42.4919854" lon="2.6432381"><ele></ele><time>2022-6-1T21:59:38Z</time></trkpt>
<trkpt lat="42.4919035" lon="2.6434602"><ele></ele><time>2022-6-1T21:59:41Z</time></trkpt>
<trkpt lat="42.4917823" lon="2.6437204"><ele></ele><time>2022-6-1T21:59:44Z</time></trkpt>
<trkpt lat="42.4918063" lon="2.6440108"><ele></ele><time>2022-6-1T21:59:47Z</time></trkpt>
<trkpt lat="42.4918229" lon="2.6443365"><ele></ele><time>2022-6-1T21:59:50Z</time></trkpt>
<trkpt lat="42.4917774" lon="2.6446394"><ele></ele><time>2022-6-1T21:59:53Z</time></trkpt>
<trkpt lat="42.4917158" lon="2.6449633"><ele></ele><time>2022-6-1T21:59:56Z</time></trkpt>
<trkpt lat="42.4916527" lon="2.6451956"><ele></ele><time>2022-6-1T21:59:59Z</time></trkpt>
<trkpt lat="42.4915800" lon="2.6454953"><ele></ele><time>2022-6-1T22:0:2Z</time></trkpt>
<trkpt lat="42.4916924" lon="2.6457326"><ele></ele><time>2022-6-1T22:0:5Z</time></trkpt>
<trkpt lat="42.4916706" lon="2.6459760"><ele></ele><time>2022-6-1T22:0:8Z</time></trkpt>
<trkpt lat="42.4917316" lon="2.6462146"><ele></ele><time>2022-6-1T22:0:11Z</time></trkpt>
<trkpt lat="42.4918048" lon="2.6464505"><ele></ele><time>2022-6-1T22:0:14Z</time></trkpt>
<trkpt lat="42.4917968" lon="2.6467183"><ele></ele><time>2022-6-1T22:0:17Z</time></trkpt>
<trkpt lat="42.4919096" lon="2.6470779"><ele></ele><time>2022-6-1T22:0:20Z</time></trkpt>
<trkpt lat="42.4919667" lon="2.6473801"><ele></ele><time>2022-6-1T22:0:23Z</time></trkpt>
<trkpt lat="42.4919463" lon="2.6476365"><ele></ele><time>2022-6-1T22:0:26Z</time></trkpt>
<trkpt lat="42.4920937" lon="2.6478185"><ele></ele><time>2022-6-1T22:0:29Z</time></trkpt>
<trkpt lat="42.4922772" lon="2.6479436"><ele></ele><time>2022-6-1T22:0:32Z</time></trkpt>
<trkpt lat="42.4924735" lon="2.6480382"><ele></ele><time>2022-6-1T22:0:35Z</time></trkpt>
<trkpt lat="42.4925887" lon="2.6482602"><ele></ele><time>2022-6-1T22:0:38Z</time></trkpt>
<trkpt lat="42.4927535" lon="2.6483991"><ele></ele><time>2022-6-1T22:0:41Z</time></trkpt>
<trkpt lat="42.4928932" lon="2.6485606"><ele></ele><time>2022-6-1T22:0:44Z</time></trkpt>
<trkpt lat="42.4929574" lon="2.6487932"><ele></ele><time>2022-6-1T22:0:47Z</time></trkpt>
<trkpt lat="42.4930228" lon="2.6490235"><ele></ele><time>2022-6-1T22:0:50Z</time></trkpt>
<trkpt lat="42.4929318" lon="2.6492440"><ele></ele><time>2022-6-1T22:0:53Z</time></trkpt>
<trkpt lat="42.4927665" lon="2.6493618"><ele></ele><time>2022-6-1T22:0:56Z</time></trkpt>
<trkpt lat="42.4925945" lon="2.6495104"><ele></ele><time>2022-6-1T22:0:59Z</time></trkpt>
<trkpt lat="42.4924977" lon="2.6497517"><ele></ele><time>2022-6-1T22:1:2Z</time></trkpt>
<trkpt lat="42.4924348" lon="2.6500383"><ele></ele><time>2022-6-1T22:1:5Z</time></trkpt>
<trkpt lat="42.4923180" lon="2.6503344"><ele></ele><time>2022-6-1T22:1:8Z</time></trkpt>
<trkpt lat="42.4922574" lon="2.6506385"><ele></ele><time>2022-6-1T22:1:11Z</time></trkpt>
<trkpt lat="42.4922980" lon="2.6508850"><ele></ele><time>2022-6-1T22:1:14Z</time></trkpt>
<trkpt lat="42.4923571" lon="2.6511537"><ele></ele><time>2022-6-1T22:1:17Z</time></trkpt>
<trkpt lat="42.4924112" lon="2.6514210"><ele></ele><time>2022-6-1T22:1:20Z</time></trkpt>
<trkpt lat="42.4923620" lon="2.6516708"><ele></ele><time>2022-6-1T22:1:23Z</time></trkpt>
<trkpt lat="42.4923209" lon="2.6519144"><ele></ele><time>2022-6-1T22:1:26Z</time></trkpt>
<trkpt lat="42.4922566" lon="2.6521797"><ele></ele><time>2022-6-1T22:1:29Z</time></trkpt>
<trkpt lat="42.4921713" lon="2.6524192"><ele></ele><time>2022-6-1T22:1:32Z</time></trkpt>
<trkpt lat="42.4920684" lon="2.6526677"><ele></ele><time>2022-6-1T22:1:35Z</time></trkpt>
<trkpt lat="42.4919187" lon="2.6528217"><ele></ele><time>2022-6-1T22:1:38Z</time></trkpt>
<trkpt lat="42.4917664" lon="2.6530161"><ele></ele><time>2022-6-1T22:1:41Z</time></trkpt>
<trkpt lat="42.4916787" lon="2.6532410"><ele></ele><time>2022-6-1T22:1:44Z</time></trkpt>
<trkpt lat="42.4916173" lon="2.6534754"><ele></ele><time>2022-6-1T22:1:47Z</time></trkpt>
<trkpt lat="42.4914730" lon="2.6536763"><ele></ele><time>2022-6-1T22:1:50Z</time></trkpt>
<trkpt lat="42.4913058" lon="2.6538973"><ele></ele><time>2022-6-1T22:1:53Z</time></trkpt>
<trkpt lat="42.4911918" lon="2.6541248"><ele></ele><time>2022-6-1T22:1:56Z</time></trkpt>
<trkpt lat="42.4911146" lon="2.6543909"><ele></ele><time>2022-6-1T22:1:59Z</time></trkpt>
<trkpt lat="42.4910845" lon="2.6546357"><ele></ele><time>2022-6-1T22:2:2Z</time></trkpt>
<trkpt lat="42.4911036" lon="2.6543883"><ele></ele><time>2022-6-1T22:2:5Z</time></trkpt>
<trkpt lat="42.4909360" lon="2.6545623"><ele></ele><time>2022-6-1T22:2:8Z</time></trkpt>
<trkpt lat="42.4907591" lon="2.6546695"><ele></ele><time>2022-6-1T22:2:11Z</time></trkpt>
<trkpt lat="42.4905720" lon="2.6546896"><ele></ele><time>2022-6-1T22:2:14Z</time></trkpt>
<trkpt lat="42.4903963" lon="2.6545660"><ele></ele><time>2022-6-1T22:2:17Z</time></trkpt>
<trkpt lat="42.4903587" lon="2.6543105"><ele></ele><time>2022-6-1T22:2:20Z</time></trkpt>
<trkpt lat="42.4902110" lon="2.6541004"><ele></ele><time>2022-6-1T22:2:23Z</time></trkpt>
<trkpt lat="42.4900917" lon="2.6539133"><ele></ele><time>2022-6-1T22:2:26Z</time></trkpt>
<trkpt lat="42.4898762" lon="2.6538374"><ele></ele><time>2022-6-1T22:2:29Z</time></trkpt>
<trkpt lat="42.4896586" lon="2.6537986"><ele></ele><time>2022-6-1T22:2:32Z</time></trkpt>
<trkpt lat="42.4894416" lon="2.6538795"><ele></ele><time>2022-6-1T22:2:35Z</time></trkpt>
<trkpt lat="42.4892463" lon="2.6539238"><ele></ele><time>2022-6-1T22:2:38Z</time></trkpt>
<trkpt lat="42.4890801" lon="2.6538112"><ele></ele><time>2022-6-1T22:2:41Z</time></trkpt>
<trkpt lat="42.4888997" lon="2.6537460"><ele></ele><time>2022-6-1T22:2:44Z</time></trkpt>
<trkpt lat="42.4887099" lon="2.6537082"><ele></ele><time>2022-6-1T22:2:47Z</time></trkpt>
<trkpt lat="42.4885238" lon="2.6537245"><ele></ele><time>2022-6-1T22:2:50Z</time></trkpt>
<trkpt lat="42.4883310" lon="2.6537234"><ele></ele><time>2022-6-1T22:2:53Z</time></trkpt>
<trkpt lat="42.4881287" lon="2.6536891"><ele></ele><time>2022-6-1T22:2:56Z</time></trkpt>
<trkpt lat="42.4878873" lon="2.6537884"><ele></ele><time>2022-6-1T22:2:59Z</time></trkpt>
<trkpt lat="42.4876916" lon="2.6537025"><ele></ele><time>2022-6-1T22:3:2Z</time></trkpt>
<trkpt lat="42.4875401" lon="2.6535116"><ele></ele><time>2022-6-1T22:3:5Z</time></trkpt>
<trkpt lat="42.4873888" lon="2.6533679"><ele></ele><time>2022-6-1T22:3:8Z</time></trkpt>
<trkpt lat="42.4872826" lon="2.6531688"><ele></ele><time>2022-6-1T22:3:11Z</time></trkpt>
<trkpt lat="42.4871386" lon="2.6530183"><ele></ele><time>2022-6-1T22:3:14Z</time></trkpt>
<trkpt lat="42.4869599" lon="2.6529865"><ele></ele><time>2022-6-1T22:3:17Z</time></trkpt>
<trkpt lat="42.4868452" lon="2.6531953"><ele></ele><time>2022-6-1T22:3:20Z</time></trkpt>
<trkpt lat="42.4867195" lon="2.6533711"><ele></ele><time>2022-6-1T22:3:23Z</time></trkpt>
<trkpt lat="42.4865676" lon="2.6535487"><ele></ele><time>2022-6-1T22:3:26Z</time></trkpt>
<trkpt lat="42.4864222" lon="2.6537063"><ele></ele><time>2022-6-1T22:3:29Z</time></trkpt>
<trkpt lat="42.4863672" lon="2.6539556"><ele></ele><time>2022-6-1T22:3:32Z</time></trkpt>
<trkpt lat="42.4865468" lon="2.6538541"><ele></ele><time>2022-6-1T22:3:35Z</time></trkpt>
<trkpt lat="42.4867249" lon="2.6537237"><ele></ele><time>2022-6-1T22:3:38Z</time></trkpt>
<trkpt lat="42.4869193" lon="2.6536521"><ele></ele><time>2022-6-1T22:3:41Z</time></trkpt>
<trkpt lat="42.4870667" lon="2.6538147"><ele></ele><time>2022-6-1T22:3:44Z</time></trkpt>
<trkpt lat="42.4871492" lon="2.6540761"><ele></ele><time>2022-6-1T22:3:47Z</time></trkpt>
<trkpt lat="42.4872138" lon="2.6543048"><ele></ele><time>2022-6-1T22:3:50Z</time></trkpt>
<trkpt lat="42.4872844" lon="2.6545697"><ele></ele><time>2022-6-1T22:3:53Z</time></trkpt>
<trkpt lat="42.4873869" lon="2.6547971"><ele></ele><time>2022-6-1T22:3:56Z</time></trkpt>
<trkpt lat="42.4874390" lon="2.6550317"><ele></ele><time>2022-6-1T22:3:59Z</time></trkpt>
<trkpt lat="42.4875961" lon="2.6548878"><ele></ele><time>2022-6-1T22:4:2Z</time></trkpt>
<trkpt lat="42.4877849" lon="2.6548356"><ele></ele><time>2022-6-1T22:4:5Z</time></trkpt>
<trkpt lat="42.4879775" lon="2.6548194"><ele></ele><time>2022-6-1T22:4:8Z</time></trkpt>
<trkpt lat="42.4881504" lon="2.6549050"><ele></ele><time>2022-6-1T22:4:11Z</time></trkpt>
<trkpt lat="42.4882969" lon="2.6550565"><ele></ele><time>2022-6-1T22:4:14Z</time></trkpt>
<trkpt lat="42.4884528" lon="2.6552214"><ele></ele><time>2022-6-1T22:4:17Z</time></trkpt>
<trkpt lat="42.4886174" lon="2.6553369"><ele></ele><time>2022-6-1T22:4:20Z</time></trkpt>
<trkpt lat="42.4888064" lon="2.6552790"><ele></ele><time>2022-6-1T22:4:23Z</time></trkpt>
<trkpt lat="42.4889751" lon="2.6551657"><ele></ele><time>2022-6-1T22:4:26Z</time></trkpt>
<trkpt lat="42.4891447" lon="2.6550666"><ele></ele><time>2022-6-1T22:4:29Z</time></trkpt>
<trkpt lat="42.4892491" lon="2.6552794"><ele></ele><time>2022-6-1T22:4:32Z</time></trkpt>
<trkpt lat="42.4892272" lon="2.6555309"><ele></ele><time>2022-6-1T22:4:35Z</time></trkpt>
<trkpt lat="42.4891791" lon="2.6557712"><ele></ele><time>2022-6-1T22:4:38Z</time></trkpt>
<trkpt lat="42.4891290" lon="2.6560123"><ele></ele><time>2022-6-1T22:4:41Z</time></trkpt>
<trkpt lat="42.4890483" lon="2.6562565"><ele></ele><time>2022-6-1T22:4:44Z</time></trkpt>
<trkpt lat="42.4889947" lon="2.6565147"><ele></ele><time>2022-6-1T22:4:47Z</time></trkpt>
<trkpt lat="42.4889810" lon="2.6567702"><ele></ele><time>2022-6-1T22:4:50Z</time></trkpt>
<trkpt lat="42.4890744" lon="2.6570010"><ele></ele><time>2022-6-1T22:4:53Z</time></trkpt>
<trkpt lat="42.4891961" lon="2.6572107"><ele></ele><time>2022-6-1T22:4:56Z</time></trkpt>
<trkpt lat="42.4893212" lon="2.6573989"><ele></ele><time>2022-6-1T22:4:59Z</time></trkpt>
<trkpt lat="42.4894611" lon="2.6575774"><ele></ele><time>2022-6-1T22:5:2Z</time></trkpt>
<trkpt lat="42.4895785" lon="2.6577637"><ele></ele><time>2022-6-1T22:5:5Z</time></trkpt>
<trkpt lat="42.4896936" lon="2.6579624"><ele></ele><time>2022-6-1T22:5:8Z</time></trkpt>
<trkpt lat="42.4898719" lon="2.6580887"><ele></ele><time>2022-6-1T22:5:11Z</time></trkpt>
<trkpt lat="42.4900571" lon="2.6580320"><ele></ele><time>2022-6-1T22:5:14Z</time></trkpt>
<trkpt lat="42.4902405" lon="2.6580044"><ele></ele><time>2022-6-1T22:5:17Z</time></trkpt>
<trkpt lat="42.4904139" lon="2.6579096"><ele></ele><time>2022-6-1T22:5:20Z</time></trkpt>
<trkpt lat="42.4905813" lon="2.6577988"><ele></ele><time>2022-6-1T22:5:23Z</time></trkpt>
<trkpt lat="42.4907607" lon="2.6576681"><ele></ele><time>2022-6-1T22:5:26Z</time></trkpt>
<trkpt lat="42.4909471" lon="2.6575479"><ele></ele><time>2022-6-1T22:5:29Z</time></trkpt>
<trkpt lat="42.4911226" lon="2.6576282"><ele></ele><time>2022-6-1T22:5:32Z</time></trkpt>
<trkpt lat="42.4911849" lon="2.6578647"><ele></ele><time>2022-6-1T22:5:35Z</time></trkpt>
<trkpt lat="42.4912569" lon="2.6581219"><ele></ele><time>2022-6-1T22:5:38Z</time></trkpt>
<trkpt lat="42.4913819" lon="2.6583070"><ele></ele><time>2022-6-1T22:5:41Z</time></trkpt>
<trkpt lat="42.4915568" lon="2.6583918"><ele></ele><time>2022-6-1T22:5:44Z</time></trkpt>
<trkpt lat="42.4917532" lon="2.6584552"><ele></ele><time>2022-6-1T22:5:47Z</time></trkpt>
<trkpt lat="42.4918695" lon="2.6586582"><ele></ele><time>2022-6-1T22:5:50Z</time></trkpt>
<trkpt lat="42.4920289" lon="2.6588003"><ele></ele><time>2022-6-1T22:5:53Z</time></trkpt>
<trkpt lat="42.4921757" lon="2.6589758"><ele></ele><time>2022-6-1T22:5:56Z</time></trkpt>
<trkpt lat="42.4923123" lon="2.6591621"><ele></ele><time>2022-6-1T22:5:59Z</time></trkpt>
<trkpt lat="42.4924635" lon="2.6593816"><ele></ele><time>2022-6-1T22:6:2Z</time></trkpt>
<trkpt lat="42.4925097" lon="2.6596247"><ele></ele><time>2022-6-1T22:6:5Z</time></trkpt>
<trkpt lat="42.4924959" lon="2.6599096"><ele></ele><time>2022-6-1T22:6:8Z</time></trkpt>
<trkpt lat="42.4924825" lon="2.6602243"><ele></ele><time>2022-6-1T22:6:11Z</time></trkpt>
<trkpt lat="42.4924168" lon="2.6604535"><ele></ele><time>2022-6-1T22:6:14Z</time></trkpt>
<trkpt lat="42.4924038" lon="2.6607426"><ele></ele><time>2022-6-1T22:6:17Z</time></trkpt>
<trkpt lat="42.4923357" lon="2.6609995"><ele></ele><time>2022-6-1T22:6:20Z</time></trkpt>
<trkpt lat="42.4923766" lon="2.6612624"><ele></ele><time>2022-6-1T22:6:23Z</time></trkpt>
<trkpt lat="42.4925037" lon="2.6614414"><ele></ele><time>2022-6-1T22:6:26Z</time></trkpt>
<trkpt lat="42.4926776" lon="2.6615214"><ele></ele><time>2022-6-1T22:6:29Z</time></trkpt>
<trkpt lat="42.4928586" lon="2.6616140"><ele></ele><time>2022-6-1T22:6:32Z</time></trkpt>
<trkpt lat="42.4930698" lon="2.6616307"><ele></ele><time>2022-6-1T22:6:35Z</time></trkpt>
<trkpt lat="42.4932521" lon="2.6616144"><ele></ele><time>2022-6-1T22:6:38Z</time></trkpt>
<trkpt lat="42.4936390" lon="2.6616592"><ele></ele><time>2022-6-1T22:6:41Z</time></trkpt>
<trkpt lat="42.4938260" lon="2.6616760"><ele></ele><time>2022-6-1T22:6:44Z</time></trkpt>
<trkpt lat="42.4940587" lon="2.6617172"><ele></ele><time>2022-6-1T22:6:47Z</time></trkpt>
<trkpt lat="42.4942736" lon="2.6617876"><ele></ele><time>2022-6-1T22:6:50Z</time></trkpt>
<trkpt lat="42.4944485" lon="2.6619128"><ele></ele><time>2022-6-1T22:6:53Z</time></trkpt>
<trkpt lat="42.4946437" lon="2.6619763"><ele></ele><time>2022-6-1T22:6:56Z</time></trkpt>
<trkpt lat="42.4944496" lon="2.6619709"><ele></ele><time>2022-6-1T22:6:59Z</time></trkpt>
<trkpt lat="42.4942683" lon="2.6619581"><ele></ele><time>2022-6-1T22:7:2Z</time></trkpt>
<trkpt lat="42.4940428" lon="2.6619560"><ele></ele><time>2022-6-1T22:7:5Z</time></trkpt>
<trkpt lat="42.4938295" lon="2.6620021"><ele></ele><time>2022-6-1T22:7:8Z</time></trkpt>
<trkpt lat="42.4936487" lon="2.6620896"><ele></ele><time>2022-6-1T22:7:11Z</time></trkpt>
<trkpt lat="42.4937691" lon="2.6622920"><ele></ele><time>2022-6-1T22:7:14Z</time></trkpt>
<trkpt lat="42.4938308" lon="2.6625370"><ele></ele><time>2022-6-1T22:7:17Z</time></trkpt>
<trkpt lat="42.4936491" lon="2.6625953"><ele></ele><time>2022-6-1T22:7:20Z</time></trkpt>
<trkpt lat="42.4934752" lon="2.6626872"><ele></ele><time>2022-6-1T22:7:23Z</time></trkpt>
<trkpt lat="42.4932911" lon="2.6626784"><ele></ele><time>2022-6-1T22:7:26Z</time></trkpt>
<trkpt lat="42.4931050" lon="2.6627363"><ele></ele><time>2022-6-1T22:7:29Z</time></trkpt>
<trkpt lat="42.4929418" lon="2.6628467"><ele></ele><time>2022-6-1T22:7:32Z</time></trkpt>
<trkpt lat="42.4927866" lon="2.6630296"><ele></ele><time>2022-6-1T22:7:35Z</time></trkpt>
<trkpt lat="42.4929020" lon="2.6632302"><ele></ele><time>2022-6-1T22:7:38Z</time></trkpt>
<trkpt lat="42.4930574" lon="2.6633574"><ele></ele><time>2022-6-1T22:7:41Z</time></trkpt>
<trkpt lat="42.4932034" lon="2.6635259"><ele></ele><time>2022-6-1T22:7:44Z</time></trkpt>
<trkpt lat="42.4932484" lon="2.6637849"><ele></ele><time>2022-6-1T22:7:47Z</time></trkpt>
<trkpt lat="42.4932997" lon="2.6640405"><ele></ele><time>2022-6-1T22:7:50Z</time></trkpt>
<trkpt lat="42.4933799" lon="2.6642736"><ele></ele><time>2022-6-1T22:7:53Z</time></trkpt>
<trkpt lat="42.4934886" lon="2.6644812"><ele></ele><time>2022-6-1T22:7:56Z</time></trkpt>
<trkpt lat="42.4936572" lon="2.6646043"><ele></ele><time>2022-6-1T22:7:59Z</time></trkpt>
<trkpt lat="42.4938004" lon="2.6648036"><ele></ele><time>2022-6-1T22:8:2Z</time></trkpt>
<trkpt lat="42.4939760" lon="2.6647238"><ele></ele><time>2022-6-1T22:8:5Z</time></trkpt>
<trkpt lat="42.4941250" lon="2.6645685"><ele></ele><time>2022-6-1T22:8:8Z</time></trkpt>
<trkpt lat="42.4942742" lon="2.6647343"><ele></ele><time>2022-6-1T22:8:11Z</time></trkpt>
<trkpt lat="42.4944636" lon="2.6647247"><ele></ele><time>2022-6-1T22:8:14Z</time></trkpt>
<trkpt lat="42.4946541" lon="2.6646522"><ele></ele><time>2022-6-1T22:8:17Z</time></trkpt>
<trkpt lat="42.4947352" lon="2.6648871"><ele></ele><time>2022-6-1T22:8:20Z</time></trkpt>
<trkpt lat="42.4948022" lon="2.6652654"><ele></ele><time>2022-6-1T22:8:23Z</time></trkpt>
<trkpt lat="42.4947290" lon="2.6655033"><ele></ele><time>2022-6-1T22:8:26Z</time></trkpt>
<trkpt lat="42.4946891" lon="2.6658364"><ele></ele><time>2022-6-1T22:8:29Z</time></trkpt>
<trkpt lat="42.4948691" lon="2.6657964"><ele></ele><time>2022-6-1T22:8:32Z</time></trkpt>
<trkpt lat="42.4950017" lon="2.6656275"><ele></ele><time>2022-6-1T22:8:35Z</time></trkpt>
<trkpt lat="42.4950762" lon="2.6653878"><ele></ele><time>2022-6-1T22:8:38Z</time></trkpt>
<trkpt lat="42.4952099" lon="2.6650662"><ele></ele><time>2022-6-1T22:8:41Z</time></trkpt>
<trkpt lat="42.4953501" lon="2.6648241"><ele></ele><time>2022-6-1T22:8:44Z</time></trkpt>
<trkpt lat="42.4954815" lon="2.6645163"><ele></ele><time>2022-6-1T22:8:47Z</time></trkpt>
<trkpt lat="42.4956111" lon="2.6643102"><ele></ele><time>2022-6-1T22:8:50Z</time></trkpt>
<trkpt lat="42.4957707" lon="2.6641605"><ele></ele><time>2022-6-1T22:8:53Z</time></trkpt>
<trkpt lat="42.4958497" lon="2.6643827"><ele></ele><time>2022-6-1T22:8:56Z</time></trkpt>
<trkpt lat="42.4958023" lon="2.6646255"><ele></ele><time>2022-6-1T22:8:59Z</time></trkpt>
<trkpt lat="42.4956982" lon="2.6649581"><ele></ele><time>2022-6-1T22:9:2Z</time></trkpt>
<trkpt lat="42.4956304" lon="2.6652616"><ele></ele><time>2022-6-1T22:9:5Z</time></trkpt>
<trkpt lat="42.4956579" lon="2.6655299"><ele></ele><time>2022-6-1T22:9:8Z</time></trkpt>
<trkpt lat="42.4957986" lon="2.6657583"><ele></ele><time>2022-6-1T22:9:11Z</time></trkpt>
<trkpt lat="42.4959079" lon="2.6659794"><ele></ele><time>2022-6-1T22:9:14Z</time></trkpt>
<trkpt lat="42.4958656" lon="2.6662504"><ele></ele><time>2022-6-1T22:9:17Z</time></trkpt>
<trkpt lat="42.4958396" lon="2.6665395"><ele></ele><time>2022-6-1T22:9:20Z</time></trkpt>
<trkpt lat="42.4957859" lon="2.6668030"><ele></ele><time>2022-6-1T22:9:23Z</time></trkpt>
<trkpt lat="42.4959772" lon="2.6666543"><ele></ele><time>2022-6-1T22:9:26Z</time></trkpt>
<trkpt lat="42.4961016" lon="2.6664129"><ele></ele><time>2022-6-1T22:9:29Z</time></trkpt>
<trkpt lat="42.4962953" lon="2.6663447"><ele></ele><time>2022-6-1T22:9:32Z</time></trkpt>
<trkpt lat="42.4963204" lon="2.6665934"><ele></ele><time>2022-6-1T22:9:35Z</time></trkpt>
<trkpt lat="42.4964109" lon="2.6668055"><ele></ele><time>2022-6-1T22:9:38Z</time></trkpt>
<trkpt lat="42.4964081" lon="2.6670788"><ele></ele><time>2022-6-1T22:9:41Z</time></trkpt>
<trkpt lat="42.4964016" lon="2.6673402"><ele></ele><time>2022-6-1T22:9:44Z</time></trkpt>
<trkpt lat="42.4965961" lon="2.6673651"><ele></ele><time>2022-6-1T22:9:47Z</time></trkpt>
<trkpt lat="42.4965927" lon="2.6676166"><ele></ele><time>2022-6-1T22:9:50Z</time></trkpt>
<trkpt lat="42.4965313" lon="2.6678576"><ele></ele><time>2022-6-1T22:9:53Z</time></trkpt>
<trkpt lat="42.4963720" lon="2.6680230"><ele></ele><time>2022-6-1T22:9:56Z</time></trkpt>
<trkpt lat="42.4962015" lon="2.6681442"><ele></ele><time>2022-6-1T22:9:59Z</time></trkpt>
<trkpt lat="42.4960413" lon="2.6682867"><ele></ele><time>2022-6-1T22:10:2Z</time></trkpt>
<trkpt lat="42.4959330" lon="2.6685032"><ele></ele><time>2022-6-1T22:10:5Z</time></trkpt>
<trkpt lat="42.4958753" lon="2.6687598"><ele></ele><time>2022-6-1T22:10:8Z</time></trkpt>
<trkpt lat="42.4957805" lon="2.6690118"><ele></ele><time>2022-6-1T22:10:11Z</time></trkpt>
<trkpt lat="42.4956887" lon="2.6692239"><ele></ele><time>2022-6-1T22:10:14Z</time></trkpt>
<trkpt lat="42.4955962" lon="2.6694386"><ele></ele><time>2022-6-1T22:10:17Z</time></trkpt>
<trkpt lat="42.4955293" lon="2.6696724"><ele></ele><time>2022-6-1T22:10:20Z</time></trkpt>
<trkpt lat="42.4954190" lon="2.6699148"><ele></ele><time>2022-6-1T22:10:23Z</time></trkpt>
<trkpt lat="42.4953415" lon="2.6701539"><ele></ele><time>2022-6-1T22:10:26Z</time></trkpt>
<trkpt lat="42.4952565" lon="2.6703968"><ele></ele><time>2022-6-1T22:10:29Z</time></trkpt>
<trkpt lat="42.4951583" lon="2.6706455"><ele></ele><time>2022-6-1T22:10:32Z</time></trkpt>
<trkpt lat="42.4950628" lon="2.6708720"><ele></ele><time>2022-6-1T22:10:35Z</time></trkpt>
<trkpt lat="42.4949904" lon="2.6711632"><ele></ele><time>2022-6-1T22:10:38Z</time></trkpt>
<trkpt lat="42.4949875" lon="2.6714294"><ele></ele><time>2022-6-1T22:10:41Z</time></trkpt>
<trkpt lat="42.4949382" lon="2.6717199"><ele></ele><time>2022-6-1T22:10:44Z</time></trkpt>
<trkpt lat="42.4947868" lon="2.6719489"><ele></ele><time>2022-6-1T22:10:47Z</time></trkpt>
<trkpt lat="42.4945557" lon="2.6719319"><ele></ele><time>2022-6-1T22:10:50Z</time></trkpt>
<trkpt lat="42.4943242" lon="2.6717623"><ele></ele><time>2022-6-1T22:10:53Z</time></trkpt>
<trkpt lat="42.4941457" lon="2.6715337"><ele></ele><time>2022-6-1T22:10:56Z</time></trkpt>
<trkpt lat="42.4939865" lon="2.6712942"><ele></ele><time>2022-6-1T22:10:59Z</time></trkpt>
<trkpt lat="42.4938808" lon="2.6709873"><ele></ele><time>2022-6-1T22:11:2Z</time></trkpt>
<trkpt lat="42.4937528" lon="2.6706714"><ele></ele><time>2022-6-1T22:11:5Z</time></trkpt>
<trkpt lat="42.4936338" lon="2.6703621"><ele></ele><time>2022-6-1T22:11:8Z</time></trkpt>
<trkpt lat="42.4934560" lon="2.6702146"><ele></ele><time>2022-6-1T22:11:11Z</time></trkpt>
<trkpt lat="42.4932955" lon="2.6703756"><ele></ele><time>2022-6-1T22:11:14Z</time></trkpt>
<trkpt lat="42.4932527" lon="2.6706822"><ele></ele><time>2022-6-1T22:11:17Z</time></trkpt>
<trkpt lat="42.4931695" lon="2.6709459"><ele></ele><time>2022-6-1T22:11:20Z</time></trkpt>
<trkpt lat="42.4930310" lon="2.6711956"><ele></ele><time>2022-6-1T22:11:23Z</time></trkpt>
<trkpt lat="42.4928528" lon="2.6713901"><ele></ele><time>2022-6-1T22:11:26Z</time></trkpt>
<trkpt lat="42.4926921" lon="2.6715793"><ele></ele><time>2022-6-1T22:11:29Z</time></trkpt>
<trkpt lat="42.4928958" lon="2.6715790"><ele></ele><time>2022-6-1T22:11:32Z</time></trkpt>
<trkpt lat="42.4930906" lon="2.6714066"><ele></ele><time>2022-6-1T22:11:35Z</time></trkpt>
<trkpt lat="42.4932205" lon="2.6712341"><ele></ele><time>2022-6-1T22:11:38Z</time></trkpt>
<trkpt lat="42.4933366" lon="2.6709863"><ele></ele><time>2022-6-1T22:11:41Z</time></trkpt>
<trkpt lat="42.4934851" lon="2.6711976"><ele></ele><time>2022-6-1T22:11:44Z</time></trkpt>
<trkpt lat="42.4935031" lon="2.6714925"><ele></ele><time>2022-6-1T22:11:47Z</time></trkpt>
<trkpt lat="42.4936466" lon="2.6717285"><ele></ele><time>2022-6-1T22:11:50Z</time></trkpt>
<trkpt lat="42.4937555" lon="2.6720122"><ele></ele><time>2022-6-1T22:11:53Z</time></trkpt>
<trkpt lat="42.4938866" lon="2.6722336"><ele></ele><time>2022-6-1T22:11:56Z</time></trkpt>
<trkpt lat="42.4940204" lon="2.6724270"><ele></ele><time>2022-6-1T22:11:59Z</time></trkpt>
<trkpt lat="42.4941159" lon="2.6726740"><ele></ele><time>2022-6-1T22:12:2Z</time></trkpt>
<trkpt lat="42.4942221" lon="2.6728764"><ele></ele><time>2022-6-1T22:12:5Z</time></trkpt>
<trkpt lat="42.4942481" lon="2.6731350"><ele></ele><time>2022-6-1T22:12:8Z</time></trkpt>
<trkpt lat="42.4943419" lon="2.6733885"><ele></ele><time>2022-6-1T22:12:11Z</time></trkpt>
<trkpt lat="42.4944769" lon="2.6736346"><ele></ele><time>2022-6-1T22:12:14Z</time></trkpt>
<trkpt lat="42.4945545" lon="2.6739058"><ele></ele><time>2022-6-1T22:12:17Z</time></trkpt>
<trkpt lat="42.4947554" lon="2.6739398"><ele></ele><time>2022-6-1T22:12:20Z</time></trkpt>
<trkpt lat="42.4949410" lon="2.6738084"><ele></ele><time>2022-6-1T22:12:23Z</time></trkpt>
<trkpt lat="42.4951342" lon="2.6738621"><ele></ele><time>2022-6-1T22:12:26Z</time></trkpt>
<trkpt lat="42.4953196" lon="2.6738942"><ele></ele><time>2022-6-1T22:12:29Z</time></trkpt>
<trkpt lat="42.4955299" lon="2.6738525"><ele></ele><time>2022-6-1T22:12:32Z</time></trkpt>
<trkpt lat="42.4957188" lon="2.6738285"><ele></ele><time>2022-6-1T22:12:35Z</time></trkpt>
<trkpt lat="42.4959353" lon="2.6737267"><ele></ele><time>2022-6-1T22:12:38Z</time></trkpt>
<trkpt lat="42.4961180" lon="2.6736711"><ele></ele><time>2022-6-1T22:12:41Z</time></trkpt>
<trkpt lat="42.4963075" lon="2.6735492"><ele></ele><time>2022-6-1T22:12:44Z</time></trkpt>
<trkpt lat="42.4964621" lon="2.6733662"><ele></ele><time>2022-6-1T22:12:47Z</time></trkpt>
<trkpt lat="42.4966091" lon="2.6731329"><ele></ele><time>2022-6-1T22:12:50Z</time></trkpt>
<trkpt lat="42.4966820" lon="2.6728886"><ele></ele><time>2022-6-1T22:12:53Z</time></trkpt>
<trkpt lat="42.4967297" lon="2.6726508"><ele></ele><time>2022-6-1T22:12:56Z</time></trkpt>
<trkpt lat="42.4967435" lon="2.6723859"><ele></ele><time>2022-6-1T22:12:59Z</time></trkpt>
<trkpt lat="42.4968206" lon="2.6721194"><ele></ele><time>2022-6-1T22:13:2Z</time></trkpt>
<trkpt lat="42.4968949" lon="2.6718770"><ele></ele><time>2022-6-1T22:13:5Z</time></trkpt>
<trkpt lat="42.4970505" lon="2.6716784"><ele></ele><time>2022-6-1T22:13:8Z</time></trkpt>
<trkpt lat="42.4972212" lon="2.6715771"><ele></ele><time>2022-6-1T22:13:11Z</time></trkpt>
<trkpt lat="42.4974243" lon="2.6715443"><ele></ele><time>2022-6-1T22:13:14Z</time></trkpt>
<trkpt lat="42.4974493" lon="2.6712948"><ele></ele><time>2022-6-1T22:13:17Z</time></trkpt>
<trkpt lat="42.4975871" lon="2.6710538"><ele></ele><time>2022-6-1T22:13:20Z</time></trkpt>
<trkpt lat="42.4977292" lon="2.6708416"><ele></ele><time>2022-6-1T22:13:23Z</time></trkpt>
<trkpt lat="42.4978566" lon="2.6706576"><ele></ele><time>2022-6-1T22:13:26Z</time></trkpt>
<trkpt lat="42.4979412" lon="2.6703774"><ele></ele><time>2022-6-1T22:13:29Z</time></trkpt>
<trkpt lat="42.4979461" lon="2.6701004"><ele></ele><time>2022-6-1T22:13:32Z</time></trkpt>
<trkpt lat="42.4981193" lon="2.6702310"><ele></ele><time>2022-6-1T22:13:35Z</time></trkpt>
<trkpt lat="42.4983493" lon="2.6701181"><ele></ele><time>2022-6-1T22:13:38Z</time></trkpt>
<trkpt lat="42.4985109" lon="2.6699540"><ele></ele><time>2022-6-1T22:13:41Z</time></trkpt>
<trkpt lat="42.4986693" lon="2.6697883"><ele></ele><time>2022-6-1T22:13:44Z</time></trkpt>
<trkpt lat="42.4988136" lon="2.6696330"><ele></ele><time>2022-6-1T22:13:47Z</time></trkpt>
<trkpt lat="42.4989029" lon="2.6694212"><ele></ele><time>2022-6-1T22:13:50Z</time></trkpt>
<trkpt lat="42.4990985" lon="2.6693681"><ele></ele><time>2022-6-1T22:13:53Z</time></trkpt>
<trkpt lat="42.4992788" lon="2.6694393"><ele></ele><time>2022-6-1T22:13:56Z</time></trkpt>
<trkpt lat="42.4994668" lon="2.6693113"><ele></ele><time>2022-6-1T22:13:59Z</time></trkpt>
<trkpt lat="42.4996360" lon="2.6692136"><ele></ele><time>2022-6-1T22:14:2Z</time></trkpt>
<trkpt lat="42.4998163" lon="2.6691251"><ele></ele><time>2022-6-1T22:14:5Z</time></trkpt>
<trkpt lat="42.4999750" lon="2.6689696"><ele></ele><time>2022-6-1T22:14:8Z</time></trkpt>
<trkpt lat="42.5001005" lon="2.6687925"><ele></ele><time>2022-6-1T22:14:11Z</time></trkpt>
<trkpt lat="42.5002081" lon="2.6685839"><ele></ele><time>2022-6-1T22:14:14Z</time></trkpt>
<trkpt lat="42.5002640" lon="2.6683128"><ele></ele><time>2022-6-1T22:14:17Z</time></trkpt>
<trkpt lat="42.5002963" lon="2.6680665"><ele></ele><time>2022-6-1T22:14:20Z</time></trkpt>
<trkpt lat="42.5002704" lon="2.6677989"><ele></ele><time>2022-6-1T22:14:23Z</time></trkpt>
<trkpt lat="42.5002978" lon="2.6675515"><ele></ele><time>2022-6-1T22:14:26Z</time></trkpt>
<trkpt lat="42.5003208" lon="2.6672807"><ele></ele><time>2022-6-1T22:14:29Z</time></trkpt>
<trkpt lat="42.5003116" lon="2.6670205"><ele></ele><time>2022-6-1T22:14:32Z</time></trkpt>
<trkpt lat="42.5002852" lon="2.6667236"><ele></ele><time>2022-6-1T22:14:35Z</time></trkpt>
<trkpt lat="42.5002737" lon="2.6664722"><ele></ele><time>2022-6-1T22:14:38Z</time></trkpt>
<trkpt lat="42.5004650" lon="2.6665335"><ele></ele><time>2022-6-1T22:14:41Z</time></trkpt>
<trkpt lat="42.5006565" lon="2.6665799"><ele></ele><time>2022-6-1T22:14:44Z</time></trkpt>
<trkpt lat="42.5008428" lon="2.6666417"><ele></ele><time>2022-6-1T22:14:47Z</time></trkpt>
<trkpt lat="42.5009968" lon="2.6664754"><ele></ele><time>2022-6-1T22:14:50Z</time></trkpt>
<trkpt lat="42.5011546" lon="2.6662662"><ele></ele><time>2022-6-1T22:14:53Z</time></trkpt>
<trkpt lat="42.5012651" lon="2.6659962"><ele></ele><time>2022-6-1T22:14:56Z</time></trkpt>
<trkpt lat="42.5013529" lon="2.6657798"><ele></ele><time>2022-6-1T22:14:59Z</time></trkpt>
<trkpt lat="42.5014540" lon="2.6655271"><ele></ele><time>2022-6-1T22:15:2Z</time></trkpt>
<trkpt lat="42.5014474" lon="2.6651797"><ele></ele><time>2022-6-1T22:15:5Z</time></trkpt>
<trkpt lat="42.5016457" lon="2.6651846"><ele></ele><time>2022-6-1T22:15:8Z</time></trkpt>
<trkpt lat="42.5018563" lon="2.6651040"><ele></ele><time>2022-6-1T22:15:11Z</time></trkpt>
<trkpt lat="42.5018689" lon="2.6648355"><ele></ele><time>2022-6-1T22:15:14Z</time></trkpt>
<trkpt lat="42.5017568" lon="2.6644942"><ele></ele><time>2022-6-1T22:15:17Z</time></trkpt>
<trkpt lat="42.5019229" lon="2.6643263"><ele></ele><time>2022-6-1T22:15:20Z</time></trkpt>
<trkpt lat="42.5021819" lon="2.6643442"><ele></ele><time>2022-6-1T22:15:23Z</time></trkpt>
<trkpt lat="42.5023865" lon="2.6642624"><ele></ele><time>2022-6-1T22:15:26Z</time></trkpt>
<trkpt lat="42.5024204" lon="2.6639817"><ele></ele><time>2022-6-1T22:15:29Z</time></trkpt>
<trkpt lat="42.5025743" lon="2.6638052"><ele></ele><time>2022-6-1T22:15:32Z</time></trkpt>
<trkpt lat="42.5027315" lon="2.6636575"><ele></ele><time>2022-6-1T22:15:35Z</time></trkpt>
<trkpt lat="42.5027737" lon="2.6633945"><ele></ele><time>2022-6-1T22:15:38Z</time></trkpt>
<trkpt lat="42.5028756" lon="2.6631872"><ele></ele><time>2022-6-1T22:15:41Z</time></trkpt>
<trkpt lat="42.5029962" lon="2.6629955"><ele></ele><time>2022-6-1T22:15:44Z</time></trkpt>
<trkpt lat="42.5029723" lon="2.6632421"><ele></ele><time>2022-6-1T22:15:47Z</time></trkpt>
<trkpt lat="42.5030154" lon="2.6635164"><ele></ele><time>2022-6-1T22:15:50Z</time></trkpt>
<trkpt lat="42.5030972" lon="2.6637926"><ele></ele><time>2022-6-1T22:15:53Z</time></trkpt>
<trkpt lat="42.5030426" lon="2.6640722"><ele></ele><time>2022-6-1T22:15:56Z</time></trkpt>
<trkpt lat="42.5028614" lon="2.6641335"><ele></ele><time>2022-6-1T22:15:59Z</time></trkpt>
<trkpt lat="42.5028156" lon="2.6643921"><ele></ele><time>2022-6-1T22:16:2Z</time></trkpt>
<trkpt lat="42.5028683" lon="2.6646280"><ele></ele><time>2022-6-1T22:16:5Z</time></trkpt>
<trkpt lat="42.5027524" lon="2.6648506"><ele></ele><time>2022-6-1T22:16:8Z</time></trkpt>
<trkpt lat="42.5026348" lon="2.6650426"><ele></ele><time>2022-6-1T22:16:11Z</time></trkpt>
<trkpt lat="42.5026419" lon="2.6653377"><ele></ele><time>2022-6-1T22:16:14Z</time></trkpt>
<trkpt lat="42.5025614" lon="2.6655643"><ele></ele><time>2022-6-1T22:16:17Z</time></trkpt>
<trkpt lat="42.5024596" lon="2.6658636"><ele></ele><time>2022-6-1T22:16:20Z</time></trkpt>
<trkpt lat="42.5023510" lon="2.6661261"><ele></ele><time>2022-6-1T22:16:23Z</time></trkpt>
<trkpt lat="42.5023194" lon="2.6664532"><ele></ele><time>2022-6-1T22:16:26Z</time></trkpt>
<trkpt lat="42.5021814" lon="2.6666291"><ele></ele><time>2022-6-1T22:16:29Z</time></trkpt>
<trkpt lat="42.5021639" lon="2.6669354"><ele></ele><time>2022-6-1T22:16:32Z</time></trkpt>
<trkpt lat="42.5021879" lon="2.6672570"><ele></ele><time>2022-6-1T22:16:35Z</time></trkpt>
<trkpt lat="42.5021130" lon="2.6675447"><ele></ele><time>2022-6-1T22:16:38Z</time></trkpt>
<trkpt lat="42.5021449" lon="2.6678062"><ele></ele><time>2022-6-1T22:16:41Z</time></trkpt>
<trkpt lat="42.5021547" lon="2.6680633"><ele></ele><time>2022-6-1T22:16:44Z</time></trkpt>
<trkpt lat="42.5021727" lon="2.6683494"><ele></ele><time>2022-6-1T22:16:47Z</time></trkpt>
<trkpt lat="42.5021985" lon="2.6686145"><ele></ele><time>2022-6-1T22:16:50Z</time></trkpt>
<trkpt lat="42.5021703" lon="2.6688721"><ele></ele><time>2022-6-1T22:16:53Z</time></trkpt>
<trkpt lat="42.5021422" lon="2.6691446"><ele></ele><time>2022-6-1T22:16:56Z</time></trkpt>
<trkpt lat="42.5021424" lon="2.6694374"><ele></ele><time>2022-6-1T22:16:59Z</time></trkpt>
<trkpt lat="42.5020772" lon="2.6696731"><ele></ele><time>2022-6-1T22:17:2Z</time></trkpt>
<trkpt lat="42.5020261" lon="2.6699150"><ele></ele><time>2022-6-1T22:17:5Z</time></trkpt>
<trkpt lat="42.5019501" lon="2.6701731"><ele></ele><time>2022-6-1T22:17:8Z</time></trkpt>
<trkpt lat="42.5019474" lon="2.6704494"><ele></ele><time>2022-6-1T22:17:11Z</time></trkpt>
<trkpt lat="42.5019691" lon="2.6707460"><ele></ele><time>2022-6-1T22:17:14Z</time></trkpt>
<trkpt lat="42.5019586" lon="2.6709927"><ele></ele><time>2022-6-1T22:17:17Z</time></trkpt>
<trkpt lat="42.5018307" lon="2.6711997"><ele></ele><time>2022-6-1T22:17:20Z</time></trkpt>
<trkpt lat="42.5016565" lon="2.6713579"><ele></ele><time>2022-6-1T22:17:23Z</time></trkpt>
<trkpt lat="42.5014985" lon="2.6715139"><ele></ele><time>2022-6-1T22:17:26Z</time></trkpt>
<trkpt lat="42.5013347" lon="2.6717003"><ele></ele><time>2022-6-1T22:17:29Z</time></trkpt>
<trkpt lat="42.5011943" lon="2.6718942"><ele></ele><time>2022-6-1T22:17:32Z</time></trkpt>
<trkpt lat="42.5010776" lon="2.6721062"><ele></ele><time>2022-6-1T22:17:35Z</time></trkpt>
<trkpt lat="42.5009048" lon="2.6722582"><ele></ele><time>2022-6-1T22:17:38Z</time></trkpt>
<trkpt lat="42.5007259" lon="2.6723211"><ele></ele><time>2022-6-1T22:17:41Z</time></trkpt>
<trkpt lat="42.5005221" lon="2.6724083"><ele></ele><time>2022-6-1T22:17:44Z</time></trkpt>
<trkpt lat="42.5003332" lon="2.6724677"><ele></ele><time>2022-6-1T22:17:47Z</time></trkpt>
<trkpt lat="42.5001259" lon="2.6724811"><ele></ele><time>2022-6-1T22:17:50Z</time></trkpt>
<trkpt lat="42.4999929" lon="2.6726594"><ele></ele><time>2022-6-1T22:17:53Z</time></trkpt>
<trkpt lat="42.4999146" lon="2.6729058"><ele></ele><time>2022-6-1T22:17:56Z</time></trkpt>
<trkpt lat="42.4997287" lon="2.6730240"><ele></ele><time>2022-6-1T22:17:59Z</time></trkpt>
<trkpt lat="42.4996166" lon="2.6732575"><ele></ele><time>2022-6-1T22:18:2Z</time></trkpt>
<trkpt lat="42.4994692" lon="2.6734796"><ele></ele><time>2022-6-1T22:18:5Z</time></trkpt>
<trkpt lat="42.4993372" lon="2.6737140"><ele></ele><time>2022-6-1T22:18:8Z</time></trkpt>
<trkpt lat="42.4993074" lon="2.6740054"><ele></ele><time>2022-6-1T22:18:11Z</time></trkpt>
<trkpt lat="42.4993606" lon="2.6742624"><ele></ele><time>2022-6-1T22:18:14Z</time></trkpt>
<trkpt lat="42.4994662" lon="2.6744987"><ele></ele><time>2022-6-1T22:18:17Z</time></trkpt>
<trkpt lat="42.4995014" lon="2.6747670"><ele></ele><time>2022-6-1T22:18:20Z</time></trkpt>
<trkpt lat="42.4995864" lon="2.6749959"><ele></ele><time>2022-6-1T22:18:23Z</time></trkpt>
<trkpt lat="42.4997299" lon="2.6751478"><ele></ele><time>2022-6-1T22:18:26Z</time></trkpt>
<trkpt lat="42.4999137" lon="2.6752966"><ele></ele><time>2022-6-1T22:18:29Z</time></trkpt>
<trkpt lat="42.5000556" lon="2.6754544"><ele></ele><time>2022-6-1T22:18:32Z</time></trkpt>
<trkpt lat="42.5001103" lon="2.6757276"><ele></ele><time>2022-6-1T22:18:35Z</time></trkpt>
<trkpt lat="42.5000355" lon="2.6759716"><ele></ele><time>2022-6-1T22:18:38Z</time></trkpt>
<trkpt lat="42.4999804" lon="2.6762781"><ele></ele><time>2022-6-1T22:18:41Z</time></trkpt>
<trkpt lat="42.4999291" lon="2.6765197"><ele></ele><time>2022-6-1T22:18:44Z</time></trkpt>
<trkpt lat="42.4998392" lon="2.6767821"><ele></ele><time>2022-6-1T22:18:47Z</time></trkpt>
<trkpt lat="42.4997898" lon="2.6771008"><ele></ele><time>2022-6-1T22:18:50Z</time></trkpt>
<trkpt lat="42.4998341" lon="2.6773441"><ele></ele><time>2022-6-1T22:18:53Z</time></trkpt>
<trkpt lat="42.4997026" lon="2.6775191"><ele></ele><time>2022-6-1T22:18:56Z</time></trkpt>
<trkpt lat="42.4994878" lon="2.6775529"><ele></ele><time>2022-6-1T22:18:59Z</time></trkpt>
<trkpt lat="42.4992956" lon="2.6775563"><ele></ele><time>2022-6-1T22:19:2Z</time></trkpt>
<trkpt lat="42.4990723" lon="2.6774935"><ele></ele><time>2022-6-1T22:19:5Z</time></trkpt>
<trkpt lat="42.4988847" lon="2.6774099"><ele></ele><time>2022-6-1T22:19:8Z</time></trkpt>
<trkpt lat="42.4987013" lon="2.6772727"><ele></ele><time>2022-6-1T22:19:11Z</time></trkpt>
<trkpt lat="42.4985110" lon="2.6772687"><ele></ele><time>2022-6-1T22:19:14Z</time></trkpt>
<trkpt lat="42.4983254" lon="2.6772734"><ele></ele><time>2022-6-1T22:19:17Z</time></trkpt>
<trkpt lat="42.4981138" lon="2.6772089"><ele></ele><time>2022-6-1T22:19:20Z</time></trkpt>
<trkpt lat="42.4978849" lon="2.6771411"><ele></ele><time>2022-6-1T22:19:23Z</time></trkpt>
<trkpt lat="42.4976594" lon="2.6771310"><ele></ele><time>2022-6-1T22:19:26Z</time></trkpt>
<trkpt lat="42.4974514" lon="2.6771756"><ele></ele><time>2022-6-1T22:19:29Z</time></trkpt>
<trkpt lat="42.4972793" lon="2.6774554"><ele></ele><time>2022-6-1T22:19:32Z</time></trkpt>
<trkpt lat="42.4971248" lon="2.6777224"><ele></ele><time>2022-6-1T22:19:35Z</time></trkpt>
<trkpt lat="42.4970160" lon="2.6780393"><ele></ele><time>2022-6-1T22:19:38Z</time></trkpt>
<trkpt lat="42.4969335" lon="2.6783909"><ele></ele><time>2022-6-1T22:19:41Z</time></trkpt>
<trkpt lat="42.4968928" lon="2.6786316"><ele></ele><time>2022-6-1T22:19:44Z</time></trkpt>
<trkpt lat="42.4968670" lon="2.6788778"><ele></ele><time>2022-6-1T22:19:47Z</time></trkpt>
<trkpt lat="42.4968024" lon="2.6791156"><ele></ele><time>2022-6-1T22:19:50Z</time></trkpt>
<trkpt lat="42.4967381" lon="2.6793649"><ele></ele><time>2022-6-1T22:19:53Z</time></trkpt>
<trkpt lat="42.4966137" lon="2.6796142"><ele></ele><time>2022-6-1T22:19:56Z</time></trkpt>
<trkpt lat="42.4964828" lon="2.6797951"><ele></ele><time>2022-6-1T22:19:59Z</time></trkpt>
<trkpt lat="42.4963893" lon="2.6800166"><ele></ele><time>2022-6-1T22:20:2Z</time></trkpt>
<trkpt lat="42.4964203" lon="2.6802970"><ele></ele><time>2022-6-1T22:20:5Z</time></trkpt>
<trkpt lat="42.4963951" lon="2.6805665"><ele></ele><time>2022-6-1T22:20:8Z</time></trkpt>
<trkpt lat="42.4963750" lon="2.6808308"><ele></ele><time>2022-6-1T22:20:11Z</time></trkpt>
<trkpt lat="42.4963157" lon="2.6810635"><ele></ele><time>2022-6-1T22:20:14Z</time></trkpt>
<trkpt lat="42.4962969" lon="2.6813263"><ele></ele><time>2022-6-1T22:20:17Z</time></trkpt>
<trkpt lat="42.4963161" lon="2.6815978"><ele></ele><time>2022-6-1T22:20:20Z</time></trkpt>
<trkpt lat="42.4963692" lon="2.6818547"><ele></ele><time>2022-6-1T22:20:23Z</time></trkpt>
<trkpt lat="42.4965030" lon="2.6821117"><ele></ele><time>2022-6-1T22:20:26Z</time></trkpt>
<trkpt lat="42.4965847" lon="2.6823418"><ele></ele><time>2022-6-1T22:20:29Z</time></trkpt>
<trkpt lat="42.4966440" lon="2.6825888"><ele></ele><time>2022-6-1T22:20:32Z</time></trkpt>
<trkpt lat="42.4967429" lon="2.6828518"><ele></ele><time>2022-6-1T22:20:35Z</time></trkpt>
<trkpt lat="42.4968446" lon="2.6831020"><ele></ele><time>2022-6-1T22:20:38Z</time></trkpt>
<trkpt lat="42.4968506" lon="2.6833467"><ele></ele><time>2022-6-1T22:20:41Z</time></trkpt>
<trkpt lat="42.4967408" lon="2.6835550"><ele></ele><time>2022-6-1T22:20:44Z</time></trkpt>
<trkpt lat="42.4966151" lon="2.6837779"><ele></ele><time>2022-6-1T22:20:47Z</time></trkpt>
<trkpt lat="42.4965116" lon="2.6840252"><ele></ele><time>2022-6-1T22:20:50Z</time></trkpt>
<trkpt lat="42.4964006" lon="2.6842563"><ele></ele><time>2022-6-1T22:20:53Z</time></trkpt>
<trkpt lat="42.4963004" lon="2.6845018"><ele></ele><time>2022-6-1T22:20:56Z</time></trkpt>
<trkpt lat="42.4962175" lon="2.6847618"><ele></ele><time>2022-6-1T22:20:59Z</time></trkpt>
<trkpt lat="42.4961712" lon="2.6850247"><ele></ele><time>2022-6-1T22:21:2Z</time></trkpt>
<trkpt lat="42.4961568" lon="2.6852936"><ele></ele><time>2022-6-1T22:21:5Z</time></trkpt>
<trkpt lat="42.4962902" lon="2.6855318"><ele></ele><time>2022-6-1T22:21:8Z</time></trkpt>
<trkpt lat="42.4961970" lon="2.6858040"><ele></ele><time>2022-6-1T22:21:11Z</time></trkpt>
<trkpt lat="42.4961384" lon="2.6861135"><ele></ele><time>2022-6-1T22:21:14Z</time></trkpt>
<trkpt lat="42.4961514" lon="2.6864119"><ele></ele><time>2022-6-1T22:21:17Z</time></trkpt>
<trkpt lat="42.4962357" lon="2.6867105"><ele></ele><time>2022-6-1T22:21:20Z</time></trkpt>
<trkpt lat="42.4963734" lon="2.6869713"><ele></ele><time>2022-6-1T22:21:23Z</time></trkpt>
<trkpt lat="42.4965017" lon="2.6872237"><ele></ele><time>2022-6-1T22:21:26Z</time></trkpt>
<trkpt lat="42.4966198" lon="2.6874241"><ele></ele><time>2022-6-1T22:21:29Z</time></trkpt>
<trkpt lat="42.4965931" lon="2.6876724"><ele></ele><time>2022-6-1T22:21:32Z</time></trkpt>
<trkpt lat="42.4967628" lon="2.6875606"><ele></ele><time>2022-6-1T22:21:35Z</time></trkpt>
<trkpt lat="42.4969563" lon="2.6875193"><ele></ele><time>2022-6-1T22:21:38Z</time></trkpt>
<trkpt lat="42.4971185" lon="2.6876748"><ele></ele><time>2022-6-1T22:21:41Z</time></trkpt>
<trkpt lat="42.4971480" lon="2.6879175"><ele></ele><time>2022-6-1T22:21:44Z</time></trkpt>
<trkpt lat="42.4971707" lon="2.6881703"><ele></ele><time>2022-6-1T22:21:47Z</time></trkpt>
<trkpt lat="42.4971867" lon="2.6884447"><ele></ele><time>2022-6-1T22:21:50Z</time></trkpt>
<trkpt lat="42.4971993" lon="2.6886971"><ele></ele><time>2022-6-1T22:21:53Z</time></trkpt>
<trkpt lat="42.4972283" lon="2.6889416"><ele></ele><time>2022-6-1T22:21:56Z</time></trkpt>
<trkpt lat="42.4972495" lon="2.6891928"><ele></ele><time>2022-6-1T22:21:59Z</time></trkpt>
<trkpt lat="42.4972232" lon="2.6894456"><ele></ele><time>2022-6-1T22:22:2Z</time></trkpt>
<trkpt lat="42.4971891" lon="2.6896899"><ele></ele><time>2022-6-1T22:22:5Z</time></trkpt>
<trkpt lat="42.4971541" lon="2.6899443"><ele></ele><time>2022-6-1T22:22:8Z</time></trkpt>
<trkpt lat="42.4971150" lon="2.6902380"><ele></ele><time>2022-6-1T22:22:11Z</time></trkpt>
<trkpt lat="42.4969983" lon="2.6904718"><ele></ele><time>2022-6-1T22:22:14Z</time></trkpt>
<trkpt lat="42.4968295" lon="2.6905856"><ele></ele><time>2022-6-1T22:22:17Z</time></trkpt>
<trkpt lat="42.4966288" lon="2.6907340"><ele></ele><time>2022-6-1T22:22:20Z</time></trkpt>
<trkpt lat="42.4964176" lon="2.6908514"><ele></ele><time>2022-6-1T22:22:23Z</time></trkpt>
<trkpt lat="42.4962439" lon="2.6909267"><ele></ele><time>2022-6-1T22:22:26Z</time></trkpt>
<trkpt lat="42.4960288" lon="2.6910443"><ele></ele><time>2022-6-1T22:22:29Z</time></trkpt>
<trkpt lat="42.4959056" lon="2.6912640"><ele></ele><time>2022-6-1T22:22:32Z</time></trkpt>
<trkpt lat="42.4958313" lon="2.6915265"><ele></ele><time>2022-6-1T22:22:35Z</time></trkpt>
<trkpt lat="42.4957161" lon="2.6917815"><ele></ele><time>2022-6-1T22:22:38Z</time></trkpt>
<trkpt lat="42.4955711" lon="2.6920320"><ele></ele><time>2022-6-1T22:22:41Z</time></trkpt>
<trkpt lat="42.4954171" lon="2.6921689"><ele></ele><time>2022-6-1T22:22:44Z</time></trkpt>
<trkpt lat="42.4952792" lon="2.6923945"><ele></ele><time>2022-6-1T22:22:47Z</time></trkpt>
<trkpt lat="42.4952456" lon="2.6926589"><ele></ele><time>2022-6-1T22:22:50Z</time></trkpt>
<trkpt lat="42.4952605" lon="2.6929268"><ele></ele><time>2022-6-1T22:22:53Z</time></trkpt>
<trkpt lat="42.4952771" lon="2.6932264"><ele></ele><time>2022-6-1T22:22:56Z</time></trkpt>
<trkpt lat="42.4952589" lon="2.6934986"><ele></ele><time>2022-6-1T22:22:59Z</time></trkpt>
<trkpt lat="42.4953438" lon="2.6937312"><ele></ele><time>2022-6-1T22:23:2Z</time></trkpt>
<trkpt lat="42.4955414" lon="2.6937515"><ele></ele><time>2022-6-1T22:23:5Z</time></trkpt>
<trkpt lat="42.4957450" lon="2.6937965"><ele></ele><time>2022-6-1T22:23:8Z</time></trkpt>
<trkpt lat="42.4959410" lon="2.6938647"><ele></ele><time>2022-6-1T22:23:11Z</time></trkpt>
<trkpt lat="42.4961305" lon="2.6939099"><ele></ele><time>2022-6-1T22:23:14Z</time></trkpt>
<trkpt lat="42.4963261" lon="2.6939218"><ele></ele><time>2022-6-1T22:23:17Z</time></trkpt>
<trkpt lat="42.4964559" lon="2.6937311"><ele></ele><time>2022-6-1T22:23:20Z</time></trkpt>
<trkpt lat="42.4966038" lon="2.6935846"><ele></ele><time>2022-6-1T22:23:23Z</time></trkpt>
<trkpt lat="42.4964192" lon="2.6935132"><ele></ele><time>2022-6-1T22:23:26Z</time></trkpt>
<trkpt lat="42.4962318" lon="2.6935717"><ele></ele><time>2022-6-1T22:23:29Z</time></trkpt>
<trkpt lat="42.4960452" lon="2.6934631"><ele></ele><time>2022-6-1T22:23:32Z</time></trkpt>
<trkpt lat="42.4960748" lon="2.6932188"><ele></ele><time>2022-6-1T22:23:35Z</time></trkpt>
<trkpt lat="42.4961990" lon="2.6930196"><ele></ele><time>2022-6-1T22:23:38Z</time></trkpt>
<trkpt lat="42.4963146" lon="2.6928111"><ele></ele><time>2022-6-1T22:23:41Z</time></trkpt>
<trkpt lat="42.4964973" lon="2.6927433"><ele></ele><time>2022-6-1T22:23:44Z</time></trkpt>
<trkpt lat="42.4966766" lon="2.6926974"><ele></ele><time>2022-6-1T22:23:47Z</time></trkpt>
<trkpt lat="42.4968651" lon="2.6927051"><ele></ele><time>2022-6-1T22:23:50Z</time></trkpt>
<trkpt lat="42.4970603" lon="2.6926817"><ele></ele><time>2022-6-1T22:23:53Z</time></trkpt>
<trkpt lat="42.4972185" lon="2.6925422"><ele></ele><time>2022-6-1T22:23:56Z</time></trkpt>
<trkpt lat="42.4973780" lon="2.6924046"><ele></ele><time>2022-6-1T22:23:59Z</time></trkpt>
<trkpt lat="42.4975480" lon="2.6922556"><ele></ele><time>2022-6-1T22:24:2Z</time></trkpt>
<trkpt lat="42.4973420" lon="2.6922054"><ele></ele><time>2022-6-1T22:24:5Z</time></trkpt>
<trkpt lat="42.4971448" lon="2.6921905"><ele></ele><time>2022-6-1T22:24:8Z</time></trkpt>
<trkpt lat="42.4969397" lon="2.6921851"><ele></ele><time>2022-6-1T22:24:11Z</time></trkpt>
<trkpt lat="42.4967429" lon="2.6921211"><ele></ele><time>2022-6-1T22:24:14Z</time></trkpt>
<trkpt lat="42.4966384" lon="2.6919032"><ele></ele><time>2022-6-1T22:24:17Z</time></trkpt>
<trkpt lat="42.4968148" lon="2.6919820"><ele></ele><time>2022-6-1T22:24:20Z</time></trkpt>
<trkpt lat="42.4970078" lon="2.6919137"><ele></ele><time>2022-6-1T22:24:23Z</time></trkpt>
<trkpt lat="42.4971484" lon="2.6917478"><ele></ele><time>2022-6-1T22:24:26Z</time></trkpt>
<trkpt lat="42.4973416" lon="2.6916647"><ele></ele><time>2022-6-1T22:24:29Z</time></trkpt>
<trkpt lat="42.4975218" lon="2.6916462"><ele></ele><time>2022-6-1T22:24:32Z</time></trkpt>
<trkpt lat="42.4977086" lon="2.6916017"><ele></ele><time>2022-6-1T22:24:35Z</time></trkpt>
<trkpt lat="42.4978899" lon="2.6915100"><ele></ele><time>2022-6-1T22:24:38Z</time></trkpt>
<trkpt lat="42.4980413" lon="2.6913364"><ele></ele><time>2022-6-1T22:24:41Z</time></trkpt>
<trkpt lat="42.4981694" lon="2.6911344"><ele></ele><time>2022-6-1T22:24:44Z</time></trkpt>
<trkpt lat="42.4979925" lon="2.6912375"><ele></ele><time>2022-6-1T22:24:47Z</time></trkpt>
<trkpt lat="42.4977923" lon="2.6912638"><ele></ele><time>2022-6-1T22:24:50Z</time></trkpt>
<trkpt lat="42.4977620" lon="2.6910189"><ele></ele><time>2022-6-1T22:24:53Z</time></trkpt>
<trkpt lat="42.4979034" lon="2.6908534"><ele></ele><time>2022-6-1T22:24:56Z</time></trkpt>
<trkpt lat="42.4980441" lon="2.6906619"><ele></ele><time>2022-6-1T22:24:59Z</time></trkpt>
<trkpt lat="42.4981550" lon="2.6904663"><ele></ele><time>2022-6-1T22:25:2Z</time></trkpt>
<trkpt lat="42.4982973" lon="2.6902732"><ele></ele><time>2022-6-1T22:25:5Z</time></trkpt>
<trkpt lat="42.4984448" lon="2.6901103"><ele></ele><time>2022-6-1T22:25:8Z</time></trkpt>
<trkpt lat="42.4985848" lon="2.6899510"><ele></ele><time>2022-6-1T22:25:11Z</time></trkpt>
<trkpt lat="42.4987636" lon="2.6898341"><ele></ele><time>2022-6-1T22:25:14Z</time></trkpt>
<trkpt lat="42.4989106" lon="2.6896530"><ele></ele><time>2022-6-1T22:25:17Z</time></trkpt>
<trkpt lat="42.4988938" lon="2.6893962"><ele></ele><time>2022-6-1T22:25:20Z</time></trkpt>
<trkpt lat="42.4987099" lon="2.6894339"><ele></ele><time>2022-6-1T22:25:23Z</time></trkpt>
<trkpt lat="42.4986116" lon="2.6892117"><ele></ele><time>2022-6-1T22:25:26Z</time></trkpt>
<trkpt lat="42.4986850" lon="2.6889478"><ele></ele><time>2022-6-1T22:25:29Z</time></trkpt>
<trkpt lat="42.4987562" lon="2.6886750"><ele></ele><time>2022-6-1T22:25:32Z</time></trkpt>
<trkpt lat="42.4989199" lon="2.6884869"><ele></ele><time>2022-6-1T22:25:35Z</time></trkpt>
<trkpt lat="42.4991326" lon="2.6884767"><ele></ele><time>2022-6-1T22:25:38Z</time></trkpt>
<trkpt lat="42.4993207" lon="2.6885796"><ele></ele><time>2022-6-1T22:25:41Z</time></trkpt>
<trkpt lat="42.4995136" lon="2.6885812"><ele></ele><time>2022-6-1T22:25:44Z</time></trkpt>
<trkpt lat="42.4996714" lon="2.6884415"><ele></ele><time>2022-6-1T22:25:47Z</time></trkpt>
<trkpt lat="42.4998380" lon="2.6883241"><ele></ele><time>2022-6-1T22:25:50Z</time></trkpt>
<trkpt lat="42.5000462" lon="2.6882983"><ele></ele><time>2022-6-1T22:25:53Z</time></trkpt>
<trkpt lat="42.5002267" lon="2.6881996"><ele></ele><time>2022-6-1T22:25:56Z</time></trkpt>
<trkpt lat="42.5004091" lon="2.6880708"><ele></ele><time>2022-6-1T22:25:59Z</time></trkpt>
<trkpt lat="42.5005500" lon="2.6879093"><ele></ele><time>2022-6-1T22:26:2Z</time></trkpt>
<trkpt lat="42.5007356" lon="2.6878552"><ele></ele><time>2022-6-1T22:26:5Z</time></trkpt>
<trkpt lat="42.5009168" lon="2.6879773"><ele></ele><time>2022-6-1T22:26:8Z</time></trkpt>
<trkpt lat="42.5010676" lon="2.6881270"><ele></ele><time>2022-6-1T22:26:11Z</time></trkpt>
<trkpt lat="42.5012519" lon="2.6880764"><ele></ele><time>2022-6-1T22:26:14Z</time></trkpt>
<trkpt lat="42.5014318" lon="2.6880193"><ele></ele><time>2022-6-1T22:26:17Z</time></trkpt>
<trkpt lat="42.5013221" lon="2.6878217"><ele></ele><time>2022-6-1T22:26:20Z</time></trkpt>
<trkpt lat="42.5011339" lon="2.6877945"><ele></ele><time>2022-6-1T22:26:23Z</time></trkpt>
<trkpt lat="42.5009742" lon="2.6876530"><ele></ele><time>2022-6-1T22:26:26Z</time></trkpt>
<trkpt lat="42.5008806" lon="2.6874427"><ele></ele><time>2022-6-1T22:26:29Z</time></trkpt>
<trkpt lat="42.5007117" lon="2.6873140"><ele></ele><time>2022-6-1T22:26:32Z</time></trkpt>
<trkpt lat="42.5005324" lon="2.6872534"><ele></ele><time>2022-6-1T22:26:35Z</time></trkpt>
<trkpt lat="42.5003567" lon="2.6871561"><ele></ele><time>2022-6-1T22:26:38Z</time></trkpt>
<trkpt lat="42.5002282" lon="2.6869719"><ele></ele><time>2022-6-1T22:26:41Z</time></trkpt>
<trkpt lat="42.5004204" lon="2.6869566"><ele></ele><time>2022-6-1T22:26:44Z</time></trkpt>
<trkpt lat="42.5005872" lon="2.6870660"><ele></ele><time>2022-6-1T22:26:47Z</time></trkpt>
<trkpt lat="42.5007765" lon="2.6870528"><ele></ele><time>2022-6-1T22:26:50Z</time></trkpt>
<trkpt lat="42.5009664" lon="2.6869834"><ele></ele><time>2022-6-1T22:26:53Z</time></trkpt>
<trkpt lat="42.5011607" lon="2.6869552"><ele></ele><time>2022-6-1T22:26:56Z</time></trkpt>
<trkpt lat="42.5013370" lon="2.6870632"><ele></ele><time>2022-6-1T22:26:59Z</time></trkpt>
<trkpt lat="42.5015443" lon="2.6870980"><ele></ele><time>2022-6-1T22:27:2Z</time></trkpt>
<trkpt lat="42.5017185" lon="2.6871868"><ele></ele><time>2022-6-1T22:27:5Z</time></trkpt>
<trkpt lat="42.5018742" lon="2.6873712"><ele></ele><time>2022-6-1T22:27:8Z</time></trkpt>
<trkpt lat="42.5020289" lon="2.6875270"><ele></ele><time>2022-6-1T22:27:11Z</time></trkpt>
<trkpt lat="42.5019605" lon="2.6872860"><ele></ele><time>2022-6-1T22:27:14Z</time></trkpt>
<trkpt lat="42.5018144" lon="2.6871298"><ele></ele><time>2022-6-1T22:27:17Z</time></trkpt>
<trkpt lat="42.5016461" lon="2.6870187"><ele></ele><time>2022-6-1T22:27:20Z</time></trkpt>
<trkpt lat="42.5014858" lon="2.6868546"><ele></ele><time>2022-6-1T22:27:23Z</time></trkpt>
<trkpt lat="42.5012894" lon="2.6867623"><ele></ele><time>2022-6-1T22:27:26Z</time></trkpt>
<trkpt lat="42.5011171" lon="2.6866822"><ele></ele><time>2022-6-1T22:27:29Z</time></trkpt>
<trkpt lat="42.5009322" lon="2.6865984"><ele></ele><time>2022-6-1T22:27:32Z</time></trkpt>
<trkpt lat="42.5007558" lon="2.6865327"><ele></ele><time>2022-6-1T22:27:35Z</time></trkpt>
<trkpt lat="42.5005673" lon="2.6864363"><ele></ele><time>2022-6-1T22:27:38Z</time></trkpt>
<trkpt lat="42.5004993" lon="2.6861858"><ele></ele><time>2022-6-1T22:27:41Z</time></trkpt>
<trkpt lat="42.5004597" lon="2.6859380"><ele></ele><time>2022-6-1T22:27:44Z</time></trkpt>
<trkpt lat="42.5004468" lon="2.6856762"><ele></ele><time>2022-6-1T22:27:47Z</time></trkpt>
<trkpt lat="42.5004846" lon="2.6854092"><ele></ele><time>2022-6-1T22:27:50Z</time></trkpt>
<trkpt lat="42.5004534" lon="2.6851557"><ele></ele><time>2022-6-1T22:27:53Z</time></trkpt>
<trkpt lat="42.5003333" lon="2.6849515"><ele></ele><time>2022-6-1T22:27:56Z</time></trkpt>
<trkpt lat="42.5001499" lon="2.6848430"><ele></ele><time>2022-6-1T22:27:59Z</time></trkpt>
<trkpt lat="42.4999947" lon="2.6846885"><ele></ele><time>2022-6-1T22:28:2Z</time></trkpt>
<trkpt lat="42.4998566" lon="2.6845122"><ele></ele><time>2022-6-1T22:28:5Z</time></trkpt>
<trkpt lat="42.4998307" lon="2.6842457"><ele></ele><time>2022-6-1T22:28:8Z</time></trkpt>
<trkpt lat="42.4999705" lon="2.6840842"><ele></ele><time>2022-6-1T22:28:11Z</time></trkpt>
<trkpt lat="42.5001572" lon="2.6840297"><ele></ele><time>2022-6-1T22:28:14Z</time></trkpt>
<trkpt lat="42.5003574" lon="2.6840576"><ele></ele><time>2022-6-1T22:28:17Z</time></trkpt>
<trkpt lat="42.5005413" lon="2.6840706"><ele></ele><time>2022-6-1T22:28:20Z</time></trkpt>
<trkpt lat="42.5007446" lon="2.6840740"><ele></ele><time>2022-6-1T22:28:23Z</time></trkpt>
<trkpt lat="42.5009306" lon="2.6841699"><ele></ele><time>2022-6-1T22:28:26Z</time></trkpt>
<trkpt lat="42.5010921" lon="2.6843132"><ele></ele><time>2022-6-1T22:28:29Z</time></trkpt>
<trkpt lat="42.5012729" lon="2.6842930"><ele></ele><time>2022-6-1T22:28:32Z</time></trkpt>
<trkpt lat="42.5014705" lon="2.6842722"><ele></ele><time>2022-6-1T22:28:35Z</time></trkpt>
<trkpt lat="42.5016262" lon="2.6841258"><ele></ele><time>2022-6-1T22:28:38Z</time></trkpt>
<trkpt lat="42.5017945" lon="2.6839821"><ele></ele><time>2022-6-1T22:28:41Z</time></trkpt>
<trkpt lat="42.5019912" lon="2.6840037"><ele></ele><time>2022-6-1T22:28:44Z</time></trkpt>
<trkpt lat="42.5021823" lon="2.6838935"><ele></ele><time>2022-6-1T22:28:47Z</time></trkpt>
<trkpt lat="42.5023474" lon="2.6837910"><ele></ele><time>2022-6-1T22:28:50Z</time></trkpt>
<trkpt lat="42.5025344" lon="2.6837625"><ele></ele><time>2022-6-1T22:28:53Z</time></trkpt>
<trkpt lat="42.5023771" lon="2.6838949"><ele></ele><time>2022-6-1T22:28:56Z</time></trkpt>
<trkpt lat="42.5022438" lon="2.6840925"><ele></ele><time>2022-6-1T22:28:59Z</time></trkpt>
<trkpt lat="42.5021509" lon="2.6843046"><ele></ele><time>2022-6-1T22:29:2Z</time></trkpt>
<trkpt lat="42.5019983" lon="2.6844415"><ele></ele><time>2022-6-1T22:29:5Z</time></trkpt>
<trkpt lat="42.5018338" lon="2.6845881"><ele></ele><time>2022-6-1T22:29:8Z</time></trkpt>
<trkpt lat="42.5016718" lon="2.6847446"><ele></ele><time>2022-6-1T22:29:11Z</time></trkpt>
<trkpt lat="42.5015219" lon="2.6848999"><ele></ele><time>2022-6-1T22:29:14Z</time></trkpt>
<trkpt lat="42.5014098" lon="2.6851313"><ele></ele><time>2022-6-1T22:29:17Z</time></trkpt>
<trkpt lat="42.5013144" lon="2.6853650"><ele></ele><time>2022-6-1T22:29:20Z</time></trkpt>
<trkpt lat="42.5013539" lon="2.6856100"><ele></ele><time>2022-6-1T22:29:23Z</time></trkpt>
<trkpt lat="42.5014160" lon="2.6853519"><ele></ele><time>2022-6-1T22:29:26Z</time></trkpt>
<trkpt lat="42.5015669" lon="2.6851623"><ele></ele><time>2022-6-1T22:29:29Z</time></trkpt>
<trkpt lat="42.5017561" lon="2.6850947"><ele></ele><time>2022-6-1T22:29:32Z</time></trkpt>
<trkpt lat="42.5019336" lon="2.6850536"><ele></ele><time>2022-6-1T22:29:35Z</time></trkpt>
<trkpt lat="42.5021206" lon="2.6850144"><ele></ele><time>2022-6-1T22:29:38Z</time></trkpt>
<trkpt lat="42.5023065" lon="2.6849747"><ele></ele><time>2022-6-1T22:29:41Z</time></trkpt>
<trkpt lat="42.5024721" lon="2.6850760"><ele></ele><time>2022-6-1T22:29:44Z</time></trkpt>
<trkpt lat="42.5026696" lon="2.6851421"><ele></ele><time>2022-6-1T22:29:47Z</time></trkpt>
<trkpt lat="42.5028614" lon="2.6850799"><ele></ele><time>2022-6-1T22:29:50Z</time></trkpt>
<trkpt lat="42.5030404" lon="2.6849710"><ele></ele><time>2022-6-1T22:29:53Z</time></trkpt>
<trkpt lat="42.5032267" lon="2.6849901"><ele></ele><time>2022-6-1T22:29:56Z</time></trkpt>
<trkpt lat="42.5034127" lon="2.6849209"><ele></ele><time>2022-6-1T22:29:59Z</time></trkpt>
<trkpt lat="42.5036017" lon="2.6848165"><ele></ele><time>2022-6-1T22:30:2Z</time></trkpt>
<trkpt lat="42.5037734" lon="2.6846844"><ele></ele><time>2022-6-1T22:30:5Z</time></trkpt>
<trkpt lat="42.5039399" lon="2.6845524"><ele></ele><time>2022-6-1T22:30:8Z</time></trkpt>
<trkpt lat="42.5040937" lon="2.6844117"><ele></ele><time>2022-6-1T22:30:11Z</time></trkpt>
<trkpt lat="42.5042662" lon="2.6842650"><ele></ele><time>2022-6-1T22:30:14Z</time></trkpt>
<trkpt lat="42.5043765" lon="2.6840713"><ele></ele><time>2022-6-1T22:30:17Z</time></trkpt>
<trkpt lat="42.5044053" lon="2.6838109"><ele></ele><time>2022-6-1T22:30:20Z</time></trkpt>
<trkpt lat="42.5044400" lon="2.6835460"><ele></ele><time>2022-6-1T22:30:23Z</time></trkpt>
<trkpt lat="42.5045216" lon="2.6833073"><ele></ele><time>2022-6-1T22:30:26Z</time></trkpt>
<trkpt lat="42.5045323" lon="2.6830200"><ele></ele><time>2022-6-1T22:30:29Z</time></trkpt>
<trkpt lat="42.5045673" lon="2.6827684"><ele></ele><time>2022-6-1T22:30:32Z</time></trkpt>
<trkpt lat="42.5046235" lon="2.6824962"><ele></ele><time>2022-6-1T22:30:35Z</time></trkpt>
<trkpt lat="42.5046926" lon="2.6822585"><ele></ele><time>2022-6-1T22:30:38Z</time></trkpt>
<trkpt lat="42.5048570" lon="2.6821292"><ele></ele><time>2022-6-1T22:30:41Z</time></trkpt>
<trkpt lat="42.5049746" lon="2.6819434"><ele></ele><time>2022-6-1T22:30:44Z</time></trkpt>
<trkpt lat="42.5050210" lon="2.6817039"><ele></ele><time>2022-6-1T22:30:47Z</time></trkpt>
<trkpt lat="42.5051043" lon="2.6814482"><ele></ele><time>2022-6-1T22:30:50Z</time></trkpt>
<trkpt lat="42.5051376" lon="2.6811931"><ele></ele><time>2022-6-1T22:30:53Z</time></trkpt>
<trkpt lat="42.5052157" lon="2.6809654"><ele></ele><time>2022-6-1T22:30:56Z</time></trkpt>
<trkpt lat="42.5053256" lon="2.6807640"><ele></ele><time>2022-6-1T22:30:59Z</time></trkpt>
<trkpt lat="42.5053876" lon="2.6805340"><ele></ele><time>2022-6-1T22:31:2Z</time></trkpt>
<trkpt lat="42.5055541" lon="2.6803963"><ele></ele><time>2022-6-1T22:31:5Z</time></trkpt>
<trkpt lat="42.5057398" lon="2.6803025"><ele></ele><time>2022-6-1T22:31:8Z</time></trkpt>
<trkpt lat="42.5058930" lon="2.6801692"><ele></ele><time>2022-6-1T22:31:11Z</time></trkpt>
<trkpt lat="42.5060760" lon="2.6801540"><ele></ele><time>2022-6-1T22:31:14Z</time></trkpt>
<trkpt lat="42.5062889" lon="2.6801421"><ele></ele><time>2022-6-1T22:31:17Z</time></trkpt>
<trkpt lat="42.5064948" lon="2.6801254"><ele></ele><time>2022-6-1T22:31:20Z</time></trkpt>
<trkpt lat="42.5066957" lon="2.6801323"><ele></ele><time>2022-6-1T22:31:23Z</time></trkpt>
<trkpt lat="42.5068616" lon="2.6800164"><ele></ele><time>2022-6-1T22:31:26Z</time></trkpt>
<trkpt lat="42.5067156" lon="2.6798691"><ele></ele><time>2022-6-1T22:31:29Z</time></trkpt>
<trkpt lat="42.5065865" lon="2.6796649"><ele></ele><time>2022-6-1T22:31:32Z</time></trkpt>
<trkpt lat="42.5065940" lon="2.6794124"><ele></ele><time>2022-6-1T22:31:35Z</time></trkpt>
<trkpt lat="42.5066914" lon="2.6796356"><ele></ele><time>2022-6-1T22:31:38Z</time></trkpt>
<trkpt lat="42.5068488" lon="2.6797962"><ele></ele><time>2022-6-1T22:31:41Z</time></trkpt>
<trkpt lat="42.5070402" lon="2.6799020"><ele></ele><time>2022-6-1T22:31:44Z</time></trkpt>
<trkpt lat="42.5071556" lon="2.6800972"><ele></ele><time>2022-6-1T22:31:47Z</time></trkpt>
<trkpt lat="42.5069492" lon="2.6801492"><ele></ele><time>2022-6-1T22:31:50Z</time></trkpt>
<trkpt lat="42.5067660" lon="2.6802239"><ele></ele><time>2022-6-1T22:31:53Z</time></trkpt>
<trkpt lat="42.5065800" lon="2.6803298"><ele></ele><time>2022-6-1T22:31:56Z</time></trkpt>
<trkpt lat="42.5064016" lon="2.6804562"><ele></ele><time>2022-6-1T22:31:59Z</time></trkpt>
<trkpt lat="42.5062880" lon="2.6806792"><ele></ele><time>2022-6-1T22:32:2Z</time></trkpt>
<trkpt lat="42.5061962" lon="2.6809143"><ele></ele><time>2022-6-1T22:32:5Z</time></trkpt>
<trkpt lat="42.5061463" lon="2.6811824"><ele></ele><time>2022-6-1T22:32:8Z</time></trkpt>
<trkpt lat="42.5060645" lon="2.6814030"><ele></ele><time>2022-6-1T22:32:11Z</time></trkpt>
<trkpt lat="42.5059616" lon="2.6816035"><ele></ele><time>2022-6-1T22:32:14Z</time></trkpt>
<trkpt lat="42.5058743" lon="2.6818608"><ele></ele><time>2022-6-1T22:32:17Z</time></trkpt>
<trkpt lat="42.5058718" lon="2.6821317"><ele></ele><time>2022-6-1T22:32:20Z</time></trkpt>
<trkpt lat="42.5059370" lon="2.6823676"><ele></ele><time>2022-6-1T22:32:23Z</time></trkpt>
<trkpt lat="42.5058707" lon="2.6826213"><ele></ele><time>2022-6-1T22:32:26Z</time></trkpt>
<trkpt lat="42.5057278" lon="2.6827705"><ele></ele><time>2022-6-1T22:32:29Z</time></trkpt>
<trkpt lat="42.5055523" lon="2.6828937"><ele></ele><time>2022-6-1T22:32:32Z</time></trkpt>
<trkpt lat="42.5054724" lon="2.6831531"><ele></ele><time>2022-6-1T22:32:35Z</time></trkpt>
<trkpt lat="42.5054744" lon="2.6833994"><ele></ele><time>2022-6-1T22:32:38Z</time></trkpt>
<trkpt lat="42.5055182" lon="2.6836527"><ele></ele><time>2022-6-1T22:32:41Z</time></trkpt>
<trkpt lat="42.5056384" lon="2.6838773"><ele></ele><time>2022-6-1T22:32:44Z</time></trkpt>
<trkpt lat="42.5057661" lon="2.6840823"><ele></ele><time>2022-6-1T22:32:47Z</time></trkpt>
<trkpt lat="42.5059195" lon="2.6842621"><ele></ele><time>2022-6-1T22:32:50Z</time></trkpt>
<trkpt lat="42.5060912" lon="2.6843407"><ele></ele><time>2022-6-1T22:32:53Z</time></trkpt>
<trkpt lat="42.5062345" lon="2.6845574"><ele></ele><time>2022-6-1T22:32:56Z</time></trkpt>
<trkpt lat="42.5063857" lon="2.6847081"><ele></ele><time>2022-6-1T22:32:59Z</time></trkpt>
<trkpt lat="42.5065820" lon="2.6847998"><ele></ele><time>2022-6-1T22:33:2Z</time></trkpt>
<trkpt lat="42.5067850" lon="2.6847882"><ele></ele><time>2022-6-1T22:33:5Z</time></trkpt>
<trkpt lat="42.5069762" lon="2.6848699"><ele></ele><time>2022-6-1T22:33:8Z</time></trkpt>
<trkpt lat="42.5071333" lon="2.6849947"><ele></ele><time>2022-6-1T22:33:11Z</time></trkpt>
<trkpt lat="42.5073028" lon="2.6851410"><ele></ele><time>2022-6-1T22:33:14Z</time></trkpt>
<trkpt lat="42.5071842" lon="2.6853614"><ele></ele><time>2022-6-1T22:33:17Z</time></trkpt>
<trkpt lat="42.5071833" lon="2.6856243"><ele></ele><time>2022-6-1T22:33:20Z</time></trkpt>
<trkpt lat="42.5072824" lon="2.6858645"><ele></ele><time>2022-6-1T22:33:23Z</time></trkpt>
<trkpt lat="42.5073539" lon="2.6861070"><ele></ele><time>2022-6-1T22:33:26Z</time></trkpt>
<trkpt lat="42.5074659" lon="2.6863263"><ele></ele><time>2022-6-1T22:33:29Z</time></trkpt>
<trkpt lat="42.5076446" lon="2.6864198"><ele></ele><time>2022-6-1T22:33:32Z</time></trkpt>
<trkpt lat="42.5078417" lon="2.6864130"><ele></ele><time>2022-6-1T22:33:35Z</time></trkpt>
<trkpt lat="42.5080299" lon="2.6863636"><ele></ele><time>2022-6-1T22:33:38Z</time></trkpt>
<trkpt lat="42.5082233" lon="2.6863314"><ele></ele><time>2022-6-1T22:33:41Z</time></trkpt>
<trkpt lat="42.5084280" lon="2.6862883"><ele></ele><time>2022-6-1T22:33:44Z</time></trkpt>
<trkpt lat="42.5086418" lon="2.6862238"><ele></ele><time>2022-6-1T22:33:47Z</time></trkpt>
<trkpt lat="42.5088556" lon="2.6861991"><ele></ele><time>2022-6-1T22:33:50Z</time></trkpt>
<trkpt lat="42.5089666" lon="2.6864439"><ele></ele><time>2022-6-1T22:33:53Z</time></trkpt>
<trkpt lat="42.5090417" lon="2.6866723"><ele></ele><time>2022-6-1T22:33:56Z</time></trkpt>
<trkpt lat="42.5090304" lon="2.6869465"><ele></ele><time>2022-6-1T22:33:59Z</time></trkpt>
<trkpt lat="42.5090455" lon="2.6872075"><ele></ele><time>2022-6-1T22:34:2Z</time></trkpt>
<trkpt lat="42.5090510" lon="2.6874810"><ele></ele><time>2022-6-1T22:34:5Z</time></trkpt>
<trkpt lat="42.5091276" lon="2.6877644"><ele></ele><time>2022-6-1T22:34:8Z</time></trkpt>
<trkpt lat="42.5092174" lon="2.6880224"><ele></ele><time>2022-6-1T22:34:11Z</time></trkpt>
<trkpt lat="42.5091578" lon="2.6882897"><ele></ele><time>2022-6-1T22:34:14Z</time></trkpt>
<trkpt lat="42.5089938" lon="2.6884403"><ele></ele><time>2022-6-1T22:34:17Z</time></trkpt>
<trkpt lat="42.5088646" lon="2.6886248"><ele></ele><time>2022-6-1T22:34:20Z</time></trkpt>
<trkpt lat="42.5087542" lon="2.6888421"><ele></ele><time>2022-6-1T22:34:23Z</time></trkpt>
<trkpt lat="42.5086626" lon="2.6890796"><ele></ele><time>2022-6-1T22:34:26Z</time></trkpt>
<trkpt lat="42.5086947" lon="2.6893278"><ele></ele><time>2022-6-1T22:34:29Z</time></trkpt>
<trkpt lat="42.5088095" lon="2.6895176"><ele></ele><time>2022-6-1T22:34:32Z</time></trkpt>
<trkpt lat="42.5089636" lon="2.6896610"><ele></ele><time>2022-6-1T22:34:35Z</time></trkpt>
<trkpt lat="42.5091246" lon="2.6897840"><ele></ele><time>2022-6-1T22:34:38Z</time></trkpt>
<trkpt lat="42.5091930" lon="2.6900154"><ele></ele><time>2022-6-1T22:34:41Z</time></trkpt>
<trkpt lat="42.5090843" lon="2.6902638"><ele></ele><time>2022-6-1T22:34:44Z</time></trkpt>
<trkpt lat="42.5089475" lon="2.6904559"><ele></ele><time>2022-6-1T22:34:47Z</time></trkpt>
<trkpt lat="42.5089706" lon="2.6907225"><ele></ele><time>2022-6-1T22:34:50Z</time></trkpt>
<trkpt lat="42.5090864" lon="2.6909753"><ele></ele><time>2022-6-1T22:34:53Z</time></trkpt>
<trkpt lat="42.5091031" lon="2.6912359"><ele></ele><time>2022-6-1T22:34:56Z</time></trkpt>
<trkpt lat="42.5089706" lon="2.6914360"><ele></ele><time>2022-6-1T22:34:59Z</time></trkpt>
<trkpt lat="42.5088416" lon="2.6916201"><ele></ele><time>2022-6-1T22:35:2Z</time></trkpt>
<trkpt lat="42.5086891" lon="2.6918144"><ele></ele><time>2022-6-1T22:35:5Z</time></trkpt>
<trkpt lat="42.5085546" lon="2.6920183"><ele></ele><time>2022-6-1T22:35:8Z</time></trkpt>
<trkpt lat="42.5085192" lon="2.6922654"><ele></ele><time>2022-6-1T22:35:11Z</time></trkpt>
<trkpt lat="42.5083371" lon="2.6922324"><ele></ele><time>2022-6-1T22:35:14Z</time></trkpt>
<trkpt lat="42.5081716" lon="2.6923958"><ele></ele><time>2022-6-1T22:35:17Z</time></trkpt>
<trkpt lat="42.5080349" lon="2.6925891"><ele></ele><time>2022-6-1T22:35:20Z</time></trkpt>
<trkpt lat="42.5078787" lon="2.6927608"><ele></ele><time>2022-6-1T22:35:23Z</time></trkpt>
<trkpt lat="42.5077514" lon="2.6929500"><ele></ele><time>2022-6-1T22:35:26Z</time></trkpt>
<trkpt lat="42.5075996" lon="2.6931431"><ele></ele><time>2022-6-1T22:35:29Z</time></trkpt>
<trkpt lat="42.5074244" lon="2.6932604"><ele></ele><time>2022-6-1T22:35:32Z</time></trkpt>
<trkpt lat="42.5072830" lon="2.6934134"><ele></ele><time>2022-6-1T22:35:35Z</time></trkpt>
<trkpt lat="42.5071759" lon="2.6936179"><ele></ele><time>2022-6-1T22:35:38Z</time></trkpt>
<trkpt lat="42.5070438" lon="2.6937850"><ele></ele><time>2022-6-1T22:35:41Z</time></trkpt>
<trkpt lat="42.5068736" lon="2.6938709"><ele></ele><time>2022-6-1T22:35:44Z</time></trkpt>
<trkpt lat="42.5067411" lon="2.6940698"><ele></ele><time>2022-6-1T22:35:47Z</time></trkpt>
<trkpt lat="42.5065910" lon="2.6942550"><ele></ele><time>2022-6-1T22:35:50Z</time></trkpt>
<trkpt lat="42.5064085" lon="2.6944198"><ele></ele><time>2022-6-1T22:35:53Z</time></trkpt>
<trkpt lat="42.5062382" lon="2.6946017"><ele></ele><time>2022-6-1T22:35:56Z</time></trkpt>
<trkpt lat="42.5060329" lon="2.6950326"><ele></ele><time>2022-6-1T22:35:59Z</time></trkpt>
<trkpt lat="42.5059677" lon="2.6953086"><ele></ele><time>2022-6-1T22:36:2Z</time></trkpt>
<trkpt lat="42.5058217" lon="2.6954999"><ele></ele><time>2022-6-1T22:36:5Z</time></trkpt>
<trkpt lat="42.5057113" lon="2.6956966"><ele></ele><time>2022-6-1T22:36:8Z</time></trkpt>
<trkpt lat="42.5054905" lon="2.6960911"><ele></ele><time>2022-6-1T22:36:11Z</time></trkpt>
<trkpt lat="42.5053741" lon="2.6962898"><ele></ele><time>2022-6-1T22:36:14Z</time></trkpt>
<trkpt lat="42.5052551" lon="2.6965382"><ele></ele><time>2022-6-1T22:36:17Z</time></trkpt>
<trkpt lat="42.5051516" lon="2.6967730"><ele></ele><time>2022-6-1T22:36:20Z</time></trkpt>
<trkpt lat="42.5050432" lon="2.6969739"><ele></ele><time>2022-6-1T22:36:23Z</time></trkpt>
<trkpt lat="42.5049729" lon="2.6972150"><ele></ele><time>2022-6-1T22:36:26Z</time></trkpt>
<trkpt lat="42.5048970" lon="2.6974701"><ele></ele><time>2022-6-1T22:36:29Z</time></trkpt>
<trkpt lat="42.5047985" lon="2.6978056"><ele></ele><time>2022-6-1T22:36:32Z</time></trkpt>
<trkpt lat="42.5046189" lon="2.6979863"><ele></ele><time>2022-6-1T22:36:35Z</time></trkpt>
<trkpt lat="42.5044153" lon="2.6980724"><ele></ele><time>2022-6-1T22:36:38Z</time></trkpt>
<trkpt lat="42.5042994" lon="2.6983354"><ele></ele><time>2022-6-1T22:36:41Z</time></trkpt>
<trkpt lat="42.5042465" lon="2.6985823"><ele></ele><time>2022-6-1T22:36:44Z</time></trkpt>
<trkpt lat="42.5041772" lon="2.6988300"><ele></ele><time>2022-6-1T22:36:47Z</time></trkpt>
<trkpt lat="42.5040904" lon="2.6990616"><ele></ele><time>2022-6-1T22:36:50Z</time></trkpt>
<trkpt lat="42.5039049" lon="2.6993521"><ele></ele><time>2022-6-1T22:36:53Z</time></trkpt>
<trkpt lat="42.5038070" lon="2.6996110"><ele></ele><time>2022-6-1T22:36:56Z</time></trkpt>
<trkpt lat="42.5036875" lon="2.6998241"><ele></ele><time>2022-6-1T22:36:59Z</time></trkpt>
<trkpt lat="42.5036161" lon="2.7000532"><ele></ele><time>2022-6-1T22:37:2Z</time></trkpt>
<trkpt lat="42.5035635" lon="2.7003183"><ele></ele><time>2022-6-1T22:37:5Z</time></trkpt>
<trkpt lat="42.5035407" lon="2.7006116"><ele></ele><time>2022-6-1T22:37:8Z</time></trkpt>
<trkpt lat="42.5035140" lon="2.7008592"><ele></ele><time>2022-6-1T22:37:11Z</time></trkpt>
<trkpt lat="42.5034984" lon="2.7011061"><ele></ele><time>2022-6-1T22:37:14Z</time></trkpt>
<trkpt lat="42.5034750" lon="2.7014120"><ele></ele><time>2022-6-1T22:37:17Z</time></trkpt>
<trkpt lat="42.5035761" lon="2.7016544"><ele></ele><time>2022-6-1T22:37:20Z</time></trkpt>
<trkpt lat="42.5037009" lon="2.7018627"><ele></ele><time>2022-6-1T22:37:23Z</time></trkpt>
<trkpt lat="42.5036175" lon="2.7020823"><ele></ele><time>2022-6-1T22:37:26Z</time></trkpt>
<trkpt lat="42.5035120" lon="2.7022924"><ele></ele><time>2022-6-1T22:37:29Z</time></trkpt>
<trkpt lat="42.5034572" lon="2.7025326"><ele></ele><time>2022-6-1T22:37:32Z</time></trkpt>
<trkpt lat="42.5034602" lon="2.7027773"><ele></ele><time>2022-6-1T22:37:35Z</time></trkpt>
<trkpt lat="42.5035559" lon="2.7030082"><ele></ele><time>2022-6-1T22:37:38Z</time></trkpt>
<trkpt lat="42.5036493" lon="2.7032592"><ele></ele><time>2022-6-1T22:37:41Z</time></trkpt>
<trkpt lat="42.5037233" lon="2.7034950"><ele></ele><time>2022-6-1T22:37:44Z</time></trkpt>
<trkpt lat="42.5037605" lon="2.7037522"><ele></ele><time>2022-6-1T22:37:47Z</time></trkpt>
<trkpt lat="42.5038367" lon="2.7040240"><ele></ele><time>2022-6-1T22:37:50Z</time></trkpt>
<trkpt lat="42.5039313" lon="2.7042401"><ele></ele><time>2022-6-1T22:37:53Z</time></trkpt>
<trkpt lat="42.5040134" lon="2.7045206"><ele></ele><time>2022-6-1T22:37:56Z</time></trkpt>
<trkpt lat="42.5040765" lon="2.7047548"><ele></ele><time>2022-6-1T22:37:59Z</time></trkpt>
<trkpt lat="42.5040914" lon="2.7050132"><ele></ele><time>2022-6-1T22:38:2Z</time></trkpt>
<trkpt lat="42.5041207" lon="2.7053398"><ele></ele><time>2022-6-1T22:38:5Z</time></trkpt>
<trkpt lat="42.5041348" lon="2.7056246"><ele></ele><time>2022-6-1T22:38:8Z</time></trkpt>
<trkpt lat="42.5042044" lon="2.7059345"><ele></ele><time>2022-6-1T22:38:11Z</time></trkpt>
<trkpt lat="42.5042503" lon="2.7062571"><ele></ele><time>2022-6-1T22:38:14Z</time></trkpt>
<trkpt lat="42.5042671" lon="2.7065732"><ele></ele><time>2022-6-1T22:38:17Z</time></trkpt>
<trkpt lat="42.5041955" lon="2.7068066"><ele></ele><time>2022-6-1T22:38:20Z</time></trkpt>
<trkpt lat="42.5041937" lon="2.7070998"><ele></ele><time>2022-6-1T22:38:23Z</time></trkpt>
<trkpt lat="42.5041782" lon="2.7073856"><ele></ele><time>2022-6-1T22:38:26Z</time></trkpt>
<trkpt lat="42.5041261" lon="2.7076664"><ele></ele><time>2022-6-1T22:38:29Z</time></trkpt>
<trkpt lat="42.5041051" lon="2.7079694"><ele></ele><time>2022-6-1T22:38:32Z</time></trkpt>
<trkpt lat="42.5041019" lon="2.7082292"><ele></ele><time>2022-6-1T22:38:35Z</time></trkpt>
<trkpt lat="42.5040422" lon="2.7084849"><ele></ele><time>2022-6-1T22:38:38Z</time></trkpt>
<trkpt lat="42.5039717" lon="2.7087589"><ele></ele><time>2022-6-1T22:38:41Z</time></trkpt>
<trkpt lat="42.5038943" lon="2.7089961"><ele></ele><time>2022-6-1T22:38:44Z</time></trkpt>
<trkpt lat="42.5038210" lon="2.7092437"><ele></ele><time>2022-6-1T22:38:47Z</time></trkpt>
<trkpt lat="42.5037006" lon="2.7094771"><ele></ele><time>2022-6-1T22:38:50Z</time></trkpt>
<trkpt lat="42.5035916" lon="2.7097324"><ele></ele><time>2022-6-1T22:38:53Z</time></trkpt>
<trkpt lat="42.5034819" lon="2.7099507"><ele></ele><time>2022-6-1T22:38:56Z</time></trkpt>
<trkpt lat="42.5033155" lon="2.7101813"><ele></ele><time>2022-6-1T22:38:59Z</time></trkpt>
<trkpt lat="42.5031532" lon="2.7103941"><ele></ele><time>2022-6-1T22:39:2Z</time></trkpt>
<trkpt lat="42.5030113" lon="2.7106059"><ele></ele><time>2022-6-1T22:39:5Z</time></trkpt>
<trkpt lat="42.5029144" lon="2.7108302"><ele></ele><time>2022-6-1T22:39:8Z</time></trkpt>
<trkpt lat="42.5027341" lon="2.7107268"><ele></ele><time>2022-6-1T22:39:11Z</time></trkpt>
<trkpt lat="42.5025624" lon="2.7106312"><ele></ele><time>2022-6-1T22:39:14Z</time></trkpt>
<trkpt lat="42.5023791" lon="2.7106480"><ele></ele><time>2022-6-1T22:39:17Z</time></trkpt>
<trkpt lat="42.5022163" lon="2.7105384"><ele></ele><time>2022-6-1T22:39:20Z</time></trkpt>
<trkpt lat="42.5020502" lon="2.7104139"><ele></ele><time>2022-6-1T22:39:23Z</time></trkpt>
<trkpt lat="42.5018760" lon="2.7103368"><ele></ele><time>2022-6-1T22:39:26Z</time></trkpt>
<trkpt lat="42.5016914" lon="2.7102431"><ele></ele><time>2022-6-1T22:39:29Z</time></trkpt>
<trkpt lat="42.5014995" lon="2.7102275"><ele></ele><time>2022-6-1T22:39:32Z</time></trkpt>
<trkpt lat="42.5013184" lon="2.7102341"><ele></ele><time>2022-6-1T22:39:35Z</time></trkpt>
<trkpt lat="42.5011014" lon="2.7102531"><ele></ele><time>2022-6-1T22:39:38Z</time></trkpt>
<trkpt lat="42.5008981" lon="2.7103427"><ele></ele><time>2022-6-1T22:39:41Z</time></trkpt>
<trkpt lat="42.5007176" lon="2.7103942"><ele></ele><time>2022-6-1T22:39:44Z</time></trkpt>
<trkpt lat="42.5005064" lon="2.7105354"><ele></ele><time>2022-6-1T22:39:47Z</time></trkpt>
<trkpt lat="42.5002933" lon="2.7105789"><ele></ele><time>2022-6-1T22:39:50Z</time></trkpt>
<trkpt lat="42.5000937" lon="2.7104552"><ele></ele><time>2022-6-1T22:39:53Z</time></trkpt>
<trkpt lat="42.4999053" lon="2.7103592"><ele></ele><time>2022-6-1T22:39:56Z</time></trkpt>
<trkpt lat="42.4997244" lon="2.7104139"><ele></ele><time>2022-6-1T22:39:59Z</time></trkpt>
<trkpt lat="42.4995529" lon="2.7105283"><ele></ele><time>2022-6-1T22:40:2Z</time></trkpt>
<trkpt lat="42.4993723" lon="2.7106003"><ele></ele><time>2022-6-1T22:40:5Z</time></trkpt>
<trkpt lat="42.4991707" lon="2.7106327"><ele></ele><time>2022-6-1T22:40:8Z</time></trkpt>
<trkpt lat="42.4989718" lon="2.7105489"><ele></ele><time>2022-6-1T22:40:11Z</time></trkpt>
<trkpt lat="42.4987928" lon="2.7104481"><ele></ele><time>2022-6-1T22:40:14Z</time></trkpt>
<trkpt lat="42.4986229" lon="2.7103420"><ele></ele><time>2022-6-1T22:40:17Z</time></trkpt>
<trkpt lat="42.4986590" lon="2.7100819"><ele></ele><time>2022-6-1T22:40:20Z</time></trkpt>
<trkpt lat="42.4987171" lon="2.7098098"><ele></ele><time>2022-6-1T22:40:23Z</time></trkpt>
<trkpt lat="42.4987579" lon="2.7095386"><ele></ele><time>2022-6-1T22:40:26Z</time></trkpt>
<trkpt lat="42.4988045" lon="2.7092991"><ele></ele><time>2022-6-1T22:40:29Z</time></trkpt>
<trkpt lat="42.4988455" lon="2.7090498"><ele></ele><time>2022-6-1T22:40:32Z</time></trkpt>
<trkpt lat="42.4988910" lon="2.7087650"><ele></ele><time>2022-6-1T22:40:35Z</time></trkpt>
<trkpt lat="42.4989343" lon="2.7085071"><ele></ele><time>2022-6-1T22:40:38Z</time></trkpt>
<trkpt lat="42.4989687" lon="2.7082466"><ele></ele><time>2022-6-1T22:40:41Z</time></trkpt>
<trkpt lat="42.4990136" lon="2.7079821"><ele></ele><time>2022-6-1T22:40:44Z</time></trkpt>
<trkpt lat="42.4990249" lon="2.7077262"><ele></ele><time>2022-6-1T22:40:47Z</time></trkpt>
<trkpt lat="42.4989242" lon="2.7067067"><ele></ele><time>2022-6-1T22:40:50Z</time></trkpt>
<trkpt lat="42.4988960" lon="2.7064424"><ele></ele><time>2022-6-1T22:40:53Z</time></trkpt>
<trkpt lat="42.4988142" lon="2.7061608"><ele></ele><time>2022-6-1T22:40:56Z</time></trkpt>
<trkpt lat="42.4987197" lon="2.7058920"><ele></ele><time>2022-6-1T22:40:59Z</time></trkpt>
<trkpt lat="42.4986390" lon="2.7056705"><ele></ele><time>2022-6-1T22:41:2Z</time></trkpt>
<trkpt lat="42.4985217" lon="2.7054236"><ele></ele><time>2022-6-1T22:41:5Z</time></trkpt>
<trkpt lat="42.4984097" lon="2.7052098"><ele></ele><time>2022-6-1T22:41:8Z</time></trkpt>
<trkpt lat="42.4982866" lon="2.7050132"><ele></ele><time>2022-6-1T22:41:11Z</time></trkpt>
<trkpt lat="42.4981161" lon="2.7048185"><ele></ele><time>2022-6-1T22:41:14Z</time></trkpt>
<trkpt lat="42.4979828" lon="2.7046537"><ele></ele><time>2022-6-1T22:41:17Z</time></trkpt>
<trkpt lat="42.4978351" lon="2.7045079"><ele></ele><time>2022-6-1T22:41:20Z</time></trkpt>
<trkpt lat="42.4976959" lon="2.7043509"><ele></ele><time>2022-6-1T22:41:23Z</time></trkpt>
<trkpt lat="42.4974987" lon="2.7042160"><ele></ele><time>2022-6-1T22:41:26Z</time></trkpt>
<trkpt lat="42.4973052" lon="2.7041083"><ele></ele><time>2022-6-1T22:41:29Z</time></trkpt>
<trkpt lat="42.4971071" lon="2.7039957"><ele></ele><time>2022-6-1T22:41:32Z</time></trkpt>
<trkpt lat="42.4969051" lon="2.7039146"><ele></ele><time>2022-6-1T22:41:35Z</time></trkpt>
<trkpt lat="42.4967240" lon="2.7038636"><ele></ele><time>2022-6-1T22:41:38Z</time></trkpt>
<trkpt lat="42.4964973" lon="2.7038092"><ele></ele><time>2022-6-1T22:41:41Z</time></trkpt>
<trkpt lat="42.4963134" lon="2.7037645"><ele></ele><time>2022-6-1T22:41:44Z</time></trkpt>
<trkpt lat="42.4960958" lon="2.7036973"><ele></ele><time>2022-6-1T22:41:47Z</time></trkpt>
<trkpt lat="42.4959183" lon="2.7036283"><ele></ele><time>2022-6-1T22:41:50Z</time></trkpt>
<trkpt lat="42.4957222" lon="2.7035474"><ele></ele><time>2022-6-1T22:41:53Z</time></trkpt>
<trkpt lat="42.4955076" lon="2.7034912"><ele></ele><time>2022-6-1T22:41:56Z</time></trkpt>
<trkpt lat="42.4953347" lon="2.7034145"><ele></ele><time>2022-6-1T22:41:59Z</time></trkpt>
<trkpt lat="42.4951561" lon="2.7033492"><ele></ele><time>2022-6-1T22:42:2Z</time></trkpt>
<trkpt lat="42.4949738" lon="2.7032942"><ele></ele><time>2022-6-1T22:42:5Z</time></trkpt>
<trkpt lat="42.4947559" lon="2.7032551"><ele></ele><time>2022-6-1T22:42:8Z</time></trkpt>
<trkpt lat="42.4945248" lon="2.7032332"><ele></ele><time>2022-6-1T22:42:11Z</time></trkpt>
<trkpt lat="42.4943147" lon="2.7031244"><ele></ele><time>2022-6-1T22:42:14Z</time></trkpt>
<trkpt lat="42.4941281" lon="2.7030565"><ele></ele><time>2022-6-1T22:42:17Z</time></trkpt>
<trkpt lat="42.4942132" lon="2.7032809"><ele></ele><time>2022-6-1T22:42:20Z</time></trkpt>
</trkseg></trk></gpx>